<?xml version="1.0" encoding="UTF-8" standalone="no" ?>
<gpx xmlns="http://www.topografix.com/GPX/1/1" xmlns:xsi="http://www.w3.org/2001/XMLSchema-instance" xsi:schemaLocation="http://www.topografix.com/GPX/1/1 http://www.topografix.com/GPX/1/1/gpx.xsd" version="1.1" creator="VisuGPX - https://www.visugpx.com">
  <metadata>
    <name>Romagné 9km</name>
  </metadata>
  <trk>
    <name><![CDATA[Romagné 9km_1]]></name>
    <trkseg>
      <trkpt lat="46.29569" lon="-0.45344">
        <ele>65</ele>
        <time>2011-11-22T13:45:32Z</time>
      </trkpt>
      <trkpt lat="46.29564" lon="-0.45344">
        <ele>70</ele>
        <time>2011-11-22T13:45:37Z</time>
      </trkpt>
      <trkpt lat="46.29564" lon="-0.45344">
        <ele>73</ele>
        <time>2011-11-22T13:45:42Z</time>
      </trkpt>
      <trkpt lat="46.29566" lon="-0.45344">
        <ele>73</ele>
        <time>2011-11-22T13:45:47Z</time>
      </trkpt>
      <trkpt lat="46.29565" lon="-0.45343">
        <ele>73</ele>
        <time>2011-11-22T13:45:52Z</time>
      </trkpt>
      <trkpt lat="46.29567" lon="-0.45343">
        <ele>74</ele>
        <time>2011-11-22T13:46:02Z</time>
      </trkpt>
      <trkpt lat="46.29567" lon="-0.45343">
        <ele>74</ele>
        <time>2011-11-22T13:46:07Z</time>
      </trkpt>
      <trkpt lat="46.29567" lon="-0.45343">
        <ele>74</ele>
        <time>2011-11-22T13:46:12Z</time>
      </trkpt>
      <trkpt lat="46.29566" lon="-0.45343">
        <ele>74</ele>
        <time>2011-11-22T13:46:17Z</time>
      </trkpt>
      <trkpt lat="46.29565" lon="-0.45343">
        <ele>72</ele>
        <time>2011-11-22T13:46:52Z</time>
      </trkpt>
      <trkpt lat="46.29565" lon="-0.45341">
        <ele>72</ele>
        <time>2011-11-22T13:46:57Z</time>
      </trkpt>
      <trkpt lat="46.29565" lon="-0.4534">
        <ele>72</ele>
        <time>2011-11-22T13:47:02Z</time>
      </trkpt>
      <trkpt lat="46.29564" lon="-0.45341">
        <ele>73</ele>
        <time>2011-11-22T13:47:07Z</time>
      </trkpt>
      <trkpt lat="46.29562" lon="-0.45341">
        <ele>72</ele>
        <time>2011-11-22T13:47:12Z</time>
      </trkpt>
      <trkpt lat="46.29562" lon="-0.45342">
        <ele>73</ele>
        <time>2011-11-22T13:47:17Z</time>
      </trkpt>
      <trkpt lat="46.29562" lon="-0.45342">
        <ele>73</ele>
        <time>2011-11-22T13:47:22Z</time>
      </trkpt>
      <trkpt lat="46.29562" lon="-0.45342">
        <ele>72</ele>
        <time>2011-11-22T13:47:27Z</time>
      </trkpt>
      <trkpt lat="46.29563" lon="-0.45342">
        <ele>72</ele>
        <time>2011-11-22T13:47:32Z</time>
      </trkpt>
      <trkpt lat="46.29569" lon="-0.45343">
        <ele>74</ele>
        <time>2011-11-22T13:47:37Z</time>
      </trkpt>
      <trkpt lat="46.29575" lon="-0.4534">
        <ele>73</ele>
        <time>2011-11-22T13:47:42Z</time>
      </trkpt>
      <trkpt lat="46.29579" lon="-0.45342">
        <ele>73</ele>
        <time>2011-11-22T13:47:47Z</time>
      </trkpt>
      <trkpt lat="46.29578" lon="-0.45342">
        <ele>74</ele>
        <time>2011-11-22T13:47:52Z</time>
      </trkpt>
      <trkpt lat="46.29581" lon="-0.45343">
        <ele>75</ele>
        <time>2011-11-22T13:47:57Z</time>
      </trkpt>
      <trkpt lat="46.29584" lon="-0.45348">
        <ele>74</ele>
        <time>2011-11-22T13:48:02Z</time>
      </trkpt>
      <trkpt lat="46.29582" lon="-0.4535">
        <ele>73</ele>
        <time>2011-11-22T13:48:07Z</time>
      </trkpt>
      <trkpt lat="46.29582" lon="-0.45351">
        <ele>73</ele>
        <time>2011-11-22T13:48:12Z</time>
      </trkpt>
      <trkpt lat="46.29582" lon="-0.45352">
        <ele>72</ele>
        <time>2011-11-22T13:48:22Z</time>
      </trkpt>
      <trkpt lat="46.29582" lon="-0.45354">
        <ele>71</ele>
        <time>2011-11-22T13:48:52Z</time>
      </trkpt>
      <trkpt lat="46.29583" lon="-0.45356">
        <ele>71</ele>
        <time>2011-11-22T13:48:57Z</time>
      </trkpt>
      <trkpt lat="46.29583" lon="-0.45355">
        <ele>70</ele>
        <time>2011-11-22T13:49:02Z</time>
      </trkpt>
      <trkpt lat="46.29583" lon="-0.45354">
        <ele>71</ele>
        <time>2011-11-22T13:49:17Z</time>
      </trkpt>
      <trkpt lat="46.29583" lon="-0.45355">
        <ele>71</ele>
        <time>2011-11-22T13:49:22Z</time>
      </trkpt>
      <trkpt lat="46.29584" lon="-0.45355">
        <ele>71</ele>
        <time>2011-11-22T13:49:27Z</time>
      </trkpt>
      <trkpt lat="46.29584" lon="-0.45356">
        <ele>71</ele>
        <time>2011-11-22T13:49:37Z</time>
      </trkpt>
      <trkpt lat="46.29584" lon="-0.45355">
        <ele>71</ele>
        <time>2011-11-22T13:49:42Z</time>
      </trkpt>
      <trkpt lat="46.29584" lon="-0.45355">
        <ele>72</ele>
        <time>2011-11-22T13:49:47Z</time>
      </trkpt>
      <trkpt lat="46.29584" lon="-0.45356">
        <ele>72</ele>
        <time>2011-11-22T13:50:02Z</time>
      </trkpt>
      <trkpt lat="46.29584" lon="-0.45355">
        <ele>72</ele>
        <time>2011-11-22T13:50:07Z</time>
      </trkpt>
      <trkpt lat="46.29586" lon="-0.45354">
        <ele>72</ele>
        <time>2011-11-22T13:50:12Z</time>
      </trkpt>
      <trkpt lat="46.29586" lon="-0.45353">
        <ele>72</ele>
        <time>2011-11-22T13:50:17Z</time>
      </trkpt>
      <trkpt lat="46.29586" lon="-0.45352">
        <ele>72</ele>
        <time>2011-11-22T13:50:22Z</time>
      </trkpt>
      <trkpt lat="46.29586" lon="-0.4535">
        <ele>72</ele>
        <time>2011-11-22T13:50:27Z</time>
      </trkpt>
      <trkpt lat="46.29584" lon="-0.45345">
        <ele>72</ele>
        <time>2011-11-22T13:50:32Z</time>
      </trkpt>
      <trkpt lat="46.29584" lon="-0.45343">
        <ele>71</ele>
        <time>2011-11-22T13:50:37Z</time>
      </trkpt>
      <trkpt lat="46.29582" lon="-0.45338">
        <ele>71</ele>
        <time>2011-11-22T13:50:42Z</time>
      </trkpt>
      <trkpt lat="46.29583" lon="-0.45328">
        <ele>71</ele>
        <time>2011-11-22T13:50:47Z</time>
      </trkpt>
      <trkpt lat="46.29581" lon="-0.45321">
        <ele>71</ele>
        <time>2011-11-22T13:50:52Z</time>
      </trkpt>
      <trkpt lat="46.29581" lon="-0.45313">
        <ele>71</ele>
        <time>2011-11-22T13:50:57Z</time>
      </trkpt>
      <trkpt lat="46.29579" lon="-0.45306">
        <ele>71</ele>
        <time>2011-11-22T13:51:02Z</time>
      </trkpt>
      <trkpt lat="46.29578" lon="-0.45305">
        <ele>71</ele>
        <time>2011-11-22T13:51:07Z</time>
      </trkpt>
      <trkpt lat="46.29575" lon="-0.45299">
        <ele>69</ele>
        <time>2011-11-22T13:51:12Z</time>
      </trkpt>
      <trkpt lat="46.29574" lon="-0.45291">
        <ele>70</ele>
        <time>2011-11-22T13:51:17Z</time>
      </trkpt>
      <trkpt lat="46.29572" lon="-0.45282">
        <ele>70</ele>
        <time>2011-11-22T13:51:22Z</time>
      </trkpt>
      <trkpt lat="46.29571" lon="-0.45276">
        <ele>69</ele>
        <time>2011-11-22T13:51:27Z</time>
      </trkpt>
      <trkpt lat="46.29568" lon="-0.45267">
        <ele>68</ele>
        <time>2011-11-22T13:51:32Z</time>
      </trkpt>
      <trkpt lat="46.29566" lon="-0.45257">
        <ele>68</ele>
        <time>2011-11-22T13:51:37Z</time>
      </trkpt>
      <trkpt lat="46.29565" lon="-0.45253">
        <ele>64</ele>
        <time>2011-11-22T13:51:42Z</time>
      </trkpt>
      <trkpt lat="46.29563" lon="-0.45247">
        <ele>63</ele>
        <time>2011-11-22T13:51:47Z</time>
      </trkpt>
      <trkpt lat="46.2956" lon="-0.4524">
        <ele>65</ele>
        <time>2011-11-22T13:51:52Z</time>
      </trkpt>
      <trkpt lat="46.2956" lon="-0.45239">
        <ele>64</ele>
        <time>2011-11-22T13:51:57Z</time>
      </trkpt>
      <trkpt lat="46.2956" lon="-0.45234">
        <ele>63</ele>
        <time>2011-11-22T13:52:02Z</time>
      </trkpt>
      <trkpt lat="46.29561" lon="-0.45231">
        <ele>62</ele>
        <time>2011-11-22T13:52:07Z</time>
      </trkpt>
      <trkpt lat="46.29559" lon="-0.45218">
        <ele>62</ele>
        <time>2011-11-22T13:52:12Z</time>
      </trkpt>
      <trkpt lat="46.2956" lon="-0.452">
        <ele>64</ele>
        <time>2011-11-22T13:52:17Z</time>
      </trkpt>
      <trkpt lat="46.29558" lon="-0.45194">
        <ele>67</ele>
        <time>2011-11-22T13:52:22Z</time>
      </trkpt>
      <trkpt lat="46.29558" lon="-0.45191">
        <ele>68</ele>
        <time>2011-11-22T13:52:32Z</time>
      </trkpt>
      <trkpt lat="46.29556" lon="-0.45178">
        <ele>69</ele>
        <time>2011-11-22T13:52:37Z</time>
      </trkpt>
      <trkpt lat="46.29556" lon="-0.45164">
        <ele>69</ele>
        <time>2011-11-22T13:52:42Z</time>
      </trkpt>
      <trkpt lat="46.29556" lon="-0.45151">
        <ele>71</ele>
        <time>2011-11-22T13:52:47Z</time>
      </trkpt>
      <trkpt lat="46.29554" lon="-0.45142">
        <ele>72</ele>
        <time>2011-11-22T13:52:52Z</time>
      </trkpt>
      <trkpt lat="46.29554" lon="-0.45136">
        <ele>71</ele>
        <time>2011-11-22T13:52:57Z</time>
      </trkpt>
      <trkpt lat="46.29553" lon="-0.45134">
        <ele>71</ele>
        <time>2011-11-22T13:53:02Z</time>
      </trkpt>
      <trkpt lat="46.2955" lon="-0.45117">
        <ele>72</ele>
        <time>2011-11-22T13:53:07Z</time>
      </trkpt>
      <trkpt lat="46.29549" lon="-0.45108">
        <ele>73</ele>
        <time>2011-11-22T13:53:12Z</time>
      </trkpt>
      <trkpt lat="46.29549" lon="-0.45107">
        <ele>72</ele>
        <time>2011-11-22T13:53:17Z</time>
      </trkpt>
      <trkpt lat="46.29549" lon="-0.45107">
        <ele>72</ele>
        <time>2011-11-22T13:53:22Z</time>
      </trkpt>
      <trkpt lat="46.2955" lon="-0.45107">
        <ele>72</ele>
        <time>2011-11-22T13:53:27Z</time>
      </trkpt>
      <trkpt lat="46.29549" lon="-0.45106">
        <ele>73</ele>
        <time>2011-11-22T13:53:42Z</time>
      </trkpt>
      <trkpt lat="46.29549" lon="-0.45104">
        <ele>73</ele>
        <time>2011-11-22T13:53:47Z</time>
      </trkpt>
      <trkpt lat="46.29549" lon="-0.45102">
        <ele>72</ele>
        <time>2011-11-22T13:53:52Z</time>
      </trkpt>
      <trkpt lat="46.29548" lon="-0.45093">
        <ele>71</ele>
        <time>2011-11-22T13:53:57Z</time>
      </trkpt>
      <trkpt lat="46.2955" lon="-0.45081">
        <ele>71</ele>
        <time>2011-11-22T13:54:02Z</time>
      </trkpt>
      <trkpt lat="46.29549" lon="-0.45071">
        <ele>70</ele>
        <time>2011-11-22T13:54:07Z</time>
      </trkpt>
      <trkpt lat="46.2955" lon="-0.45064">
        <ele>71</ele>
        <time>2011-11-22T13:54:12Z</time>
      </trkpt>
      <trkpt lat="46.29549" lon="-0.45054">
        <ele>71</ele>
        <time>2011-11-22T13:54:17Z</time>
      </trkpt>
      <trkpt lat="46.29548" lon="-0.45049">
        <ele>71</ele>
        <time>2011-11-22T13:54:22Z</time>
      </trkpt>
      <trkpt lat="46.29548" lon="-0.45046">
        <ele>71</ele>
        <time>2011-11-22T13:54:27Z</time>
      </trkpt>
      <trkpt lat="46.29547" lon="-0.45035">
        <ele>70</ele>
        <time>2011-11-22T13:54:32Z</time>
      </trkpt>
      <trkpt lat="46.29545" lon="-0.4502">
        <ele>70</ele>
        <time>2011-11-22T13:54:37Z</time>
      </trkpt>
      <trkpt lat="46.29543" lon="-0.45012">
        <ele>71</ele>
        <time>2011-11-22T13:54:42Z</time>
      </trkpt>
      <trkpt lat="46.29542" lon="-0.45003">
        <ele>69</ele>
        <time>2011-11-22T13:54:47Z</time>
      </trkpt>
      <trkpt lat="46.29539" lon="-0.44989">
        <ele>69</ele>
        <time>2011-11-22T13:54:52Z</time>
      </trkpt>
      <trkpt lat="46.29538" lon="-0.44983">
        <ele>70</ele>
        <time>2011-11-22T13:54:57Z</time>
      </trkpt>
      <trkpt lat="46.29538" lon="-0.44978">
        <ele>71</ele>
        <time>2011-11-22T13:55:02Z</time>
      </trkpt>
      <trkpt lat="46.29539" lon="-0.44977">
        <ele>71</ele>
        <time>2011-11-22T13:55:07Z</time>
      </trkpt>
      <trkpt lat="46.29539" lon="-0.4497">
        <ele>70</ele>
        <time>2011-11-22T13:55:12Z</time>
      </trkpt>
      <trkpt lat="46.29542" lon="-0.44962">
        <ele>70</ele>
        <time>2011-11-22T13:55:17Z</time>
      </trkpt>
      <trkpt lat="46.29546" lon="-0.44959">
        <ele>69</ele>
        <time>2011-11-22T13:55:22Z</time>
      </trkpt>
      <trkpt lat="46.29551" lon="-0.44956">
        <ele>68</ele>
        <time>2011-11-22T13:55:27Z</time>
      </trkpt>
      <trkpt lat="46.29555" lon="-0.44954">
        <ele>69</ele>
        <time>2011-11-22T13:55:32Z</time>
      </trkpt>
      <trkpt lat="46.29559" lon="-0.44951">
        <ele>67</ele>
        <time>2011-11-22T13:55:37Z</time>
      </trkpt>
      <trkpt lat="46.29563" lon="-0.44948">
        <ele>68</ele>
        <time>2011-11-22T13:55:42Z</time>
      </trkpt>
      <trkpt lat="46.29568" lon="-0.44945">
        <ele>68</ele>
        <time>2011-11-22T13:55:47Z</time>
      </trkpt>
      <trkpt lat="46.29574" lon="-0.4494">
        <ele>69</ele>
        <time>2011-11-22T13:55:52Z</time>
      </trkpt>
      <trkpt lat="46.29579" lon="-0.44937">
        <ele>72</ele>
        <time>2011-11-22T13:55:57Z</time>
      </trkpt>
      <trkpt lat="46.29584" lon="-0.44932">
        <ele>72</ele>
        <time>2011-11-22T13:56:02Z</time>
      </trkpt>
      <trkpt lat="46.29589" lon="-0.44929">
        <ele>71</ele>
        <time>2011-11-22T13:56:07Z</time>
      </trkpt>
      <trkpt lat="46.29596" lon="-0.44925">
        <ele>74</ele>
        <time>2011-11-22T13:56:12Z</time>
      </trkpt>
      <trkpt lat="46.29601" lon="-0.4492">
        <ele>74</ele>
        <time>2011-11-22T13:56:17Z</time>
      </trkpt>
      <trkpt lat="46.29606" lon="-0.44914">
        <ele>73</ele>
        <time>2011-11-22T13:56:22Z</time>
      </trkpt>
      <trkpt lat="46.29609" lon="-0.44909">
        <ele>71</ele>
        <time>2011-11-22T13:56:27Z</time>
      </trkpt>
      <trkpt lat="46.29614" lon="-0.44903">
        <ele>70</ele>
        <time>2011-11-22T13:56:32Z</time>
      </trkpt>
      <trkpt lat="46.29619" lon="-0.449">
        <ele>72</ele>
        <time>2011-11-22T13:56:37Z</time>
      </trkpt>
      <trkpt lat="46.29624" lon="-0.44895">
        <ele>71</ele>
        <time>2011-11-22T13:56:42Z</time>
      </trkpt>
      <trkpt lat="46.2963" lon="-0.44891">
        <ele>71</ele>
        <time>2011-11-22T13:56:47Z</time>
      </trkpt>
      <trkpt lat="46.29635" lon="-0.44885">
        <ele>70</ele>
        <time>2011-11-22T13:56:52Z</time>
      </trkpt>
      <trkpt lat="46.29639" lon="-0.4488">
        <ele>69</ele>
        <time>2011-11-22T13:56:57Z</time>
      </trkpt>
      <trkpt lat="46.29644" lon="-0.44877">
        <ele>68</ele>
        <time>2011-11-22T13:57:02Z</time>
      </trkpt>
      <trkpt lat="46.29649" lon="-0.44873">
        <ele>69</ele>
        <time>2011-11-22T13:57:07Z</time>
      </trkpt>
      <trkpt lat="46.29654" lon="-0.4487">
        <ele>70</ele>
        <time>2011-11-22T13:57:12Z</time>
      </trkpt>
      <trkpt lat="46.2966" lon="-0.44865">
        <ele>70</ele>
        <time>2011-11-22T13:57:17Z</time>
      </trkpt>
      <trkpt lat="46.29666" lon="-0.44861">
        <ele>72</ele>
        <time>2011-11-22T13:57:22Z</time>
      </trkpt>
      <trkpt lat="46.29671" lon="-0.44856">
        <ele>71</ele>
        <time>2011-11-22T13:57:27Z</time>
      </trkpt>
      <trkpt lat="46.29677" lon="-0.4485">
        <ele>71</ele>
        <time>2011-11-22T13:57:32Z</time>
      </trkpt>
      <trkpt lat="46.29681" lon="-0.44845">
        <ele>70</ele>
        <time>2011-11-22T13:57:37Z</time>
      </trkpt>
      <trkpt lat="46.29687" lon="-0.4484">
        <ele>70</ele>
        <time>2011-11-22T13:57:42Z</time>
      </trkpt>
      <trkpt lat="46.29693" lon="-0.44834">
        <ele>70</ele>
        <time>2011-11-22T13:57:47Z</time>
      </trkpt>
      <trkpt lat="46.29697" lon="-0.44828">
        <ele>71</ele>
        <time>2011-11-22T13:57:52Z</time>
      </trkpt>
      <trkpt lat="46.297" lon="-0.44819">
        <ele>69</ele>
        <time>2011-11-22T13:57:57Z</time>
      </trkpt>
      <trkpt lat="46.29703" lon="-0.44812">
        <ele>68</ele>
        <time>2011-11-22T13:58:02Z</time>
      </trkpt>
      <trkpt lat="46.29705" lon="-0.44804">
        <ele>68</ele>
        <time>2011-11-22T13:58:07Z</time>
      </trkpt>
      <trkpt lat="46.29708" lon="-0.44797">
        <ele>68</ele>
        <time>2011-11-22T13:58:12Z</time>
      </trkpt>
      <trkpt lat="46.29711" lon="-0.44789">
        <ele>69</ele>
        <time>2011-11-22T13:58:17Z</time>
      </trkpt>
      <trkpt lat="46.29713" lon="-0.44782">
        <ele>68</ele>
        <time>2011-11-22T13:58:22Z</time>
      </trkpt>
      <trkpt lat="46.29715" lon="-0.44773">
        <ele>67</ele>
        <time>2011-11-22T13:58:27Z</time>
      </trkpt>
      <trkpt lat="46.29719" lon="-0.44764">
        <ele>70</ele>
        <time>2011-11-22T13:58:32Z</time>
      </trkpt>
      <trkpt lat="46.29722" lon="-0.44757">
        <ele>71</ele>
        <time>2011-11-22T13:58:37Z</time>
      </trkpt>
      <trkpt lat="46.29725" lon="-0.44751">
        <ele>71</ele>
        <time>2011-11-22T13:58:42Z</time>
      </trkpt>
      <trkpt lat="46.29728" lon="-0.44742">
        <ele>71</ele>
        <time>2011-11-22T13:58:47Z</time>
      </trkpt>
      <trkpt lat="46.2973" lon="-0.44735">
        <ele>70</ele>
        <time>2011-11-22T13:58:52Z</time>
      </trkpt>
      <trkpt lat="46.29734" lon="-0.44729">
        <ele>69</ele>
        <time>2011-11-22T13:58:57Z</time>
      </trkpt>
      <trkpt lat="46.29737" lon="-0.4472">
        <ele>69</ele>
        <time>2011-11-22T13:59:02Z</time>
      </trkpt>
      <trkpt lat="46.29739" lon="-0.44712">
        <ele>69</ele>
        <time>2011-11-22T13:59:07Z</time>
      </trkpt>
      <trkpt lat="46.29744" lon="-0.44707">
        <ele>70</ele>
        <time>2011-11-22T13:59:12Z</time>
      </trkpt>
      <trkpt lat="46.29747" lon="-0.44696">
        <ele>70</ele>
        <time>2011-11-22T13:59:17Z</time>
      </trkpt>
      <trkpt lat="46.29751" lon="-0.4469">
        <ele>69</ele>
        <time>2011-11-22T13:59:22Z</time>
      </trkpt>
      <trkpt lat="46.29755" lon="-0.44683">
        <ele>68</ele>
        <time>2011-11-22T13:59:27Z</time>
      </trkpt>
      <trkpt lat="46.2976" lon="-0.44679">
        <ele>68</ele>
        <time>2011-11-22T13:59:32Z</time>
      </trkpt>
      <trkpt lat="46.29765" lon="-0.44674">
        <ele>67</ele>
        <time>2011-11-22T13:59:37Z</time>
      </trkpt>
      <trkpt lat="46.29771" lon="-0.44668">
        <ele>68</ele>
        <time>2011-11-22T13:59:42Z</time>
      </trkpt>
      <trkpt lat="46.29775" lon="-0.44663">
        <ele>67</ele>
        <time>2011-11-22T13:59:47Z</time>
      </trkpt>
      <trkpt lat="46.2978" lon="-0.44657">
        <ele>67</ele>
        <time>2011-11-22T13:59:52Z</time>
      </trkpt>
      <trkpt lat="46.29785" lon="-0.4465">
        <ele>67</ele>
        <time>2011-11-22T13:59:57Z</time>
      </trkpt>
      <trkpt lat="46.29789" lon="-0.44641">
        <ele>67</ele>
        <time>2011-11-22T14:00:02Z</time>
      </trkpt>
      <trkpt lat="46.29791" lon="-0.44634">
        <ele>68</ele>
        <time>2011-11-22T14:00:07Z</time>
      </trkpt>
      <trkpt lat="46.29794" lon="-0.44629">
        <ele>67</ele>
        <time>2011-11-22T14:00:12Z</time>
      </trkpt>
      <trkpt lat="46.29794" lon="-0.44629">
        <ele>67</ele>
        <time>2011-11-22T14:00:17Z</time>
      </trkpt>
      <trkpt lat="46.29795" lon="-0.4463">
        <ele>67</ele>
        <time>2011-11-22T14:00:32Z</time>
      </trkpt>
      <trkpt lat="46.29794" lon="-0.4463">
        <ele>66</ele>
        <time>2011-11-22T14:00:37Z</time>
      </trkpt>
      <trkpt lat="46.29795" lon="-0.4463">
        <ele>66</ele>
        <time>2011-11-22T14:00:42Z</time>
      </trkpt>
      <trkpt lat="46.29795" lon="-0.44629">
        <ele>65</ele>
        <time>2011-11-22T14:01:02Z</time>
      </trkpt>
      <trkpt lat="46.29794" lon="-0.44623">
        <ele>65</ele>
        <time>2011-11-22T14:01:07Z</time>
      </trkpt>
      <trkpt lat="46.29794" lon="-0.44617">
        <ele>66</ele>
        <time>2011-11-22T14:01:12Z</time>
      </trkpt>
      <trkpt lat="46.29794" lon="-0.44613">
        <ele>66</ele>
        <time>2011-11-22T14:01:17Z</time>
      </trkpt>
      <trkpt lat="46.29795" lon="-0.44613">
        <ele>66</ele>
        <time>2011-11-22T14:01:22Z</time>
      </trkpt>
      <trkpt lat="46.29795" lon="-0.44614">
        <ele>66</ele>
        <time>2011-11-22T14:01:27Z</time>
      </trkpt>
      <trkpt lat="46.29795" lon="-0.44611">
        <ele>66</ele>
        <time>2011-11-22T14:01:32Z</time>
      </trkpt>
      <trkpt lat="46.29792" lon="-0.446">
        <ele>66</ele>
        <time>2011-11-22T14:01:37Z</time>
      </trkpt>
      <trkpt lat="46.29789" lon="-0.44592">
        <ele>63</ele>
        <time>2011-11-22T14:01:42Z</time>
      </trkpt>
      <trkpt lat="46.29787" lon="-0.44587">
        <ele>60</ele>
        <time>2011-11-22T14:01:47Z</time>
      </trkpt>
      <trkpt lat="46.29782" lon="-0.44584">
        <ele>59</ele>
        <time>2011-11-22T14:01:52Z</time>
      </trkpt>
      <trkpt lat="46.29777" lon="-0.44583">
        <ele>59</ele>
        <time>2011-11-22T14:01:57Z</time>
      </trkpt>
      <trkpt lat="46.29772" lon="-0.44584">
        <ele>59</ele>
        <time>2011-11-22T14:02:02Z</time>
      </trkpt>
      <trkpt lat="46.29767" lon="-0.44587">
        <ele>60</ele>
        <time>2011-11-22T14:02:07Z</time>
      </trkpt>
      <trkpt lat="46.2976" lon="-0.44591">
        <ele>61</ele>
        <time>2011-11-22T14:02:12Z</time>
      </trkpt>
      <trkpt lat="46.29755" lon="-0.44594">
        <ele>61</ele>
        <time>2011-11-22T14:02:17Z</time>
      </trkpt>
      <trkpt lat="46.29751" lon="-0.44596">
        <ele>60</ele>
        <time>2011-11-22T14:02:22Z</time>
      </trkpt>
      <trkpt lat="46.29744" lon="-0.44598">
        <ele>64</ele>
        <time>2011-11-22T14:02:27Z</time>
      </trkpt>
      <trkpt lat="46.29738" lon="-0.44597">
        <ele>63</ele>
        <time>2011-11-22T14:02:32Z</time>
      </trkpt>
      <trkpt lat="46.29735" lon="-0.44593">
        <ele>63</ele>
        <time>2011-11-22T14:02:37Z</time>
      </trkpt>
      <trkpt lat="46.29729" lon="-0.44585">
        <ele>63</ele>
        <time>2011-11-22T14:02:42Z</time>
      </trkpt>
      <trkpt lat="46.29727" lon="-0.44578">
        <ele>62</ele>
        <time>2011-11-22T14:02:47Z</time>
      </trkpt>
      <trkpt lat="46.29723" lon="-0.44569">
        <ele>64</ele>
        <time>2011-11-22T14:02:52Z</time>
      </trkpt>
      <trkpt lat="46.29722" lon="-0.44562">
        <ele>64</ele>
        <time>2011-11-22T14:02:57Z</time>
      </trkpt>
      <trkpt lat="46.29719" lon="-0.44555">
        <ele>64</ele>
        <time>2011-11-22T14:03:02Z</time>
      </trkpt>
      <trkpt lat="46.29716" lon="-0.44549">
        <ele>64</ele>
        <time>2011-11-22T14:03:07Z</time>
      </trkpt>
      <trkpt lat="46.29714" lon="-0.44541">
        <ele>66</ele>
        <time>2011-11-22T14:03:12Z</time>
      </trkpt>
      <trkpt lat="46.29713" lon="-0.44536">
        <ele>64</ele>
        <time>2011-11-22T14:03:17Z</time>
      </trkpt>
      <trkpt lat="46.29712" lon="-0.44529">
        <ele>65</ele>
        <time>2011-11-22T14:03:22Z</time>
      </trkpt>
      <trkpt lat="46.29711" lon="-0.44525">
        <ele>65</ele>
        <time>2011-11-22T14:03:27Z</time>
      </trkpt>
      <trkpt lat="46.29713" lon="-0.44524">
        <ele>63</ele>
        <time>2011-11-22T14:03:32Z</time>
      </trkpt>
      <trkpt lat="46.29714" lon="-0.44524">
        <ele>63</ele>
        <time>2011-11-22T14:03:37Z</time>
      </trkpt>
      <trkpt lat="46.29715" lon="-0.44524">
        <ele>64</ele>
        <time>2011-11-22T14:03:42Z</time>
      </trkpt>
      <trkpt lat="46.29718" lon="-0.44519">
        <ele>63</ele>
        <time>2011-11-22T14:03:47Z</time>
      </trkpt>
      <trkpt lat="46.29722" lon="-0.44517">
        <ele>63</ele>
        <time>2011-11-22T14:03:52Z</time>
      </trkpt>
      <trkpt lat="46.29728" lon="-0.44515">
        <ele>63</ele>
        <time>2011-11-22T14:03:57Z</time>
      </trkpt>
      <trkpt lat="46.29734" lon="-0.44514">
        <ele>63</ele>
        <time>2011-11-22T14:04:02Z</time>
      </trkpt>
      <trkpt lat="46.29741" lon="-0.44512">
        <ele>62</ele>
        <time>2011-11-22T14:04:07Z</time>
      </trkpt>
      <trkpt lat="46.29746" lon="-0.4451">
        <ele>63</ele>
        <time>2011-11-22T14:04:12Z</time>
      </trkpt>
      <trkpt lat="46.29749" lon="-0.44509">
        <ele>62</ele>
        <time>2011-11-22T14:04:17Z</time>
      </trkpt>
      <trkpt lat="46.29755" lon="-0.44507">
        <ele>62</ele>
        <time>2011-11-22T14:04:22Z</time>
      </trkpt>
      <trkpt lat="46.29757" lon="-0.44508">
        <ele>63</ele>
        <time>2011-11-22T14:04:27Z</time>
      </trkpt>
      <trkpt lat="46.29758" lon="-0.44508">
        <ele>63</ele>
        <time>2011-11-22T14:04:32Z</time>
      </trkpt>
      <trkpt lat="46.29766" lon="-0.44505">
        <ele>64</ele>
        <time>2011-11-22T14:04:37Z</time>
      </trkpt>
      <trkpt lat="46.29776" lon="-0.44501">
        <ele>64</ele>
        <time>2011-11-22T14:04:42Z</time>
      </trkpt>
      <trkpt lat="46.29779" lon="-0.44502">
        <ele>65</ele>
        <time>2011-11-22T14:04:47Z</time>
      </trkpt>
      <trkpt lat="46.29787" lon="-0.44499">
        <ele>63</ele>
        <time>2011-11-22T14:04:52Z</time>
      </trkpt>
      <trkpt lat="46.29793" lon="-0.44497">
        <ele>64</ele>
        <time>2011-11-22T14:04:57Z</time>
      </trkpt>
      <trkpt lat="46.29801" lon="-0.44496">
        <ele>65</ele>
        <time>2011-11-22T14:05:02Z</time>
      </trkpt>
      <trkpt lat="46.29808" lon="-0.44494">
        <ele>65</ele>
        <time>2011-11-22T14:05:07Z</time>
      </trkpt>
      <trkpt lat="46.29814" lon="-0.44492">
        <ele>68</ele>
        <time>2011-11-22T14:05:12Z</time>
      </trkpt>
      <trkpt lat="46.29819" lon="-0.44489">
        <ele>69</ele>
        <time>2011-11-22T14:05:17Z</time>
      </trkpt>
      <trkpt lat="46.29822" lon="-0.44489">
        <ele>70</ele>
        <time>2011-11-22T14:05:22Z</time>
      </trkpt>
      <trkpt lat="46.29827" lon="-0.44484">
        <ele>70</ele>
        <time>2011-11-22T14:05:27Z</time>
      </trkpt>
      <trkpt lat="46.29832" lon="-0.44477">
        <ele>68</ele>
        <time>2011-11-22T14:05:32Z</time>
      </trkpt>
      <trkpt lat="46.29832" lon="-0.44469">
        <ele>69</ele>
        <time>2011-11-22T14:05:37Z</time>
      </trkpt>
      <trkpt lat="46.29831" lon="-0.44462">
        <ele>70</ele>
        <time>2011-11-22T14:05:42Z</time>
      </trkpt>
      <trkpt lat="46.29828" lon="-0.44456">
        <ele>68</ele>
        <time>2011-11-22T14:05:47Z</time>
      </trkpt>
      <trkpt lat="46.29826" lon="-0.4445">
        <ele>66</ele>
        <time>2011-11-22T14:05:52Z</time>
      </trkpt>
      <trkpt lat="46.29824" lon="-0.4444">
        <ele>65</ele>
        <time>2011-11-22T14:05:57Z</time>
      </trkpt>
      <trkpt lat="46.29822" lon="-0.44433">
        <ele>65</ele>
        <time>2011-11-22T14:06:02Z</time>
      </trkpt>
      <trkpt lat="46.29818" lon="-0.44425">
        <ele>67</ele>
        <time>2011-11-22T14:06:07Z</time>
      </trkpt>
      <trkpt lat="46.29816" lon="-0.44417">
        <ele>66</ele>
        <time>2011-11-22T14:06:12Z</time>
      </trkpt>
      <trkpt lat="46.29813" lon="-0.4441">
        <ele>66</ele>
        <time>2011-11-22T14:06:17Z</time>
      </trkpt>
      <trkpt lat="46.2981" lon="-0.44402">
        <ele>67</ele>
        <time>2011-11-22T14:06:22Z</time>
      </trkpt>
      <trkpt lat="46.29808" lon="-0.44395">
        <ele>66</ele>
        <time>2011-11-22T14:06:27Z</time>
      </trkpt>
      <trkpt lat="46.29805" lon="-0.44388">
        <ele>63</ele>
        <time>2011-11-22T14:06:32Z</time>
      </trkpt>
      <trkpt lat="46.29803" lon="-0.4438">
        <ele>63</ele>
        <time>2011-11-22T14:06:37Z</time>
      </trkpt>
      <trkpt lat="46.29801" lon="-0.44369">
        <ele>62</ele>
        <time>2011-11-22T14:06:42Z</time>
      </trkpt>
      <trkpt lat="46.298" lon="-0.44364">
        <ele>60</ele>
        <time>2011-11-22T14:06:47Z</time>
      </trkpt>
      <trkpt lat="46.29797" lon="-0.44359">
        <ele>58</ele>
        <time>2011-11-22T14:06:52Z</time>
      </trkpt>
      <trkpt lat="46.29792" lon="-0.44347">
        <ele>60</ele>
        <time>2011-11-22T14:06:57Z</time>
      </trkpt>
      <trkpt lat="46.29789" lon="-0.44341">
        <ele>60</ele>
        <time>2011-11-22T14:07:02Z</time>
      </trkpt>
      <trkpt lat="46.29785" lon="-0.44332">
        <ele>63</ele>
        <time>2011-11-22T14:07:07Z</time>
      </trkpt>
      <trkpt lat="46.29782" lon="-0.44325">
        <ele>62</ele>
        <time>2011-11-22T14:07:12Z</time>
      </trkpt>
      <trkpt lat="46.29779" lon="-0.44318">
        <ele>63</ele>
        <time>2011-11-22T14:07:17Z</time>
      </trkpt>
      <trkpt lat="46.29775" lon="-0.44313">
        <ele>62</ele>
        <time>2011-11-22T14:07:22Z</time>
      </trkpt>
      <trkpt lat="46.29772" lon="-0.44307">
        <ele>63</ele>
        <time>2011-11-22T14:07:27Z</time>
      </trkpt>
      <trkpt lat="46.29768" lon="-0.44302">
        <ele>61</ele>
        <time>2011-11-22T14:07:32Z</time>
      </trkpt>
      <trkpt lat="46.29764" lon="-0.44299">
        <ele>60</ele>
        <time>2011-11-22T14:07:37Z</time>
      </trkpt>
      <trkpt lat="46.2976" lon="-0.44289">
        <ele>61</ele>
        <time>2011-11-22T14:07:42Z</time>
      </trkpt>
      <trkpt lat="46.29756" lon="-0.44283">
        <ele>61</ele>
        <time>2011-11-22T14:07:47Z</time>
      </trkpt>
      <trkpt lat="46.29754" lon="-0.4428">
        <ele>62</ele>
        <time>2011-11-22T14:07:52Z</time>
      </trkpt>
      <trkpt lat="46.29752" lon="-0.44275">
        <ele>62</ele>
        <time>2011-11-22T14:07:57Z</time>
      </trkpt>
      <trkpt lat="46.29749" lon="-0.44272">
        <ele>62</ele>
        <time>2011-11-22T14:08:02Z</time>
      </trkpt>
      <trkpt lat="46.29744" lon="-0.4426">
        <ele>61</ele>
        <time>2011-11-22T14:08:07Z</time>
      </trkpt>
      <trkpt lat="46.29745" lon="-0.44252">
        <ele>60</ele>
        <time>2011-11-22T14:08:12Z</time>
      </trkpt>
      <trkpt lat="46.29737" lon="-0.44246">
        <ele>60</ele>
        <time>2011-11-22T14:08:17Z</time>
      </trkpt>
      <trkpt lat="46.29731" lon="-0.44237">
        <ele>59</ele>
        <time>2011-11-22T14:08:22Z</time>
      </trkpt>
      <trkpt lat="46.29728" lon="-0.4423">
        <ele>62</ele>
        <time>2011-11-22T14:08:27Z</time>
      </trkpt>
      <trkpt lat="46.29725" lon="-0.44225">
        <ele>64</ele>
        <time>2011-11-22T14:08:32Z</time>
      </trkpt>
      <trkpt lat="46.29724" lon="-0.44226">
        <ele>63</ele>
        <time>2011-11-22T14:08:37Z</time>
      </trkpt>
      <trkpt lat="46.29721" lon="-0.44225">
        <ele>63</ele>
        <time>2011-11-22T14:08:42Z</time>
      </trkpt>
      <trkpt lat="46.29718" lon="-0.44223">
        <ele>65</ele>
        <time>2011-11-22T14:08:47Z</time>
      </trkpt>
      <trkpt lat="46.29713" lon="-0.44223">
        <ele>64</ele>
        <time>2011-11-22T14:08:52Z</time>
      </trkpt>
      <trkpt lat="46.29709" lon="-0.44227">
        <ele>63</ele>
        <time>2011-11-22T14:08:57Z</time>
      </trkpt>
      <trkpt lat="46.29707" lon="-0.44232">
        <ele>62</ele>
        <time>2011-11-22T14:09:02Z</time>
      </trkpt>
      <trkpt lat="46.29702" lon="-0.44236">
        <ele>64</ele>
        <time>2011-11-22T14:09:07Z</time>
      </trkpt>
      <trkpt lat="46.29698" lon="-0.44241">
        <ele>64</ele>
        <time>2011-11-22T14:09:12Z</time>
      </trkpt>
      <trkpt lat="46.29694" lon="-0.44247">
        <ele>65</ele>
        <time>2011-11-22T14:09:17Z</time>
      </trkpt>
      <trkpt lat="46.29691" lon="-0.44252">
        <ele>64</ele>
        <time>2011-11-22T14:09:22Z</time>
      </trkpt>
      <trkpt lat="46.29685" lon="-0.44259">
        <ele>65</ele>
        <time>2011-11-22T14:09:27Z</time>
      </trkpt>
      <trkpt lat="46.29682" lon="-0.44266">
        <ele>65</ele>
        <time>2011-11-22T14:09:32Z</time>
      </trkpt>
      <trkpt lat="46.29678" lon="-0.44272">
        <ele>64</ele>
        <time>2011-11-22T14:09:37Z</time>
      </trkpt>
      <trkpt lat="46.29677" lon="-0.44274">
        <ele>64</ele>
        <time>2011-11-22T14:09:42Z</time>
      </trkpt>
      <trkpt lat="46.29675" lon="-0.4428">
        <ele>64</ele>
        <time>2011-11-22T14:09:47Z</time>
      </trkpt>
      <trkpt lat="46.29672" lon="-0.44289">
        <ele>63</ele>
        <time>2011-11-22T14:09:52Z</time>
      </trkpt>
      <trkpt lat="46.29668" lon="-0.44296">
        <ele>62</ele>
        <time>2011-11-22T14:09:57Z</time>
      </trkpt>
      <trkpt lat="46.29664" lon="-0.44303">
        <ele>63</ele>
        <time>2011-11-22T14:10:02Z</time>
      </trkpt>
      <trkpt lat="46.29661" lon="-0.44311">
        <ele>65</ele>
        <time>2011-11-22T14:10:07Z</time>
      </trkpt>
      <trkpt lat="46.29657" lon="-0.44317">
        <ele>66</ele>
        <time>2011-11-22T14:10:12Z</time>
      </trkpt>
      <trkpt lat="46.29653" lon="-0.44324">
        <ele>67</ele>
        <time>2011-11-22T14:10:17Z</time>
      </trkpt>
      <trkpt lat="46.29649" lon="-0.44329">
        <ele>67</ele>
        <time>2011-11-22T14:10:22Z</time>
      </trkpt>
      <trkpt lat="46.29646" lon="-0.44336">
        <ele>67</ele>
        <time>2011-11-22T14:10:27Z</time>
      </trkpt>
      <trkpt lat="46.29642" lon="-0.44344">
        <ele>68</ele>
        <time>2011-11-22T14:10:32Z</time>
      </trkpt>
      <trkpt lat="46.2964" lon="-0.44349">
        <ele>69</ele>
        <time>2011-11-22T14:10:37Z</time>
      </trkpt>
      <trkpt lat="46.29637" lon="-0.44355">
        <ele>68</ele>
        <time>2011-11-22T14:10:42Z</time>
      </trkpt>
      <trkpt lat="46.29633" lon="-0.44361">
        <ele>69</ele>
        <time>2011-11-22T14:10:47Z</time>
      </trkpt>
      <trkpt lat="46.29628" lon="-0.44369">
        <ele>67</ele>
        <time>2011-11-22T14:10:52Z</time>
      </trkpt>
      <trkpt lat="46.29624" lon="-0.44376">
        <ele>66</ele>
        <time>2011-11-22T14:10:57Z</time>
      </trkpt>
      <trkpt lat="46.2962" lon="-0.44382">
        <ele>65</ele>
        <time>2011-11-22T14:11:02Z</time>
      </trkpt>
      <trkpt lat="46.29618" lon="-0.44388">
        <ele>65</ele>
        <time>2011-11-22T14:11:07Z</time>
      </trkpt>
      <trkpt lat="46.29614" lon="-0.44391">
        <ele>65</ele>
        <time>2011-11-22T14:11:12Z</time>
      </trkpt>
      <trkpt lat="46.2961" lon="-0.44392">
        <ele>67</ele>
        <time>2011-11-22T14:11:17Z</time>
      </trkpt>
      <trkpt lat="46.29608" lon="-0.44393">
        <ele>66</ele>
        <time>2011-11-22T14:11:22Z</time>
      </trkpt>
      <trkpt lat="46.29601" lon="-0.44392">
        <ele>66</ele>
        <time>2011-11-22T14:11:27Z</time>
      </trkpt>
      <trkpt lat="46.29597" lon="-0.44393">
        <ele>66</ele>
        <time>2011-11-22T14:11:32Z</time>
      </trkpt>
      <trkpt lat="46.29593" lon="-0.44394">
        <ele>65</ele>
        <time>2011-11-22T14:11:37Z</time>
      </trkpt>
      <trkpt lat="46.29587" lon="-0.44396">
        <ele>65</ele>
        <time>2011-11-22T14:11:42Z</time>
      </trkpt>
      <trkpt lat="46.29582" lon="-0.44396">
        <ele>65</ele>
        <time>2011-11-22T14:11:47Z</time>
      </trkpt>
      <trkpt lat="46.29575" lon="-0.44397">
        <ele>65</ele>
        <time>2011-11-22T14:11:52Z</time>
      </trkpt>
      <trkpt lat="46.2957" lon="-0.44398">
        <ele>66</ele>
        <time>2011-11-22T14:11:57Z</time>
      </trkpt>
      <trkpt lat="46.29567" lon="-0.444">
        <ele>65</ele>
        <time>2011-11-22T14:12:02Z</time>
      </trkpt>
      <trkpt lat="46.29562" lon="-0.44401">
        <ele>65</ele>
        <time>2011-11-22T14:12:07Z</time>
      </trkpt>
      <trkpt lat="46.29558" lon="-0.44404">
        <ele>65</ele>
        <time>2011-11-22T14:12:12Z</time>
      </trkpt>
      <trkpt lat="46.29551" lon="-0.44407">
        <ele>67</ele>
        <time>2011-11-22T14:12:17Z</time>
      </trkpt>
      <trkpt lat="46.29544" lon="-0.44409">
        <ele>69</ele>
        <time>2011-11-22T14:12:22Z</time>
      </trkpt>
      <trkpt lat="46.29539" lon="-0.44412">
        <ele>70</ele>
        <time>2011-11-22T14:12:27Z</time>
      </trkpt>
      <trkpt lat="46.29535" lon="-0.44413">
        <ele>67</ele>
        <time>2011-11-22T14:12:32Z</time>
      </trkpt>
      <trkpt lat="46.2953" lon="-0.44415">
        <ele>66</ele>
        <time>2011-11-22T14:12:37Z</time>
      </trkpt>
      <trkpt lat="46.29523" lon="-0.44417">
        <ele>67</ele>
        <time>2011-11-22T14:12:42Z</time>
      </trkpt>
      <trkpt lat="46.29519" lon="-0.44419">
        <ele>68</ele>
        <time>2011-11-22T14:12:47Z</time>
      </trkpt>
      <trkpt lat="46.29514" lon="-0.44421">
        <ele>68</ele>
        <time>2011-11-22T14:12:52Z</time>
      </trkpt>
      <trkpt lat="46.2951" lon="-0.44423">
        <ele>68</ele>
        <time>2011-11-22T14:12:57Z</time>
      </trkpt>
      <trkpt lat="46.29503" lon="-0.44424">
        <ele>69</ele>
        <time>2011-11-22T14:13:02Z</time>
      </trkpt>
      <trkpt lat="46.29498" lon="-0.44424">
        <ele>68</ele>
        <time>2011-11-22T14:13:07Z</time>
      </trkpt>
      <trkpt lat="46.29494" lon="-0.44422">
        <ele>68</ele>
        <time>2011-11-22T14:13:12Z</time>
      </trkpt>
      <trkpt lat="46.29488" lon="-0.44415">
        <ele>67</ele>
        <time>2011-11-22T14:13:17Z</time>
      </trkpt>
      <trkpt lat="46.29484" lon="-0.44407">
        <ele>69</ele>
        <time>2011-11-22T14:13:22Z</time>
      </trkpt>
      <trkpt lat="46.2948" lon="-0.44403">
        <ele>69</ele>
        <time>2011-11-22T14:13:27Z</time>
      </trkpt>
      <trkpt lat="46.29476" lon="-0.44399">
        <ele>69</ele>
        <time>2011-11-22T14:13:32Z</time>
      </trkpt>
      <trkpt lat="46.29471" lon="-0.44393">
        <ele>70</ele>
        <time>2011-11-22T14:13:37Z</time>
      </trkpt>
      <trkpt lat="46.29468" lon="-0.44387">
        <ele>71</ele>
        <time>2011-11-22T14:13:42Z</time>
      </trkpt>
      <trkpt lat="46.29464" lon="-0.44383">
        <ele>71</ele>
        <time>2011-11-22T14:13:47Z</time>
      </trkpt>
      <trkpt lat="46.29461" lon="-0.44378">
        <ele>70</ele>
        <time>2011-11-22T14:13:52Z</time>
      </trkpt>
      <trkpt lat="46.29458" lon="-0.4437">
        <ele>67</ele>
        <time>2011-11-22T14:13:57Z</time>
      </trkpt>
      <trkpt lat="46.29455" lon="-0.44364">
        <ele>68</ele>
        <time>2011-11-22T14:14:02Z</time>
      </trkpt>
      <trkpt lat="46.2945" lon="-0.44358">
        <ele>68</ele>
        <time>2011-11-22T14:14:07Z</time>
      </trkpt>
      <trkpt lat="46.29447" lon="-0.44354">
        <ele>70</ele>
        <time>2011-11-22T14:14:12Z</time>
      </trkpt>
      <trkpt lat="46.29443" lon="-0.4435">
        <ele>69</ele>
        <time>2011-11-22T14:14:17Z</time>
      </trkpt>
      <trkpt lat="46.2944" lon="-0.44346">
        <ele>69</ele>
        <time>2011-11-22T14:14:22Z</time>
      </trkpt>
      <trkpt lat="46.29435" lon="-0.44338">
        <ele>68</ele>
        <time>2011-11-22T14:14:27Z</time>
      </trkpt>
      <trkpt lat="46.29432" lon="-0.44332">
        <ele>68</ele>
        <time>2011-11-22T14:14:32Z</time>
      </trkpt>
      <trkpt lat="46.29428" lon="-0.44326">
        <ele>66</ele>
        <time>2011-11-22T14:14:37Z</time>
      </trkpt>
      <trkpt lat="46.29425" lon="-0.4432">
        <ele>65</ele>
        <time>2011-11-22T14:14:42Z</time>
      </trkpt>
      <trkpt lat="46.29421" lon="-0.44315">
        <ele>65</ele>
        <time>2011-11-22T14:14:47Z</time>
      </trkpt>
      <trkpt lat="46.29419" lon="-0.4431">
        <ele>65</ele>
        <time>2011-11-22T14:14:52Z</time>
      </trkpt>
      <trkpt lat="46.29415" lon="-0.44305">
        <ele>66</ele>
        <time>2011-11-22T14:14:57Z</time>
      </trkpt>
      <trkpt lat="46.29411" lon="-0.44299">
        <ele>66</ele>
        <time>2011-11-22T14:15:02Z</time>
      </trkpt>
      <trkpt lat="46.29407" lon="-0.44292">
        <ele>67</ele>
        <time>2011-11-22T14:15:07Z</time>
      </trkpt>
      <trkpt lat="46.29404" lon="-0.44288">
        <ele>68</ele>
        <time>2011-11-22T14:15:12Z</time>
      </trkpt>
      <trkpt lat="46.29399" lon="-0.44283">
        <ele>68</ele>
        <time>2011-11-22T14:15:17Z</time>
      </trkpt>
      <trkpt lat="46.29393" lon="-0.44281">
        <ele>68</ele>
        <time>2011-11-22T14:15:22Z</time>
      </trkpt>
      <trkpt lat="46.29389" lon="-0.44283">
        <ele>68</ele>
        <time>2011-11-22T14:15:27Z</time>
      </trkpt>
      <trkpt lat="46.29385" lon="-0.44285">
        <ele>70</ele>
        <time>2011-11-22T14:15:32Z</time>
      </trkpt>
      <trkpt lat="46.29381" lon="-0.4429">
        <ele>69</ele>
        <time>2011-11-22T14:15:37Z</time>
      </trkpt>
      <trkpt lat="46.29378" lon="-0.44293">
        <ele>69</ele>
        <time>2011-11-22T14:15:42Z</time>
      </trkpt>
      <trkpt lat="46.29376" lon="-0.44296">
        <ele>68</ele>
        <time>2011-11-22T14:15:47Z</time>
      </trkpt>
      <trkpt lat="46.29373" lon="-0.44299">
        <ele>67</ele>
        <time>2011-11-22T14:15:52Z</time>
      </trkpt>
      <trkpt lat="46.29369" lon="-0.44304">
        <ele>67</ele>
        <time>2011-11-22T14:15:57Z</time>
      </trkpt>
      <trkpt lat="46.29368" lon="-0.44304">
        <ele>68</ele>
        <time>2011-11-22T14:16:02Z</time>
      </trkpt>
      <trkpt lat="46.29363" lon="-0.44307">
        <ele>67</ele>
        <time>2011-11-22T14:16:07Z</time>
      </trkpt>
      <trkpt lat="46.29356" lon="-0.44313">
        <ele>67</ele>
        <time>2011-11-22T14:16:12Z</time>
      </trkpt>
      <trkpt lat="46.2935" lon="-0.44318">
        <ele>68</ele>
        <time>2011-11-22T14:16:17Z</time>
      </trkpt>
      <trkpt lat="46.29347" lon="-0.44319">
        <ele>69</ele>
        <time>2011-11-22T14:16:22Z</time>
      </trkpt>
      <trkpt lat="46.29344" lon="-0.4432">
        <ele>69</ele>
        <time>2011-11-22T14:16:27Z</time>
      </trkpt>
      <trkpt lat="46.29337" lon="-0.44325">
        <ele>71</ele>
        <time>2011-11-22T14:16:32Z</time>
      </trkpt>
      <trkpt lat="46.29333" lon="-0.44327">
        <ele>72</ele>
        <time>2011-11-22T14:16:37Z</time>
      </trkpt>
      <trkpt lat="46.29329" lon="-0.44327">
        <ele>73</ele>
        <time>2011-11-22T14:16:42Z</time>
      </trkpt>
      <trkpt lat="46.29323" lon="-0.4433">
        <ele>73</ele>
        <time>2011-11-22T14:16:47Z</time>
      </trkpt>
      <trkpt lat="46.29317" lon="-0.44332">
        <ele>74</ele>
        <time>2011-11-22T14:16:52Z</time>
      </trkpt>
      <trkpt lat="46.29312" lon="-0.44332">
        <ele>76</ele>
        <time>2011-11-22T14:16:57Z</time>
      </trkpt>
      <trkpt lat="46.29307" lon="-0.44334">
        <ele>77</ele>
        <time>2011-11-22T14:17:02Z</time>
      </trkpt>
      <trkpt lat="46.29301" lon="-0.44334">
        <ele>77</ele>
        <time>2011-11-22T14:17:07Z</time>
      </trkpt>
      <trkpt lat="46.29296" lon="-0.44334">
        <ele>77</ele>
        <time>2011-11-22T14:17:12Z</time>
      </trkpt>
      <trkpt lat="46.29296" lon="-0.44333">
        <ele>78</ele>
        <time>2011-11-22T14:17:17Z</time>
      </trkpt>
      <trkpt lat="46.29296" lon="-0.44333">
        <ele>77</ele>
        <time>2011-11-22T14:17:22Z</time>
      </trkpt>
      <trkpt lat="46.29296" lon="-0.44332">
        <ele>77</ele>
        <time>2011-11-22T14:17:27Z</time>
      </trkpt>
      <trkpt lat="46.29295" lon="-0.44332">
        <ele>76</ele>
        <time>2011-11-22T14:17:32Z</time>
      </trkpt>
      <trkpt lat="46.29292" lon="-0.4433">
        <ele>77</ele>
        <time>2011-11-22T14:17:37Z</time>
      </trkpt>
      <trkpt lat="46.29288" lon="-0.44326">
        <ele>78</ele>
        <time>2011-11-22T14:17:42Z</time>
      </trkpt>
      <trkpt lat="46.29284" lon="-0.44324">
        <ele>80</ele>
        <time>2011-11-22T14:17:47Z</time>
      </trkpt>
      <trkpt lat="46.29281" lon="-0.44322">
        <ele>80</ele>
        <time>2011-11-22T14:17:52Z</time>
      </trkpt>
      <trkpt lat="46.29275" lon="-0.44315">
        <ele>80</ele>
        <time>2011-11-22T14:17:57Z</time>
      </trkpt>
      <trkpt lat="46.29271" lon="-0.4431">
        <ele>80</ele>
        <time>2011-11-22T14:18:02Z</time>
      </trkpt>
      <trkpt lat="46.29265" lon="-0.44305">
        <ele>80</ele>
        <time>2011-11-22T14:18:07Z</time>
      </trkpt>
      <trkpt lat="46.2926" lon="-0.44301">
        <ele>80</ele>
        <time>2011-11-22T14:18:12Z</time>
      </trkpt>
      <trkpt lat="46.29257" lon="-0.44298">
        <ele>80</ele>
        <time>2011-11-22T14:18:17Z</time>
      </trkpt>
      <trkpt lat="46.29252" lon="-0.44293">
        <ele>79</ele>
        <time>2011-11-22T14:18:22Z</time>
      </trkpt>
      <trkpt lat="46.29249" lon="-0.44288">
        <ele>78</ele>
        <time>2011-11-22T14:18:27Z</time>
      </trkpt>
      <trkpt lat="46.29246" lon="-0.44282">
        <ele>76</ele>
        <time>2011-11-22T14:18:32Z</time>
      </trkpt>
      <trkpt lat="46.29243" lon="-0.44269">
        <ele>79</ele>
        <time>2011-11-22T14:18:37Z</time>
      </trkpt>
      <trkpt lat="46.2924" lon="-0.44266">
        <ele>78</ele>
        <time>2011-11-22T14:18:42Z</time>
      </trkpt>
      <trkpt lat="46.29239" lon="-0.44261">
        <ele>77</ele>
        <time>2011-11-22T14:18:47Z</time>
      </trkpt>
      <trkpt lat="46.29237" lon="-0.44257">
        <ele>74</ele>
        <time>2011-11-22T14:18:52Z</time>
      </trkpt>
      <trkpt lat="46.29235" lon="-0.44245">
        <ele>78</ele>
        <time>2011-11-22T14:18:57Z</time>
      </trkpt>
      <trkpt lat="46.29234" lon="-0.44238">
        <ele>78</ele>
        <time>2011-11-22T14:19:02Z</time>
      </trkpt>
      <trkpt lat="46.29234" lon="-0.44228">
        <ele>79</ele>
        <time>2011-11-22T14:19:07Z</time>
      </trkpt>
      <trkpt lat="46.29232" lon="-0.4422">
        <ele>79</ele>
        <time>2011-11-22T14:19:12Z</time>
      </trkpt>
      <trkpt lat="46.2923" lon="-0.44212">
        <ele>81</ele>
        <time>2011-11-22T14:19:17Z</time>
      </trkpt>
      <trkpt lat="46.29229" lon="-0.44204">
        <ele>81</ele>
        <time>2011-11-22T14:19:22Z</time>
      </trkpt>
      <trkpt lat="46.29228" lon="-0.44196">
        <ele>82</ele>
        <time>2011-11-22T14:19:27Z</time>
      </trkpt>
      <trkpt lat="46.29226" lon="-0.44188">
        <ele>82</ele>
        <time>2011-11-22T14:19:32Z</time>
      </trkpt>
      <trkpt lat="46.29225" lon="-0.44181">
        <ele>82</ele>
        <time>2011-11-22T14:19:37Z</time>
      </trkpt>
      <trkpt lat="46.29223" lon="-0.4417">
        <ele>84</ele>
        <time>2011-11-22T14:19:42Z</time>
      </trkpt>
      <trkpt lat="46.29222" lon="-0.44164">
        <ele>83</ele>
        <time>2011-11-22T14:19:47Z</time>
      </trkpt>
      <trkpt lat="46.29219" lon="-0.44157">
        <ele>83</ele>
        <time>2011-11-22T14:19:52Z</time>
      </trkpt>
      <trkpt lat="46.29219" lon="-0.4415">
        <ele>83</ele>
        <time>2011-11-22T14:19:57Z</time>
      </trkpt>
      <trkpt lat="46.29216" lon="-0.44141">
        <ele>83</ele>
        <time>2011-11-22T14:20:02Z</time>
      </trkpt>
      <trkpt lat="46.29214" lon="-0.44131">
        <ele>84</ele>
        <time>2011-11-22T14:20:07Z</time>
      </trkpt>
      <trkpt lat="46.29212" lon="-0.44123">
        <ele>83</ele>
        <time>2011-11-22T14:20:12Z</time>
      </trkpt>
      <trkpt lat="46.29211" lon="-0.44114">
        <ele>85</ele>
        <time>2011-11-22T14:20:17Z</time>
      </trkpt>
      <trkpt lat="46.2921" lon="-0.44107">
        <ele>85</ele>
        <time>2011-11-22T14:20:22Z</time>
      </trkpt>
      <trkpt lat="46.29209" lon="-0.44102">
        <ele>84</ele>
        <time>2011-11-22T14:20:27Z</time>
      </trkpt>
      <trkpt lat="46.29208" lon="-0.44097">
        <ele>84</ele>
        <time>2011-11-22T14:20:32Z</time>
      </trkpt>
      <trkpt lat="46.29206" lon="-0.44091">
        <ele>84</ele>
        <time>2011-11-22T14:20:37Z</time>
      </trkpt>
      <trkpt lat="46.29205" lon="-0.44083">
        <ele>84</ele>
        <time>2011-11-22T14:20:42Z</time>
      </trkpt>
      <trkpt lat="46.29204" lon="-0.44076">
        <ele>84</ele>
        <time>2011-11-22T14:20:47Z</time>
      </trkpt>
      <trkpt lat="46.29204" lon="-0.4407">
        <ele>82</ele>
        <time>2011-11-22T14:20:52Z</time>
      </trkpt>
      <trkpt lat="46.29204" lon="-0.44062">
        <ele>80</ele>
        <time>2011-11-22T14:20:57Z</time>
      </trkpt>
      <trkpt lat="46.29204" lon="-0.44055">
        <ele>79</ele>
        <time>2011-11-22T14:21:02Z</time>
      </trkpt>
      <trkpt lat="46.29203" lon="-0.44047">
        <ele>79</ele>
        <time>2011-11-22T14:21:07Z</time>
      </trkpt>
      <trkpt lat="46.29202" lon="-0.44039">
        <ele>80</ele>
        <time>2011-11-22T14:21:12Z</time>
      </trkpt>
      <trkpt lat="46.29201" lon="-0.44031">
        <ele>80</ele>
        <time>2011-11-22T14:21:17Z</time>
      </trkpt>
      <trkpt lat="46.292" lon="-0.4402">
        <ele>81</ele>
        <time>2011-11-22T14:21:22Z</time>
      </trkpt>
      <trkpt lat="46.29199" lon="-0.44011">
        <ele>83</ele>
        <time>2011-11-22T14:21:27Z</time>
      </trkpt>
      <trkpt lat="46.29198" lon="-0.44005">
        <ele>84</ele>
        <time>2011-11-22T14:21:32Z</time>
      </trkpt>
      <trkpt lat="46.29197" lon="-0.43997">
        <ele>84</ele>
        <time>2011-11-22T14:21:37Z</time>
      </trkpt>
      <trkpt lat="46.29196" lon="-0.43988">
        <ele>85</ele>
        <time>2011-11-22T14:21:42Z</time>
      </trkpt>
      <trkpt lat="46.29194" lon="-0.4398">
        <ele>84</ele>
        <time>2011-11-22T14:21:47Z</time>
      </trkpt>
      <trkpt lat="46.29196" lon="-0.43974">
        <ele>84</ele>
        <time>2011-11-22T14:21:52Z</time>
      </trkpt>
      <trkpt lat="46.29195" lon="-0.43965">
        <ele>83</ele>
        <time>2011-11-22T14:21:57Z</time>
      </trkpt>
      <trkpt lat="46.29196" lon="-0.43958">
        <ele>82</ele>
        <time>2011-11-22T14:22:02Z</time>
      </trkpt>
      <trkpt lat="46.29194" lon="-0.43951">
        <ele>80</ele>
        <time>2011-11-22T14:22:07Z</time>
      </trkpt>
      <trkpt lat="46.29194" lon="-0.43944">
        <ele>80</ele>
        <time>2011-11-22T14:22:12Z</time>
      </trkpt>
      <trkpt lat="46.29193" lon="-0.43936">
        <ele>80</ele>
        <time>2011-11-22T14:22:17Z</time>
      </trkpt>
      <trkpt lat="46.29192" lon="-0.43935">
        <ele>79</ele>
        <time>2011-11-22T14:22:22Z</time>
      </trkpt>
      <trkpt lat="46.29192" lon="-0.43935">
        <ele>78</ele>
        <time>2011-11-22T14:22:32Z</time>
      </trkpt>
      <trkpt lat="46.29191" lon="-0.43932">
        <ele>78</ele>
        <time>2011-11-22T14:22:37Z</time>
      </trkpt>
      <trkpt lat="46.29192" lon="-0.43927">
        <ele>78</ele>
        <time>2011-11-22T14:22:52Z</time>
      </trkpt>
      <trkpt lat="46.29193" lon="-0.43921">
        <ele>78</ele>
        <time>2011-11-22T14:22:57Z</time>
      </trkpt>
      <trkpt lat="46.29197" lon="-0.43919">
        <ele>79</ele>
        <time>2011-11-22T14:23:02Z</time>
      </trkpt>
      <trkpt lat="46.292" lon="-0.43917">
        <ele>80</ele>
        <time>2011-11-22T14:23:07Z</time>
      </trkpt>
      <trkpt lat="46.29205" lon="-0.43917">
        <ele>81</ele>
        <time>2011-11-22T14:23:12Z</time>
      </trkpt>
      <trkpt lat="46.29211" lon="-0.43918">
        <ele>81</ele>
        <time>2011-11-22T14:23:17Z</time>
      </trkpt>
      <trkpt lat="46.29215" lon="-0.43917">
        <ele>81</ele>
        <time>2011-11-22T14:23:22Z</time>
      </trkpt>
      <trkpt lat="46.29219" lon="-0.43916">
        <ele>80</ele>
        <time>2011-11-22T14:23:27Z</time>
      </trkpt>
      <trkpt lat="46.29223" lon="-0.43914">
        <ele>81</ele>
        <time>2011-11-22T14:23:32Z</time>
      </trkpt>
      <trkpt lat="46.29228" lon="-0.43911">
        <ele>81</ele>
        <time>2011-11-22T14:23:37Z</time>
      </trkpt>
      <trkpt lat="46.29233" lon="-0.4391">
        <ele>81</ele>
        <time>2011-11-22T14:23:42Z</time>
      </trkpt>
      <trkpt lat="46.29238" lon="-0.43907">
        <ele>80</ele>
        <time>2011-11-22T14:23:47Z</time>
      </trkpt>
      <trkpt lat="46.29241" lon="-0.43907">
        <ele>80</ele>
        <time>2011-11-22T14:23:52Z</time>
      </trkpt>
      <trkpt lat="46.29245" lon="-0.43905">
        <ele>80</ele>
        <time>2011-11-22T14:23:57Z</time>
      </trkpt>
      <trkpt lat="46.29251" lon="-0.43902">
        <ele>79</ele>
        <time>2011-11-22T14:24:02Z</time>
      </trkpt>
      <trkpt lat="46.29257" lon="-0.43902">
        <ele>78</ele>
        <time>2011-11-22T14:24:07Z</time>
      </trkpt>
      <trkpt lat="46.29261" lon="-0.43902">
        <ele>78</ele>
        <time>2011-11-22T14:24:12Z</time>
      </trkpt>
      <trkpt lat="46.29266" lon="-0.43901">
        <ele>77</ele>
        <time>2011-11-22T14:24:17Z</time>
      </trkpt>
      <trkpt lat="46.2927" lon="-0.43901">
        <ele>76</ele>
        <time>2011-11-22T14:24:22Z</time>
      </trkpt>
      <trkpt lat="46.29277" lon="-0.439">
        <ele>76</ele>
        <time>2011-11-22T14:24:27Z</time>
      </trkpt>
      <trkpt lat="46.29281" lon="-0.439">
        <ele>75</ele>
        <time>2011-11-22T14:24:32Z</time>
      </trkpt>
      <trkpt lat="46.29285" lon="-0.43899">
        <ele>74</ele>
        <time>2011-11-22T14:24:37Z</time>
      </trkpt>
      <trkpt lat="46.29291" lon="-0.43899">
        <ele>73</ele>
        <time>2011-11-22T14:24:42Z</time>
      </trkpt>
      <trkpt lat="46.29295" lon="-0.43899">
        <ele>72</ele>
        <time>2011-11-22T14:24:47Z</time>
      </trkpt>
      <trkpt lat="46.29299" lon="-0.43896">
        <ele>72</ele>
        <time>2011-11-22T14:24:52Z</time>
      </trkpt>
      <trkpt lat="46.29304" lon="-0.43896">
        <ele>72</ele>
        <time>2011-11-22T14:24:57Z</time>
      </trkpt>
      <trkpt lat="46.29311" lon="-0.43896">
        <ele>73</ele>
        <time>2011-11-22T14:25:02Z</time>
      </trkpt>
      <trkpt lat="46.29317" lon="-0.43895">
        <ele>72</ele>
        <time>2011-11-22T14:25:07Z</time>
      </trkpt>
      <trkpt lat="46.29321" lon="-0.43893">
        <ele>72</ele>
        <time>2011-11-22T14:25:12Z</time>
      </trkpt>
      <trkpt lat="46.29323" lon="-0.43893">
        <ele>71</ele>
        <time>2011-11-22T14:25:17Z</time>
      </trkpt>
      <trkpt lat="46.29327" lon="-0.43892">
        <ele>70</ele>
        <time>2011-11-22T14:25:22Z</time>
      </trkpt>
      <trkpt lat="46.29333" lon="-0.43892">
        <ele>71</ele>
        <time>2011-11-22T14:25:27Z</time>
      </trkpt>
      <trkpt lat="46.29338" lon="-0.43892">
        <ele>70</ele>
        <time>2011-11-22T14:25:32Z</time>
      </trkpt>
      <trkpt lat="46.29342" lon="-0.43891">
        <ele>68</ele>
        <time>2011-11-22T14:25:37Z</time>
      </trkpt>
      <trkpt lat="46.29346" lon="-0.43892">
        <ele>66</ele>
        <time>2011-11-22T14:25:42Z</time>
      </trkpt>
      <trkpt lat="46.2935" lon="-0.43893">
        <ele>67</ele>
        <time>2011-11-22T14:25:47Z</time>
      </trkpt>
      <trkpt lat="46.29354" lon="-0.43893">
        <ele>66</ele>
        <time>2011-11-22T14:25:52Z</time>
      </trkpt>
      <trkpt lat="46.29359" lon="-0.43893">
        <ele>64</ele>
        <time>2011-11-22T14:25:57Z</time>
      </trkpt>
      <trkpt lat="46.29365" lon="-0.43891">
        <ele>61</ele>
        <time>2011-11-22T14:26:02Z</time>
      </trkpt>
      <trkpt lat="46.2937" lon="-0.4389">
        <ele>61</ele>
        <time>2011-11-22T14:26:07Z</time>
      </trkpt>
      <trkpt lat="46.29377" lon="-0.43891">
        <ele>61</ele>
        <time>2011-11-22T14:26:12Z</time>
      </trkpt>
      <trkpt lat="46.29382" lon="-0.43888">
        <ele>63</ele>
        <time>2011-11-22T14:26:17Z</time>
      </trkpt>
      <trkpt lat="46.29388" lon="-0.43887">
        <ele>62</ele>
        <time>2011-11-22T14:26:22Z</time>
      </trkpt>
      <trkpt lat="46.29393" lon="-0.43885">
        <ele>62</ele>
        <time>2011-11-22T14:26:27Z</time>
      </trkpt>
      <trkpt lat="46.29398" lon="-0.43884">
        <ele>61</ele>
        <time>2011-11-22T14:26:32Z</time>
      </trkpt>
      <trkpt lat="46.29404" lon="-0.43882">
        <ele>61</ele>
        <time>2011-11-22T14:26:37Z</time>
      </trkpt>
      <trkpt lat="46.29409" lon="-0.43879">
        <ele>61</ele>
        <time>2011-11-22T14:26:42Z</time>
      </trkpt>
      <trkpt lat="46.29414" lon="-0.43879">
        <ele>61</ele>
        <time>2011-11-22T14:26:47Z</time>
      </trkpt>
      <trkpt lat="46.2942" lon="-0.43879">
        <ele>61</ele>
        <time>2011-11-22T14:26:52Z</time>
      </trkpt>
      <trkpt lat="46.29427" lon="-0.43877">
        <ele>62</ele>
        <time>2011-11-22T14:26:57Z</time>
      </trkpt>
      <trkpt lat="46.29432" lon="-0.43876">
        <ele>63</ele>
        <time>2011-11-22T14:27:02Z</time>
      </trkpt>
      <trkpt lat="46.29438" lon="-0.43873">
        <ele>66</ele>
        <time>2011-11-22T14:27:07Z</time>
      </trkpt>
      <trkpt lat="46.29444" lon="-0.43874">
        <ele>66</ele>
        <time>2011-11-22T14:27:12Z</time>
      </trkpt>
      <trkpt lat="46.2945" lon="-0.43872">
        <ele>68</ele>
        <time>2011-11-22T14:27:17Z</time>
      </trkpt>
      <trkpt lat="46.29455" lon="-0.4387">
        <ele>66</ele>
        <time>2011-11-22T14:27:22Z</time>
      </trkpt>
      <trkpt lat="46.29461" lon="-0.4387">
        <ele>67</ele>
        <time>2011-11-22T14:27:27Z</time>
      </trkpt>
      <trkpt lat="46.29464" lon="-0.4387">
        <ele>68</ele>
        <time>2011-11-22T14:27:32Z</time>
      </trkpt>
      <trkpt lat="46.29469" lon="-0.43872">
        <ele>68</ele>
        <time>2011-11-22T14:27:37Z</time>
      </trkpt>
      <trkpt lat="46.29474" lon="-0.43872">
        <ele>68</ele>
        <time>2011-11-22T14:27:42Z</time>
      </trkpt>
      <trkpt lat="46.29477" lon="-0.43874">
        <ele>68</ele>
        <time>2011-11-22T14:27:47Z</time>
      </trkpt>
      <trkpt lat="46.29483" lon="-0.43879">
        <ele>66</ele>
        <time>2011-11-22T14:27:52Z</time>
      </trkpt>
      <trkpt lat="46.2949" lon="-0.4388">
        <ele>66</ele>
        <time>2011-11-22T14:27:57Z</time>
      </trkpt>
      <trkpt lat="46.29495" lon="-0.43882">
        <ele>68</ele>
        <time>2011-11-22T14:28:02Z</time>
      </trkpt>
      <trkpt lat="46.29503" lon="-0.43886">
        <ele>69</ele>
        <time>2011-11-22T14:28:07Z</time>
      </trkpt>
      <trkpt lat="46.29505" lon="-0.43887">
        <ele>69</ele>
        <time>2011-11-22T14:28:12Z</time>
      </trkpt>
      <trkpt lat="46.29509" lon="-0.4389">
        <ele>68</ele>
        <time>2011-11-22T14:28:17Z</time>
      </trkpt>
      <trkpt lat="46.29515" lon="-0.43893">
        <ele>69</ele>
        <time>2011-11-22T14:28:22Z</time>
      </trkpt>
      <trkpt lat="46.29522" lon="-0.43892">
        <ele>69</ele>
        <time>2011-11-22T14:28:27Z</time>
      </trkpt>
      <trkpt lat="46.29526" lon="-0.43889">
        <ele>70</ele>
        <time>2011-11-22T14:28:32Z</time>
      </trkpt>
      <trkpt lat="46.2953" lon="-0.43884">
        <ele>70</ele>
        <time>2011-11-22T14:28:37Z</time>
      </trkpt>
      <trkpt lat="46.29535" lon="-0.43878">
        <ele>70</ele>
        <time>2011-11-22T14:28:42Z</time>
      </trkpt>
      <trkpt lat="46.29537" lon="-0.43873">
        <ele>71</ele>
        <time>2011-11-22T14:28:47Z</time>
      </trkpt>
      <trkpt lat="46.29539" lon="-0.43871">
        <ele>70</ele>
        <time>2011-11-22T14:28:52Z</time>
      </trkpt>
      <trkpt lat="46.29544" lon="-0.43866">
        <ele>69</ele>
        <time>2011-11-22T14:28:57Z</time>
      </trkpt>
      <trkpt lat="46.2955" lon="-0.43862">
        <ele>67</ele>
        <time>2011-11-22T14:29:02Z</time>
      </trkpt>
      <trkpt lat="46.29553" lon="-0.43856">
        <ele>66</ele>
        <time>2011-11-22T14:29:07Z</time>
      </trkpt>
      <trkpt lat="46.29558" lon="-0.4385">
        <ele>64</ele>
        <time>2011-11-22T14:29:12Z</time>
      </trkpt>
      <trkpt lat="46.29562" lon="-0.43844">
        <ele>65</ele>
        <time>2011-11-22T14:29:17Z</time>
      </trkpt>
      <trkpt lat="46.29566" lon="-0.43839">
        <ele>66</ele>
        <time>2011-11-22T14:29:22Z</time>
      </trkpt>
      <trkpt lat="46.29568" lon="-0.43833">
        <ele>67</ele>
        <time>2011-11-22T14:29:27Z</time>
      </trkpt>
      <trkpt lat="46.29572" lon="-0.43828">
        <ele>67</ele>
        <time>2011-11-22T14:29:32Z</time>
      </trkpt>
      <trkpt lat="46.29573" lon="-0.43824">
        <ele>67</ele>
        <time>2011-11-22T14:29:37Z</time>
      </trkpt>
      <trkpt lat="46.29576" lon="-0.43824">
        <ele>67</ele>
        <time>2011-11-22T14:29:42Z</time>
      </trkpt>
      <trkpt lat="46.29576" lon="-0.43825">
        <ele>67</ele>
        <time>2011-11-22T14:29:47Z</time>
      </trkpt>
      <trkpt lat="46.29576" lon="-0.43825">
        <ele>68</ele>
        <time>2011-11-22T14:29:52Z</time>
      </trkpt>
      <trkpt lat="46.29576" lon="-0.43824">
        <ele>68</ele>
        <time>2011-11-22T14:29:57Z</time>
      </trkpt>
      <trkpt lat="46.29577" lon="-0.43823">
        <ele>68</ele>
        <time>2011-11-22T14:30:02Z</time>
      </trkpt>
      <trkpt lat="46.29578" lon="-0.43823">
        <ele>68</ele>
        <time>2011-11-22T14:30:07Z</time>
      </trkpt>
      <trkpt lat="46.29579" lon="-0.43823">
        <ele>68</ele>
        <time>2011-11-22T14:30:12Z</time>
      </trkpt>
      <trkpt lat="46.2958" lon="-0.43824">
        <ele>69</ele>
        <time>2011-11-22T14:30:17Z</time>
      </trkpt>
      <trkpt lat="46.2958" lon="-0.43823">
        <ele>69</ele>
        <time>2011-11-22T14:30:22Z</time>
      </trkpt>
      <trkpt lat="46.29579" lon="-0.43824">
        <ele>69</ele>
        <time>2011-11-22T14:30:27Z</time>
      </trkpt>
      <trkpt lat="46.29579" lon="-0.43822">
        <ele>68</ele>
        <time>2011-11-22T14:30:32Z</time>
      </trkpt>
      <trkpt lat="46.29579" lon="-0.43822">
        <ele>68</ele>
        <time>2011-11-22T14:30:37Z</time>
      </trkpt>
      <trkpt lat="46.2958" lon="-0.4382">
        <ele>68</ele>
        <time>2011-11-22T14:30:52Z</time>
      </trkpt>
      <trkpt lat="46.29581" lon="-0.43816">
        <ele>67</ele>
        <time>2011-11-22T14:30:57Z</time>
      </trkpt>
      <trkpt lat="46.29584" lon="-0.43811">
        <ele>68</ele>
        <time>2011-11-22T14:31:02Z</time>
      </trkpt>
      <trkpt lat="46.29584" lon="-0.43803">
        <ele>69</ele>
        <time>2011-11-22T14:31:07Z</time>
      </trkpt>
      <trkpt lat="46.29582" lon="-0.43797">
        <ele>68</ele>
        <time>2011-11-22T14:31:12Z</time>
      </trkpt>
      <trkpt lat="46.29579" lon="-0.43792">
        <ele>66</ele>
        <time>2011-11-22T14:31:17Z</time>
      </trkpt>
      <trkpt lat="46.29575" lon="-0.43787">
        <ele>67</ele>
        <time>2011-11-22T14:31:22Z</time>
      </trkpt>
      <trkpt lat="46.29572" lon="-0.43783">
        <ele>66</ele>
        <time>2011-11-22T14:31:27Z</time>
      </trkpt>
      <trkpt lat="46.29567" lon="-0.4378">
        <ele>66</ele>
        <time>2011-11-22T14:31:32Z</time>
      </trkpt>
      <trkpt lat="46.29562" lon="-0.43776">
        <ele>66</ele>
        <time>2011-11-22T14:31:37Z</time>
      </trkpt>
      <trkpt lat="46.29559" lon="-0.43772">
        <ele>67</ele>
        <time>2011-11-22T14:31:42Z</time>
      </trkpt>
      <trkpt lat="46.29556" lon="-0.43768">
        <ele>68</ele>
        <time>2011-11-22T14:31:47Z</time>
      </trkpt>
      <trkpt lat="46.29551" lon="-0.43763">
        <ele>68</ele>
        <time>2011-11-22T14:31:52Z</time>
      </trkpt>
      <trkpt lat="46.29547" lon="-0.43758">
        <ele>68</ele>
        <time>2011-11-22T14:31:57Z</time>
      </trkpt>
      <trkpt lat="46.29542" lon="-0.43751">
        <ele>68</ele>
        <time>2011-11-22T14:32:02Z</time>
      </trkpt>
      <trkpt lat="46.29539" lon="-0.43747">
        <ele>69</ele>
        <time>2011-11-22T14:32:07Z</time>
      </trkpt>
      <trkpt lat="46.29535" lon="-0.43743">
        <ele>67</ele>
        <time>2011-11-22T14:32:12Z</time>
      </trkpt>
      <trkpt lat="46.29532" lon="-0.43738">
        <ele>65</ele>
        <time>2011-11-22T14:32:17Z</time>
      </trkpt>
      <trkpt lat="46.29531" lon="-0.43733">
        <ele>62</ele>
        <time>2011-11-22T14:32:22Z</time>
      </trkpt>
      <trkpt lat="46.2953" lon="-0.4373">
        <ele>59</ele>
        <time>2011-11-22T14:32:27Z</time>
      </trkpt>
      <trkpt lat="46.29529" lon="-0.43722">
        <ele>59</ele>
        <time>2011-11-22T14:32:32Z</time>
      </trkpt>
      <trkpt lat="46.29527" lon="-0.43715">
        <ele>58</ele>
        <time>2011-11-22T14:32:37Z</time>
      </trkpt>
      <trkpt lat="46.29525" lon="-0.43708">
        <ele>59</ele>
        <time>2011-11-22T14:32:42Z</time>
      </trkpt>
      <trkpt lat="46.29523" lon="-0.43702">
        <ele>57</ele>
        <time>2011-11-22T14:32:47Z</time>
      </trkpt>
      <trkpt lat="46.29521" lon="-0.43693">
        <ele>58</ele>
        <time>2011-11-22T14:32:52Z</time>
      </trkpt>
      <trkpt lat="46.29518" lon="-0.43686">
        <ele>59</ele>
        <time>2011-11-22T14:32:57Z</time>
      </trkpt>
      <trkpt lat="46.29516" lon="-0.43681">
        <ele>58</ele>
        <time>2011-11-22T14:33:02Z</time>
      </trkpt>
      <trkpt lat="46.29514" lon="-0.43672">
        <ele>58</ele>
        <time>2011-11-22T14:33:07Z</time>
      </trkpt>
      <trkpt lat="46.29512" lon="-0.43669">
        <ele>57</ele>
        <time>2011-11-22T14:33:12Z</time>
      </trkpt>
      <trkpt lat="46.29511" lon="-0.43661">
        <ele>58</ele>
        <time>2011-11-22T14:33:17Z</time>
      </trkpt>
      <trkpt lat="46.29508" lon="-0.43655">
        <ele>58</ele>
        <time>2011-11-22T14:33:22Z</time>
      </trkpt>
      <trkpt lat="46.29506" lon="-0.43644">
        <ele>59</ele>
        <time>2011-11-22T14:33:27Z</time>
      </trkpt>
      <trkpt lat="46.29503" lon="-0.43638">
        <ele>58</ele>
        <time>2011-11-22T14:33:32Z</time>
      </trkpt>
      <trkpt lat="46.29501" lon="-0.43631">
        <ele>57</ele>
        <time>2011-11-22T14:33:37Z</time>
      </trkpt>
      <trkpt lat="46.29499" lon="-0.43627">
        <ele>58</ele>
        <time>2011-11-22T14:33:42Z</time>
      </trkpt>
      <trkpt lat="46.29498" lon="-0.4362">
        <ele>58</ele>
        <time>2011-11-22T14:33:47Z</time>
      </trkpt>
      <trkpt lat="46.29496" lon="-0.43612">
        <ele>58</ele>
        <time>2011-11-22T14:33:52Z</time>
      </trkpt>
      <trkpt lat="46.29492" lon="-0.43593">
        <ele>61</ele>
        <time>2011-11-22T14:33:57Z</time>
      </trkpt>
      <trkpt lat="46.2949" lon="-0.43586">
        <ele>62</ele>
        <time>2011-11-22T14:34:02Z</time>
      </trkpt>
      <trkpt lat="46.29487" lon="-0.43581">
        <ele>62</ele>
        <time>2011-11-22T14:34:07Z</time>
      </trkpt>
      <trkpt lat="46.29485" lon="-0.43575">
        <ele>63</ele>
        <time>2011-11-22T14:34:12Z</time>
      </trkpt>
      <trkpt lat="46.29482" lon="-0.43567">
        <ele>64</ele>
        <time>2011-11-22T14:34:17Z</time>
      </trkpt>
      <trkpt lat="46.29481" lon="-0.43561">
        <ele>63</ele>
        <time>2011-11-22T14:34:22Z</time>
      </trkpt>
      <trkpt lat="46.29479" lon="-0.43551">
        <ele>65</ele>
        <time>2011-11-22T14:34:27Z</time>
      </trkpt>
      <trkpt lat="46.29477" lon="-0.43544">
        <ele>65</ele>
        <time>2011-11-22T14:34:32Z</time>
      </trkpt>
      <trkpt lat="46.29474" lon="-0.43536">
        <ele>64</ele>
        <time>2011-11-22T14:34:37Z</time>
      </trkpt>
      <trkpt lat="46.29473" lon="-0.43531">
        <ele>64</ele>
        <time>2011-11-22T14:34:42Z</time>
      </trkpt>
      <trkpt lat="46.29471" lon="-0.43526">
        <ele>64</ele>
        <time>2011-11-22T14:34:47Z</time>
      </trkpt>
      <trkpt lat="46.29469" lon="-0.43517">
        <ele>65</ele>
        <time>2011-11-22T14:34:52Z</time>
      </trkpt>
      <trkpt lat="46.29466" lon="-0.43509">
        <ele>65</ele>
        <time>2011-11-22T14:34:57Z</time>
      </trkpt>
      <trkpt lat="46.29464" lon="-0.43503">
        <ele>64</ele>
        <time>2011-11-22T14:35:02Z</time>
      </trkpt>
      <trkpt lat="46.29462" lon="-0.43495">
        <ele>64</ele>
        <time>2011-11-22T14:35:07Z</time>
      </trkpt>
      <trkpt lat="46.29459" lon="-0.4349">
        <ele>65</ele>
        <time>2011-11-22T14:35:12Z</time>
      </trkpt>
      <trkpt lat="46.29457" lon="-0.43481">
        <ele>64</ele>
        <time>2011-11-22T14:35:17Z</time>
      </trkpt>
      <trkpt lat="46.29454" lon="-0.43475">
        <ele>64</ele>
        <time>2011-11-22T14:35:22Z</time>
      </trkpt>
      <trkpt lat="46.29453" lon="-0.43468">
        <ele>64</ele>
        <time>2011-11-22T14:35:27Z</time>
      </trkpt>
      <trkpt lat="46.29451" lon="-0.43465">
        <ele>64</ele>
        <time>2011-11-22T14:35:32Z</time>
      </trkpt>
      <trkpt lat="46.29451" lon="-0.43467">
        <ele>63</ele>
        <time>2011-11-22T14:35:37Z</time>
      </trkpt>
      <trkpt lat="46.2945" lon="-0.43463">
        <ele>65</ele>
        <time>2011-11-22T14:35:42Z</time>
      </trkpt>
      <trkpt lat="46.2945" lon="-0.43458">
        <ele>68</ele>
        <time>2011-11-22T14:35:47Z</time>
      </trkpt>
      <trkpt lat="46.29449" lon="-0.43453">
        <ele>68</ele>
        <time>2011-11-22T14:35:52Z</time>
      </trkpt>
      <trkpt lat="46.29448" lon="-0.43452">
        <ele>68</ele>
        <time>2011-11-22T14:35:57Z</time>
      </trkpt>
      <trkpt lat="46.29446" lon="-0.43447">
        <ele>67</ele>
        <time>2011-11-22T14:36:02Z</time>
      </trkpt>
      <trkpt lat="46.29443" lon="-0.43441">
        <ele>68</ele>
        <time>2011-11-22T14:36:07Z</time>
      </trkpt>
      <trkpt lat="46.29441" lon="-0.43432">
        <ele>68</ele>
        <time>2011-11-22T14:36:12Z</time>
      </trkpt>
      <trkpt lat="46.29439" lon="-0.43424">
        <ele>68</ele>
        <time>2011-11-22T14:36:17Z</time>
      </trkpt>
      <trkpt lat="46.29437" lon="-0.43416">
        <ele>69</ele>
        <time>2011-11-22T14:36:22Z</time>
      </trkpt>
      <trkpt lat="46.29434" lon="-0.43407">
        <ele>70</ele>
        <time>2011-11-22T14:36:27Z</time>
      </trkpt>
      <trkpt lat="46.29433" lon="-0.434">
        <ele>70</ele>
        <time>2011-11-22T14:36:32Z</time>
      </trkpt>
      <trkpt lat="46.29434" lon="-0.43393">
        <ele>70</ele>
        <time>2011-11-22T14:36:37Z</time>
      </trkpt>
      <trkpt lat="46.29436" lon="-0.43385">
        <ele>70</ele>
        <time>2011-11-22T14:36:42Z</time>
      </trkpt>
      <trkpt lat="46.29435" lon="-0.43377">
        <ele>69</ele>
        <time>2011-11-22T14:36:47Z</time>
      </trkpt>
      <trkpt lat="46.29433" lon="-0.4337">
        <ele>69</ele>
        <time>2011-11-22T14:36:52Z</time>
      </trkpt>
      <trkpt lat="46.29436" lon="-0.43362">
        <ele>70</ele>
        <time>2011-11-22T14:36:57Z</time>
      </trkpt>
      <trkpt lat="46.29436" lon="-0.43356">
        <ele>68</ele>
        <time>2011-11-22T14:37:02Z</time>
      </trkpt>
      <trkpt lat="46.29436" lon="-0.43347">
        <ele>71</ele>
        <time>2011-11-22T14:37:07Z</time>
      </trkpt>
      <trkpt lat="46.29436" lon="-0.4334">
        <ele>71</ele>
        <time>2011-11-22T14:37:12Z</time>
      </trkpt>
      <trkpt lat="46.29436" lon="-0.43331">
        <ele>70</ele>
        <time>2011-11-22T14:37:17Z</time>
      </trkpt>
      <trkpt lat="46.29435" lon="-0.43323">
        <ele>70</ele>
        <time>2011-11-22T14:37:22Z</time>
      </trkpt>
      <trkpt lat="46.29436" lon="-0.43314">
        <ele>69</ele>
        <time>2011-11-22T14:37:27Z</time>
      </trkpt>
      <trkpt lat="46.29436" lon="-0.43306">
        <ele>69</ele>
        <time>2011-11-22T14:37:32Z</time>
      </trkpt>
      <trkpt lat="46.29436" lon="-0.43295">
        <ele>70</ele>
        <time>2011-11-22T14:37:37Z</time>
      </trkpt>
      <trkpt lat="46.29437" lon="-0.43289">
        <ele>70</ele>
        <time>2011-11-22T14:37:42Z</time>
      </trkpt>
      <trkpt lat="46.29437" lon="-0.43282">
        <ele>70</ele>
        <time>2011-11-22T14:37:47Z</time>
      </trkpt>
      <trkpt lat="46.29438" lon="-0.43276">
        <ele>68</ele>
        <time>2011-11-22T14:37:52Z</time>
      </trkpt>
      <trkpt lat="46.29439" lon="-0.43268">
        <ele>68</ele>
        <time>2011-11-22T14:37:57Z</time>
      </trkpt>
      <trkpt lat="46.29439" lon="-0.43268">
        <ele>61</ele>
        <time>2011-11-22T14:38:02Z</time>
      </trkpt>
      <trkpt lat="46.29439" lon="-0.43265">
        <ele>59</ele>
        <time>2011-11-22T14:38:07Z</time>
      </trkpt>
      <trkpt lat="46.29436" lon="-0.43246">
        <ele>63</ele>
        <time>2011-11-22T14:38:12Z</time>
      </trkpt>
      <trkpt lat="46.29434" lon="-0.43236">
        <ele>64</ele>
        <time>2011-11-22T14:38:17Z</time>
      </trkpt>
      <trkpt lat="46.29433" lon="-0.43228">
        <ele>65</ele>
        <time>2011-11-22T14:38:22Z</time>
      </trkpt>
      <trkpt lat="46.29433" lon="-0.43221">
        <ele>66</ele>
        <time>2011-11-22T14:38:27Z</time>
      </trkpt>
      <trkpt lat="46.29432" lon="-0.43215">
        <ele>66</ele>
        <time>2011-11-22T14:38:32Z</time>
      </trkpt>
      <trkpt lat="46.29431" lon="-0.43211">
        <ele>68</ele>
        <time>2011-11-22T14:38:37Z</time>
      </trkpt>
      <trkpt lat="46.29429" lon="-0.43205">
        <ele>68</ele>
        <time>2011-11-22T14:38:42Z</time>
      </trkpt>
      <trkpt lat="46.29429" lon="-0.43198">
        <ele>69</ele>
        <time>2011-11-22T14:38:47Z</time>
      </trkpt>
      <trkpt lat="46.29429" lon="-0.4319">
        <ele>70</ele>
        <time>2011-11-22T14:38:52Z</time>
      </trkpt>
      <trkpt lat="46.29429" lon="-0.43189">
        <ele>70</ele>
        <time>2011-11-22T14:38:57Z</time>
      </trkpt>
      <trkpt lat="46.29428" lon="-0.43181">
        <ele>71</ele>
        <time>2011-11-22T14:39:02Z</time>
      </trkpt>
      <trkpt lat="46.29426" lon="-0.43169">
        <ele>67</ele>
        <time>2011-11-22T14:39:07Z</time>
      </trkpt>
      <trkpt lat="46.29425" lon="-0.43159">
        <ele>69</ele>
        <time>2011-11-22T14:39:12Z</time>
      </trkpt>
      <trkpt lat="46.29426" lon="-0.43151">
        <ele>68</ele>
        <time>2011-11-22T14:39:17Z</time>
      </trkpt>
      <trkpt lat="46.29427" lon="-0.4315">
        <ele>64</ele>
        <time>2011-11-22T14:39:22Z</time>
      </trkpt>
      <trkpt lat="46.29428" lon="-0.43141">
        <ele>64</ele>
        <time>2011-11-22T14:39:27Z</time>
      </trkpt>
      <trkpt lat="46.29428" lon="-0.43128">
        <ele>65</ele>
        <time>2011-11-22T14:39:32Z</time>
      </trkpt>
      <trkpt lat="46.29431" lon="-0.43122">
        <ele>66</ele>
        <time>2011-11-22T14:39:37Z</time>
      </trkpt>
      <trkpt lat="46.29434" lon="-0.43118">
        <ele>66</ele>
        <time>2011-11-22T14:39:42Z</time>
      </trkpt>
      <trkpt lat="46.29436" lon="-0.43114">
        <ele>66</ele>
        <time>2011-11-22T14:39:47Z</time>
      </trkpt>
      <trkpt lat="46.29443" lon="-0.43112">
        <ele>67</ele>
        <time>2011-11-22T14:39:52Z</time>
      </trkpt>
      <trkpt lat="46.29447" lon="-0.43108">
        <ele>68</ele>
        <time>2011-11-22T14:39:57Z</time>
      </trkpt>
      <trkpt lat="46.29451" lon="-0.43106">
        <ele>69</ele>
        <time>2011-11-22T14:40:02Z</time>
      </trkpt>
      <trkpt lat="46.29455" lon="-0.43104">
        <ele>71</ele>
        <time>2011-11-22T14:40:07Z</time>
      </trkpt>
      <trkpt lat="46.29462" lon="-0.431">
        <ele>71</ele>
        <time>2011-11-22T14:40:12Z</time>
      </trkpt>
      <trkpt lat="46.29466" lon="-0.43096">
        <ele>71</ele>
        <time>2011-11-22T14:40:17Z</time>
      </trkpt>
      <trkpt lat="46.29472" lon="-0.4309">
        <ele>69</ele>
        <time>2011-11-22T14:40:22Z</time>
      </trkpt>
      <trkpt lat="46.29477" lon="-0.43086">
        <ele>70</ele>
        <time>2011-11-22T14:40:27Z</time>
      </trkpt>
      <trkpt lat="46.29479" lon="-0.43086">
        <ele>72</ele>
        <time>2011-11-22T14:40:32Z</time>
      </trkpt>
      <trkpt lat="46.29486" lon="-0.43086">
        <ele>71</ele>
        <time>2011-11-22T14:40:37Z</time>
      </trkpt>
      <trkpt lat="46.29492" lon="-0.43083">
        <ele>73</ele>
        <time>2011-11-22T14:40:42Z</time>
      </trkpt>
      <trkpt lat="46.29496" lon="-0.43083">
        <ele>73</ele>
        <time>2011-11-22T14:40:47Z</time>
      </trkpt>
      <trkpt lat="46.295" lon="-0.43082">
        <ele>73</ele>
        <time>2011-11-22T14:40:52Z</time>
      </trkpt>
      <trkpt lat="46.29506" lon="-0.43079">
        <ele>72</ele>
        <time>2011-11-22T14:40:57Z</time>
      </trkpt>
      <trkpt lat="46.2951" lon="-0.43076">
        <ele>72</ele>
        <time>2011-11-22T14:41:02Z</time>
      </trkpt>
      <trkpt lat="46.29513" lon="-0.43074">
        <ele>72</ele>
        <time>2011-11-22T14:41:07Z</time>
      </trkpt>
      <trkpt lat="46.29516" lon="-0.4307">
        <ele>72</ele>
        <time>2011-11-22T14:41:12Z</time>
      </trkpt>
      <trkpt lat="46.2952" lon="-0.43066">
        <ele>72</ele>
        <time>2011-11-22T14:41:17Z</time>
      </trkpt>
      <trkpt lat="46.29524" lon="-0.43062">
        <ele>72</ele>
        <time>2011-11-22T14:41:22Z</time>
      </trkpt>
      <trkpt lat="46.29528" lon="-0.43059">
        <ele>72</ele>
        <time>2011-11-22T14:41:27Z</time>
      </trkpt>
      <trkpt lat="46.29532" lon="-0.43056">
        <ele>73</ele>
        <time>2011-11-22T14:41:32Z</time>
      </trkpt>
      <trkpt lat="46.29538" lon="-0.43055">
        <ele>74</ele>
        <time>2011-11-22T14:41:37Z</time>
      </trkpt>
      <trkpt lat="46.29543" lon="-0.43056">
        <ele>74</ele>
        <time>2011-11-22T14:41:42Z</time>
      </trkpt>
      <trkpt lat="46.29547" lon="-0.43059">
        <ele>74</ele>
        <time>2011-11-22T14:41:47Z</time>
      </trkpt>
      <trkpt lat="46.29552" lon="-0.43064">
        <ele>75</ele>
        <time>2011-11-22T14:41:52Z</time>
      </trkpt>
      <trkpt lat="46.29554" lon="-0.43067">
        <ele>75</ele>
        <time>2011-11-22T14:41:57Z</time>
      </trkpt>
      <trkpt lat="46.29557" lon="-0.43068">
        <ele>74</ele>
        <time>2011-11-22T14:42:02Z</time>
      </trkpt>
      <trkpt lat="46.29562" lon="-0.43069">
        <ele>75</ele>
        <time>2011-11-22T14:42:07Z</time>
      </trkpt>
      <trkpt lat="46.29568" lon="-0.43068">
        <ele>75</ele>
        <time>2011-11-22T14:42:12Z</time>
      </trkpt>
      <trkpt lat="46.29575" lon="-0.43066">
        <ele>75</ele>
        <time>2011-11-22T14:42:17Z</time>
      </trkpt>
      <trkpt lat="46.29579" lon="-0.4306">
        <ele>75</ele>
        <time>2011-11-22T14:42:22Z</time>
      </trkpt>
      <trkpt lat="46.29584" lon="-0.43056">
        <ele>76</ele>
        <time>2011-11-22T14:42:27Z</time>
      </trkpt>
      <trkpt lat="46.29588" lon="-0.43052">
        <ele>77</ele>
        <time>2011-11-22T14:42:32Z</time>
      </trkpt>
      <trkpt lat="46.29594" lon="-0.43049">
        <ele>76</ele>
        <time>2011-11-22T14:42:37Z</time>
      </trkpt>
      <trkpt lat="46.296" lon="-0.43046">
        <ele>77</ele>
        <time>2011-11-22T14:42:42Z</time>
      </trkpt>
      <trkpt lat="46.29604" lon="-0.4304">
        <ele>76</ele>
        <time>2011-11-22T14:42:47Z</time>
      </trkpt>
      <trkpt lat="46.2961" lon="-0.43036">
        <ele>75</ele>
        <time>2011-11-22T14:42:52Z</time>
      </trkpt>
      <trkpt lat="46.29615" lon="-0.43031">
        <ele>75</ele>
        <time>2011-11-22T14:42:57Z</time>
      </trkpt>
      <trkpt lat="46.29619" lon="-0.43027">
        <ele>74</ele>
        <time>2011-11-22T14:43:02Z</time>
      </trkpt>
      <trkpt lat="46.29623" lon="-0.43023">
        <ele>73</ele>
        <time>2011-11-22T14:43:07Z</time>
      </trkpt>
      <trkpt lat="46.29628" lon="-0.43019">
        <ele>74</ele>
        <time>2011-11-22T14:43:12Z</time>
      </trkpt>
      <trkpt lat="46.29633" lon="-0.43015">
        <ele>74</ele>
        <time>2011-11-22T14:43:17Z</time>
      </trkpt>
      <trkpt lat="46.29638" lon="-0.4301">
        <ele>74</ele>
        <time>2011-11-22T14:43:22Z</time>
      </trkpt>
      <trkpt lat="46.29642" lon="-0.43007">
        <ele>74</ele>
        <time>2011-11-22T14:43:27Z</time>
      </trkpt>
      <trkpt lat="46.29647" lon="-0.43003">
        <ele>73</ele>
        <time>2011-11-22T14:43:32Z</time>
      </trkpt>
      <trkpt lat="46.29652" lon="-0.43">
        <ele>73</ele>
        <time>2011-11-22T14:43:37Z</time>
      </trkpt>
      <trkpt lat="46.29656" lon="-0.42996">
        <ele>72</ele>
        <time>2011-11-22T14:43:42Z</time>
      </trkpt>
      <trkpt lat="46.29661" lon="-0.42994">
        <ele>72</ele>
        <time>2011-11-22T14:43:47Z</time>
      </trkpt>
      <trkpt lat="46.29665" lon="-0.4299">
        <ele>72</ele>
        <time>2011-11-22T14:43:52Z</time>
      </trkpt>
      <trkpt lat="46.29669" lon="-0.42987">
        <ele>71</ele>
        <time>2011-11-22T14:43:57Z</time>
      </trkpt>
      <trkpt lat="46.2967" lon="-0.42986">
        <ele>72</ele>
        <time>2011-11-22T14:44:02Z</time>
      </trkpt>
      <trkpt lat="46.2967" lon="-0.42986">
        <ele>72</ele>
        <time>2011-11-22T14:44:07Z</time>
      </trkpt>
      <trkpt lat="46.2967" lon="-0.42986">
        <ele>72</ele>
        <time>2011-11-22T14:44:12Z</time>
      </trkpt>
      <trkpt lat="46.29672" lon="-0.42986">
        <ele>72</ele>
        <time>2011-11-22T14:44:37Z</time>
      </trkpt>
      <trkpt lat="46.29676" lon="-0.42987">
        <ele>71</ele>
        <time>2011-11-22T14:44:42Z</time>
      </trkpt>
      <trkpt lat="46.29679" lon="-0.42991">
        <ele>72</ele>
        <time>2011-11-22T14:44:47Z</time>
      </trkpt>
      <trkpt lat="46.29682" lon="-0.42998">
        <ele>71</ele>
        <time>2011-11-22T14:44:52Z</time>
      </trkpt>
      <trkpt lat="46.29686" lon="-0.43005">
        <ele>71</ele>
        <time>2011-11-22T14:44:57Z</time>
      </trkpt>
      <trkpt lat="46.2969" lon="-0.43015">
        <ele>72</ele>
        <time>2011-11-22T14:45:02Z</time>
      </trkpt>
      <trkpt lat="46.2969" lon="-0.43022">
        <ele>73</ele>
        <time>2011-11-22T14:45:07Z</time>
      </trkpt>
      <trkpt lat="46.29692" lon="-0.43029">
        <ele>74</ele>
        <time>2011-11-22T14:45:12Z</time>
      </trkpt>
      <trkpt lat="46.29696" lon="-0.43032">
        <ele>74</ele>
        <time>2011-11-22T14:45:17Z</time>
      </trkpt>
      <trkpt lat="46.29698" lon="-0.43037">
        <ele>73</ele>
        <time>2011-11-22T14:45:22Z</time>
      </trkpt>
      <trkpt lat="46.297" lon="-0.43046">
        <ele>72</ele>
        <time>2011-11-22T14:45:27Z</time>
      </trkpt>
      <trkpt lat="46.29703" lon="-0.43053">
        <ele>71</ele>
        <time>2011-11-22T14:45:32Z</time>
      </trkpt>
      <trkpt lat="46.29706" lon="-0.43059">
        <ele>72</ele>
        <time>2011-11-22T14:45:37Z</time>
      </trkpt>
      <trkpt lat="46.29707" lon="-0.43067">
        <ele>71</ele>
        <time>2011-11-22T14:45:42Z</time>
      </trkpt>
      <trkpt lat="46.29711" lon="-0.43073">
        <ele>71</ele>
        <time>2011-11-22T14:45:47Z</time>
      </trkpt>
      <trkpt lat="46.29713" lon="-0.4308">
        <ele>72</ele>
        <time>2011-11-22T14:45:52Z</time>
      </trkpt>
      <trkpt lat="46.29715" lon="-0.4309">
        <ele>73</ele>
        <time>2011-11-22T14:45:57Z</time>
      </trkpt>
      <trkpt lat="46.29719" lon="-0.43096">
        <ele>73</ele>
        <time>2011-11-22T14:46:02Z</time>
      </trkpt>
      <trkpt lat="46.29723" lon="-0.431">
        <ele>74</ele>
        <time>2011-11-22T14:46:07Z</time>
      </trkpt>
      <trkpt lat="46.29725" lon="-0.43106">
        <ele>73</ele>
        <time>2011-11-22T14:46:12Z</time>
      </trkpt>
      <trkpt lat="46.29727" lon="-0.43112">
        <ele>73</ele>
        <time>2011-11-22T14:46:17Z</time>
      </trkpt>
      <trkpt lat="46.29729" lon="-0.43117">
        <ele>74</ele>
        <time>2011-11-22T14:46:22Z</time>
      </trkpt>
      <trkpt lat="46.29731" lon="-0.4312">
        <ele>74</ele>
        <time>2011-11-22T14:46:27Z</time>
      </trkpt>
      <trkpt lat="46.29733" lon="-0.4313">
        <ele>74</ele>
        <time>2011-11-22T14:46:32Z</time>
      </trkpt>
      <trkpt lat="46.29737" lon="-0.43135">
        <ele>73</ele>
        <time>2011-11-22T14:46:37Z</time>
      </trkpt>
      <trkpt lat="46.2974" lon="-0.43142">
        <ele>73</ele>
        <time>2011-11-22T14:46:42Z</time>
      </trkpt>
      <trkpt lat="46.29742" lon="-0.43152">
        <ele>71</ele>
        <time>2011-11-22T14:46:47Z</time>
      </trkpt>
      <trkpt lat="46.29745" lon="-0.43154">
        <ele>71</ele>
        <time>2011-11-22T14:46:52Z</time>
      </trkpt>
      <trkpt lat="46.29748" lon="-0.43162">
        <ele>71</ele>
        <time>2011-11-22T14:46:57Z</time>
      </trkpt>
      <trkpt lat="46.29752" lon="-0.43168">
        <ele>72</ele>
        <time>2011-11-22T14:47:02Z</time>
      </trkpt>
      <trkpt lat="46.29756" lon="-0.43177">
        <ele>72</ele>
        <time>2011-11-22T14:47:07Z</time>
      </trkpt>
      <trkpt lat="46.29759" lon="-0.43184">
        <ele>72</ele>
        <time>2011-11-22T14:47:12Z</time>
      </trkpt>
      <trkpt lat="46.29763" lon="-0.4319">
        <ele>72</ele>
        <time>2011-11-22T14:47:17Z</time>
      </trkpt>
      <trkpt lat="46.29766" lon="-0.43201">
        <ele>71</ele>
        <time>2011-11-22T14:47:22Z</time>
      </trkpt>
      <trkpt lat="46.29771" lon="-0.43203">
        <ele>72</ele>
        <time>2011-11-22T14:47:27Z</time>
      </trkpt>
      <trkpt lat="46.29774" lon="-0.43211">
        <ele>71</ele>
        <time>2011-11-22T14:47:32Z</time>
      </trkpt>
      <trkpt lat="46.29777" lon="-0.43217">
        <ele>71</ele>
        <time>2011-11-22T14:47:37Z</time>
      </trkpt>
      <trkpt lat="46.29782" lon="-0.43222">
        <ele>67</ele>
        <time>2011-11-22T14:47:42Z</time>
      </trkpt>
      <trkpt lat="46.29785" lon="-0.43227">
        <ele>67</ele>
        <time>2011-11-22T14:47:47Z</time>
      </trkpt>
      <trkpt lat="46.29789" lon="-0.43233">
        <ele>68</ele>
        <time>2011-11-22T14:47:52Z</time>
      </trkpt>
      <trkpt lat="46.29793" lon="-0.4324">
        <ele>68</ele>
        <time>2011-11-22T14:47:57Z</time>
      </trkpt>
      <trkpt lat="46.29795" lon="-0.43247">
        <ele>70</ele>
        <time>2011-11-22T14:48:02Z</time>
      </trkpt>
      <trkpt lat="46.29797" lon="-0.43252">
        <ele>70</ele>
        <time>2011-11-22T14:48:07Z</time>
      </trkpt>
      <trkpt lat="46.298" lon="-0.4326">
        <ele>70</ele>
        <time>2011-11-22T14:48:12Z</time>
      </trkpt>
      <trkpt lat="46.29804" lon="-0.43266">
        <ele>69</ele>
        <time>2011-11-22T14:48:17Z</time>
      </trkpt>
      <trkpt lat="46.29807" lon="-0.43271">
        <ele>69</ele>
        <time>2011-11-22T14:48:22Z</time>
      </trkpt>
      <trkpt lat="46.29809" lon="-0.43282">
        <ele>70</ele>
        <time>2011-11-22T14:48:27Z</time>
      </trkpt>
      <trkpt lat="46.29812" lon="-0.43291">
        <ele>71</ele>
        <time>2011-11-22T14:48:32Z</time>
      </trkpt>
      <trkpt lat="46.29815" lon="-0.43296">
        <ele>69</ele>
        <time>2011-11-22T14:48:37Z</time>
      </trkpt>
      <trkpt lat="46.29818" lon="-0.43302">
        <ele>68</ele>
        <time>2011-11-22T14:48:42Z</time>
      </trkpt>
      <trkpt lat="46.29821" lon="-0.43309">
        <ele>70</ele>
        <time>2011-11-22T14:48:47Z</time>
      </trkpt>
      <trkpt lat="46.29825" lon="-0.43317">
        <ele>70</ele>
        <time>2011-11-22T14:48:52Z</time>
      </trkpt>
      <trkpt lat="46.29828" lon="-0.43321">
        <ele>68</ele>
        <time>2011-11-22T14:48:57Z</time>
      </trkpt>
      <trkpt lat="46.29831" lon="-0.43328">
        <ele>68</ele>
        <time>2011-11-22T14:49:02Z</time>
      </trkpt>
      <trkpt lat="46.29834" lon="-0.43339">
        <ele>70</ele>
        <time>2011-11-22T14:49:07Z</time>
      </trkpt>
      <trkpt lat="46.29838" lon="-0.43346">
        <ele>70</ele>
        <time>2011-11-22T14:49:12Z</time>
      </trkpt>
      <trkpt lat="46.29842" lon="-0.43351">
        <ele>70</ele>
        <time>2011-11-22T14:49:17Z</time>
      </trkpt>
      <trkpt lat="46.29845" lon="-0.43359">
        <ele>70</ele>
        <time>2011-11-22T14:49:22Z</time>
      </trkpt>
      <trkpt lat="46.29848" lon="-0.43366">
        <ele>70</ele>
        <time>2011-11-22T14:49:27Z</time>
      </trkpt>
      <trkpt lat="46.29851" lon="-0.43374">
        <ele>70</ele>
        <time>2011-11-22T14:49:32Z</time>
      </trkpt>
      <trkpt lat="46.29854" lon="-0.4338">
        <ele>69</ele>
        <time>2011-11-22T14:49:37Z</time>
      </trkpt>
      <trkpt lat="46.29857" lon="-0.43388">
        <ele>68</ele>
        <time>2011-11-22T14:49:42Z</time>
      </trkpt>
      <trkpt lat="46.29861" lon="-0.43397">
        <ele>69</ele>
        <time>2011-11-22T14:49:47Z</time>
      </trkpt>
      <trkpt lat="46.29863" lon="-0.43403">
        <ele>70</ele>
        <time>2011-11-22T14:49:52Z</time>
      </trkpt>
      <trkpt lat="46.29868" lon="-0.43408">
        <ele>71</ele>
        <time>2011-11-22T14:49:57Z</time>
      </trkpt>
      <trkpt lat="46.2987" lon="-0.43415">
        <ele>71</ele>
        <time>2011-11-22T14:50:02Z</time>
      </trkpt>
      <trkpt lat="46.29873" lon="-0.43423">
        <ele>71</ele>
        <time>2011-11-22T14:50:07Z</time>
      </trkpt>
      <trkpt lat="46.29876" lon="-0.4343">
        <ele>70</ele>
        <time>2011-11-22T14:50:12Z</time>
      </trkpt>
      <trkpt lat="46.29879" lon="-0.43438">
        <ele>70</ele>
        <time>2011-11-22T14:50:17Z</time>
      </trkpt>
      <trkpt lat="46.29882" lon="-0.43443">
        <ele>70</ele>
        <time>2011-11-22T14:50:22Z</time>
      </trkpt>
      <trkpt lat="46.29885" lon="-0.43447">
        <ele>70</ele>
        <time>2011-11-22T14:50:27Z</time>
      </trkpt>
      <trkpt lat="46.29887" lon="-0.43456">
        <ele>69</ele>
        <time>2011-11-22T14:50:32Z</time>
      </trkpt>
      <trkpt lat="46.2989" lon="-0.43463">
        <ele>69</ele>
        <time>2011-11-22T14:50:37Z</time>
      </trkpt>
      <trkpt lat="46.29893" lon="-0.43472">
        <ele>69</ele>
        <time>2011-11-22T14:50:42Z</time>
      </trkpt>
      <trkpt lat="46.29897" lon="-0.43482">
        <ele>70</ele>
        <time>2011-11-22T14:50:47Z</time>
      </trkpt>
      <trkpt lat="46.29899" lon="-0.43489">
        <ele>69</ele>
        <time>2011-11-22T14:50:52Z</time>
      </trkpt>
      <trkpt lat="46.29901" lon="-0.435">
        <ele>71</ele>
        <time>2011-11-22T14:50:57Z</time>
      </trkpt>
      <trkpt lat="46.29903" lon="-0.43507">
        <ele>71</ele>
        <time>2011-11-22T14:51:02Z</time>
      </trkpt>
      <trkpt lat="46.29905" lon="-0.43511">
        <ele>70</ele>
        <time>2011-11-22T14:51:07Z</time>
      </trkpt>
      <trkpt lat="46.29907" lon="-0.43517">
        <ele>70</ele>
        <time>2011-11-22T14:51:12Z</time>
      </trkpt>
      <trkpt lat="46.29912" lon="-0.43524">
        <ele>67</ele>
        <time>2011-11-22T14:51:17Z</time>
      </trkpt>
      <trkpt lat="46.29913" lon="-0.4353">
        <ele>68</ele>
        <time>2011-11-22T14:51:22Z</time>
      </trkpt>
      <trkpt lat="46.29915" lon="-0.43537">
        <ele>67</ele>
        <time>2011-11-22T14:51:27Z</time>
      </trkpt>
      <trkpt lat="46.29918" lon="-0.43543">
        <ele>68</ele>
        <time>2011-11-22T14:51:32Z</time>
      </trkpt>
      <trkpt lat="46.2992" lon="-0.43551">
        <ele>69</ele>
        <time>2011-11-22T14:51:37Z</time>
      </trkpt>
      <trkpt lat="46.29923" lon="-0.43558">
        <ele>70</ele>
        <time>2011-11-22T14:51:42Z</time>
      </trkpt>
      <trkpt lat="46.29924" lon="-0.43569">
        <ele>72</ele>
        <time>2011-11-22T14:51:47Z</time>
      </trkpt>
      <trkpt lat="46.29929" lon="-0.43576">
        <ele>70</ele>
        <time>2011-11-22T14:51:52Z</time>
      </trkpt>
      <trkpt lat="46.29932" lon="-0.43584">
        <ele>70</ele>
        <time>2011-11-22T14:51:57Z</time>
      </trkpt>
      <trkpt lat="46.29933" lon="-0.43591">
        <ele>70</ele>
        <time>2011-11-22T14:52:02Z</time>
      </trkpt>
      <trkpt lat="46.29936" lon="-0.43596">
        <ele>70</ele>
        <time>2011-11-22T14:52:07Z</time>
      </trkpt>
      <trkpt lat="46.29939" lon="-0.43601">
        <ele>70</ele>
        <time>2011-11-22T14:52:12Z</time>
      </trkpt>
      <trkpt lat="46.29942" lon="-0.43607">
        <ele>70</ele>
        <time>2011-11-22T14:52:17Z</time>
      </trkpt>
      <trkpt lat="46.29947" lon="-0.43616">
        <ele>70</ele>
        <time>2011-11-22T14:52:22Z</time>
      </trkpt>
      <trkpt lat="46.29951" lon="-0.43623">
        <ele>67</ele>
        <time>2011-11-22T14:52:27Z</time>
      </trkpt>
      <trkpt lat="46.29954" lon="-0.43629">
        <ele>69</ele>
        <time>2011-11-22T14:52:32Z</time>
      </trkpt>
      <trkpt lat="46.29956" lon="-0.43635">
        <ele>69</ele>
        <time>2011-11-22T14:52:37Z</time>
      </trkpt>
      <trkpt lat="46.29958" lon="-0.43645">
        <ele>70</ele>
        <time>2011-11-22T14:52:42Z</time>
      </trkpt>
      <trkpt lat="46.29961" lon="-0.43655">
        <ele>71</ele>
        <time>2011-11-22T14:52:47Z</time>
      </trkpt>
      <trkpt lat="46.29963" lon="-0.43661">
        <ele>70</ele>
        <time>2011-11-22T14:52:52Z</time>
      </trkpt>
      <trkpt lat="46.29967" lon="-0.4367">
        <ele>67</ele>
        <time>2011-11-22T14:52:57Z</time>
      </trkpt>
      <trkpt lat="46.2997" lon="-0.43675">
        <ele>67</ele>
        <time>2011-11-22T14:53:02Z</time>
      </trkpt>
      <trkpt lat="46.29973" lon="-0.43682">
        <ele>67</ele>
        <time>2011-11-22T14:53:07Z</time>
      </trkpt>
      <trkpt lat="46.29976" lon="-0.43688">
        <ele>67</ele>
        <time>2011-11-22T14:53:12Z</time>
      </trkpt>
      <trkpt lat="46.29978" lon="-0.43692">
        <ele>68</ele>
        <time>2011-11-22T14:53:17Z</time>
      </trkpt>
      <trkpt lat="46.2998" lon="-0.43693">
        <ele>68</ele>
        <time>2011-11-22T14:53:22Z</time>
      </trkpt>
      <trkpt lat="46.29981" lon="-0.43696">
        <ele>68</ele>
        <time>2011-11-22T14:53:27Z</time>
      </trkpt>
      <trkpt lat="46.29982" lon="-0.43703">
        <ele>68</ele>
        <time>2011-11-22T14:53:32Z</time>
      </trkpt>
      <trkpt lat="46.29982" lon="-0.43703">
        <ele>67</ele>
        <time>2011-11-22T14:53:37Z</time>
      </trkpt>
      <trkpt lat="46.29982" lon="-0.43704">
        <ele>68</ele>
        <time>2011-11-22T14:53:42Z</time>
      </trkpt>
      <trkpt lat="46.29982" lon="-0.43704">
        <ele>68</ele>
        <time>2011-11-22T14:53:47Z</time>
      </trkpt>
      <trkpt lat="46.29983" lon="-0.43704">
        <ele>69</ele>
        <time>2011-11-22T14:53:52Z</time>
      </trkpt>
      <trkpt lat="46.29983" lon="-0.43704">
        <ele>69</ele>
        <time>2011-11-22T14:54:57Z</time>
      </trkpt>
      <trkpt lat="46.29982" lon="-0.43704">
        <ele>69</ele>
        <time>2011-11-22T14:55:02Z</time>
      </trkpt>
      <trkpt lat="46.29982" lon="-0.43704">
        <ele>69</ele>
        <time>2011-11-22T14:55:07Z</time>
      </trkpt>
      <trkpt lat="46.29981" lon="-0.43704">
        <ele>69</ele>
        <time>2011-11-22T14:55:12Z</time>
      </trkpt>
      <trkpt lat="46.29981" lon="-0.43704">
        <ele>69</ele>
        <time>2011-11-22T14:55:17Z</time>
      </trkpt>
      <trkpt lat="46.29979" lon="-0.43706">
        <ele>69</ele>
        <time>2011-11-22T14:55:22Z</time>
      </trkpt>
      <trkpt lat="46.29975" lon="-0.43706">
        <ele>68</ele>
        <time>2011-11-22T14:55:27Z</time>
      </trkpt>
      <trkpt lat="46.2997" lon="-0.43709">
        <ele>67</ele>
        <time>2011-11-22T14:55:32Z</time>
      </trkpt>
      <trkpt lat="46.29966" lon="-0.43712">
        <ele>67</ele>
        <time>2011-11-22T14:55:37Z</time>
      </trkpt>
      <trkpt lat="46.29962" lon="-0.43716">
        <ele>66</ele>
        <time>2011-11-22T14:55:42Z</time>
      </trkpt>
      <trkpt lat="46.29957" lon="-0.43717">
        <ele>66</ele>
        <time>2011-11-22T14:55:47Z</time>
      </trkpt>
      <trkpt lat="46.29955" lon="-0.43718">
        <ele>67</ele>
        <time>2011-11-22T14:55:52Z</time>
      </trkpt>
      <trkpt lat="46.2995" lon="-0.43723">
        <ele>67</ele>
        <time>2011-11-22T14:55:57Z</time>
      </trkpt>
      <trkpt lat="46.29947" lon="-0.43728">
        <ele>66</ele>
        <time>2011-11-22T14:56:02Z</time>
      </trkpt>
      <trkpt lat="46.29945" lon="-0.43729">
        <ele>65</ele>
        <time>2011-11-22T14:56:07Z</time>
      </trkpt>
      <trkpt lat="46.2994" lon="-0.43734">
        <ele>66</ele>
        <time>2011-11-22T14:56:12Z</time>
      </trkpt>
      <trkpt lat="46.29935" lon="-0.43738">
        <ele>66</ele>
        <time>2011-11-22T14:56:17Z</time>
      </trkpt>
      <trkpt lat="46.29929" lon="-0.43742">
        <ele>65</ele>
        <time>2011-11-22T14:56:22Z</time>
      </trkpt>
      <trkpt lat="46.29924" lon="-0.43745">
        <ele>66</ele>
        <time>2011-11-22T14:56:27Z</time>
      </trkpt>
      <trkpt lat="46.2992" lon="-0.4375">
        <ele>66</ele>
        <time>2011-11-22T14:56:32Z</time>
      </trkpt>
      <trkpt lat="46.29914" lon="-0.43754">
        <ele>65</ele>
        <time>2011-11-22T14:56:37Z</time>
      </trkpt>
      <trkpt lat="46.2991" lon="-0.43759">
        <ele>64</ele>
        <time>2011-11-22T14:56:42Z</time>
      </trkpt>
      <trkpt lat="46.29904" lon="-0.43761">
        <ele>65</ele>
        <time>2011-11-22T14:56:47Z</time>
      </trkpt>
      <trkpt lat="46.29898" lon="-0.43764">
        <ele>66</ele>
        <time>2011-11-22T14:56:52Z</time>
      </trkpt>
      <trkpt lat="46.29893" lon="-0.43763">
        <ele>66</ele>
        <time>2011-11-22T14:56:57Z</time>
      </trkpt>
      <trkpt lat="46.29887" lon="-0.43763">
        <ele>67</ele>
        <time>2011-11-22T14:57:02Z</time>
      </trkpt>
      <trkpt lat="46.29881" lon="-0.43763">
        <ele>67</ele>
        <time>2011-11-22T14:57:07Z</time>
      </trkpt>
      <trkpt lat="46.29876" lon="-0.43763">
        <ele>65</ele>
        <time>2011-11-22T14:57:12Z</time>
      </trkpt>
      <trkpt lat="46.2987" lon="-0.43762">
        <ele>65</ele>
        <time>2011-11-22T14:57:17Z</time>
      </trkpt>
      <trkpt lat="46.29863" lon="-0.43761">
        <ele>66</ele>
        <time>2011-11-22T14:57:22Z</time>
      </trkpt>
      <trkpt lat="46.29858" lon="-0.43759">
        <ele>67</ele>
        <time>2011-11-22T14:57:27Z</time>
      </trkpt>
      <trkpt lat="46.29853" lon="-0.43758">
        <ele>67</ele>
        <time>2011-11-22T14:57:32Z</time>
      </trkpt>
      <trkpt lat="46.29847" lon="-0.43758">
        <ele>68</ele>
        <time>2011-11-22T14:57:37Z</time>
      </trkpt>
      <trkpt lat="46.29842" lon="-0.43758">
        <ele>67</ele>
        <time>2011-11-22T14:57:42Z</time>
      </trkpt>
      <trkpt lat="46.29836" lon="-0.43757">
        <ele>66</ele>
        <time>2011-11-22T14:57:47Z</time>
      </trkpt>
      <trkpt lat="46.29829" lon="-0.43759">
        <ele>67</ele>
        <time>2011-11-22T14:57:52Z</time>
      </trkpt>
      <trkpt lat="46.29824" lon="-0.43759">
        <ele>66</ele>
        <time>2011-11-22T14:57:57Z</time>
      </trkpt>
      <trkpt lat="46.2982" lon="-0.43761">
        <ele>67</ele>
        <time>2011-11-22T14:58:02Z</time>
      </trkpt>
      <trkpt lat="46.29814" lon="-0.43763">
        <ele>66</ele>
        <time>2011-11-22T14:58:07Z</time>
      </trkpt>
      <trkpt lat="46.29809" lon="-0.43765">
        <ele>66</ele>
        <time>2011-11-22T14:58:12Z</time>
      </trkpt>
      <trkpt lat="46.29804" lon="-0.43768">
        <ele>67</ele>
        <time>2011-11-22T14:58:17Z</time>
      </trkpt>
      <trkpt lat="46.29798" lon="-0.43771">
        <ele>66</ele>
        <time>2011-11-22T14:58:22Z</time>
      </trkpt>
      <trkpt lat="46.29792" lon="-0.43775">
        <ele>65</ele>
        <time>2011-11-22T14:58:27Z</time>
      </trkpt>
      <trkpt lat="46.29786" lon="-0.43777">
        <ele>65</ele>
        <time>2011-11-22T14:58:32Z</time>
      </trkpt>
      <trkpt lat="46.2978" lon="-0.43781">
        <ele>65</ele>
        <time>2011-11-22T14:58:37Z</time>
      </trkpt>
      <trkpt lat="46.29775" lon="-0.43783">
        <ele>65</ele>
        <time>2011-11-22T14:58:42Z</time>
      </trkpt>
      <trkpt lat="46.2977" lon="-0.43787">
        <ele>66</ele>
        <time>2011-11-22T14:58:47Z</time>
      </trkpt>
      <trkpt lat="46.29765" lon="-0.4379">
        <ele>66</ele>
        <time>2011-11-22T14:58:52Z</time>
      </trkpt>
      <trkpt lat="46.2976" lon="-0.43793">
        <ele>66</ele>
        <time>2011-11-22T14:58:57Z</time>
      </trkpt>
      <trkpt lat="46.29755" lon="-0.43796">
        <ele>66</ele>
        <time>2011-11-22T14:59:02Z</time>
      </trkpt>
      <trkpt lat="46.29749" lon="-0.43801">
        <ele>65</ele>
        <time>2011-11-22T14:59:07Z</time>
      </trkpt>
      <trkpt lat="46.29744" lon="-0.43803">
        <ele>65</ele>
        <time>2011-11-22T14:59:12Z</time>
      </trkpt>
      <trkpt lat="46.2974" lon="-0.43807">
        <ele>64</ele>
        <time>2011-11-22T14:59:17Z</time>
      </trkpt>
      <trkpt lat="46.29735" lon="-0.4381">
        <ele>65</ele>
        <time>2011-11-22T14:59:22Z</time>
      </trkpt>
      <trkpt lat="46.29729" lon="-0.43815">
        <ele>64</ele>
        <time>2011-11-22T14:59:27Z</time>
      </trkpt>
      <trkpt lat="46.29724" lon="-0.43819">
        <ele>65</ele>
        <time>2011-11-22T14:59:32Z</time>
      </trkpt>
      <trkpt lat="46.29718" lon="-0.4382">
        <ele>64</ele>
        <time>2011-11-22T14:59:37Z</time>
      </trkpt>
      <trkpt lat="46.29711" lon="-0.43824">
        <ele>63</ele>
        <time>2011-11-22T14:59:42Z</time>
      </trkpt>
      <trkpt lat="46.29705" lon="-0.43828">
        <ele>63</ele>
        <time>2011-11-22T14:59:47Z</time>
      </trkpt>
      <trkpt lat="46.29703" lon="-0.43832">
        <ele>62</ele>
        <time>2011-11-22T14:59:52Z</time>
      </trkpt>
      <trkpt lat="46.29698" lon="-0.43835">
        <ele>63</ele>
        <time>2011-11-22T14:59:57Z</time>
      </trkpt>
      <trkpt lat="46.29691" lon="-0.43839">
        <ele>64</ele>
        <time>2011-11-22T15:00:02Z</time>
      </trkpt>
      <trkpt lat="46.29686" lon="-0.43842">
        <ele>65</ele>
        <time>2011-11-22T15:00:07Z</time>
      </trkpt>
      <trkpt lat="46.29682" lon="-0.43846">
        <ele>65</ele>
        <time>2011-11-22T15:00:12Z</time>
      </trkpt>
      <trkpt lat="46.29678" lon="-0.43847">
        <ele>64</ele>
        <time>2011-11-22T15:00:17Z</time>
      </trkpt>
      <trkpt lat="46.29677" lon="-0.43846">
        <ele>64</ele>
        <time>2011-11-22T15:00:22Z</time>
      </trkpt>
      <trkpt lat="46.29676" lon="-0.43846">
        <ele>64</ele>
        <time>2011-11-22T15:00:27Z</time>
      </trkpt>
      <trkpt lat="46.29672" lon="-0.43849">
        <ele>64</ele>
        <time>2011-11-22T15:00:32Z</time>
      </trkpt>
      <trkpt lat="46.29669" lon="-0.43855">
        <ele>66</ele>
        <time>2011-11-22T15:00:37Z</time>
      </trkpt>
      <trkpt lat="46.29669" lon="-0.43863">
        <ele>67</ele>
        <time>2011-11-22T15:00:42Z</time>
      </trkpt>
      <trkpt lat="46.2967" lon="-0.4387">
        <ele>66</ele>
        <time>2011-11-22T15:00:47Z</time>
      </trkpt>
      <trkpt lat="46.29672" lon="-0.43874">
        <ele>64</ele>
        <time>2011-11-22T15:00:52Z</time>
      </trkpt>
      <trkpt lat="46.29675" lon="-0.43878">
        <ele>64</ele>
        <time>2011-11-22T15:00:57Z</time>
      </trkpt>
      <trkpt lat="46.29677" lon="-0.43882">
        <ele>64</ele>
        <time>2011-11-22T15:01:02Z</time>
      </trkpt>
      <trkpt lat="46.29677" lon="-0.43894">
        <ele>65</ele>
        <time>2011-11-22T15:01:07Z</time>
      </trkpt>
      <trkpt lat="46.2968" lon="-0.43906">
        <ele>65</ele>
        <time>2011-11-22T15:01:12Z</time>
      </trkpt>
      <trkpt lat="46.29681" lon="-0.43909">
        <ele>64</ele>
        <time>2011-11-22T15:01:17Z</time>
      </trkpt>
      <trkpt lat="46.29684" lon="-0.43914">
        <ele>65</ele>
        <time>2011-11-22T15:01:22Z</time>
      </trkpt>
      <trkpt lat="46.29685" lon="-0.43923">
        <ele>64</ele>
        <time>2011-11-22T15:01:27Z</time>
      </trkpt>
      <trkpt lat="46.29686" lon="-0.43933">
        <ele>68</ele>
        <time>2011-11-22T15:01:32Z</time>
      </trkpt>
      <trkpt lat="46.2969" lon="-0.4394">
        <ele>67</ele>
        <time>2011-11-22T15:01:37Z</time>
      </trkpt>
      <trkpt lat="46.29692" lon="-0.4395">
        <ele>67</ele>
        <time>2011-11-22T15:01:42Z</time>
      </trkpt>
      <trkpt lat="46.29697" lon="-0.43956">
        <ele>67</ele>
        <time>2011-11-22T15:01:47Z</time>
      </trkpt>
      <trkpt lat="46.29701" lon="-0.43961">
        <ele>67</ele>
        <time>2011-11-22T15:01:52Z</time>
      </trkpt>
      <trkpt lat="46.29707" lon="-0.43965">
        <ele>67</ele>
        <time>2011-11-22T15:01:57Z</time>
      </trkpt>
      <trkpt lat="46.29709" lon="-0.43972">
        <ele>65</ele>
        <time>2011-11-22T15:02:02Z</time>
      </trkpt>
      <trkpt lat="46.29714" lon="-0.43977">
        <ele>66</ele>
        <time>2011-11-22T15:02:07Z</time>
      </trkpt>
      <trkpt lat="46.29719" lon="-0.43981">
        <ele>65</ele>
        <time>2011-11-22T15:02:12Z</time>
      </trkpt>
      <trkpt lat="46.29723" lon="-0.43984">
        <ele>63</ele>
        <time>2011-11-22T15:02:17Z</time>
      </trkpt>
      <trkpt lat="46.29727" lon="-0.43991">
        <ele>63</ele>
        <time>2011-11-22T15:02:22Z</time>
      </trkpt>
      <trkpt lat="46.2973" lon="-0.43998">
        <ele>65</ele>
        <time>2011-11-22T15:02:27Z</time>
      </trkpt>
      <trkpt lat="46.29736" lon="-0.44003">
        <ele>67</ele>
        <time>2011-11-22T15:02:32Z</time>
      </trkpt>
      <trkpt lat="46.29741" lon="-0.4401">
        <ele>68</ele>
        <time>2011-11-22T15:02:37Z</time>
      </trkpt>
      <trkpt lat="46.29745" lon="-0.44012">
        <ele>66</ele>
        <time>2011-11-22T15:02:42Z</time>
      </trkpt>
      <trkpt lat="46.29748" lon="-0.44017">
        <ele>67</ele>
        <time>2011-11-22T15:02:47Z</time>
      </trkpt>
      <trkpt lat="46.29753" lon="-0.44021">
        <ele>66</ele>
        <time>2011-11-22T15:02:52Z</time>
      </trkpt>
      <trkpt lat="46.29756" lon="-0.44025">
        <ele>66</ele>
        <time>2011-11-22T15:02:57Z</time>
      </trkpt>
      <trkpt lat="46.29761" lon="-0.44028">
        <ele>65</ele>
        <time>2011-11-22T15:03:02Z</time>
      </trkpt>
      <trkpt lat="46.29765" lon="-0.44034">
        <ele>65</ele>
        <time>2011-11-22T15:03:07Z</time>
      </trkpt>
      <trkpt lat="46.29769" lon="-0.44041">
        <ele>64</ele>
        <time>2011-11-22T15:03:12Z</time>
      </trkpt>
      <trkpt lat="46.29773" lon="-0.44046">
        <ele>64</ele>
        <time>2011-11-22T15:03:17Z</time>
      </trkpt>
      <trkpt lat="46.29777" lon="-0.4405">
        <ele>63</ele>
        <time>2011-11-22T15:03:22Z</time>
      </trkpt>
      <trkpt lat="46.29781" lon="-0.44057">
        <ele>64</ele>
        <time>2011-11-22T15:03:27Z</time>
      </trkpt>
      <trkpt lat="46.29785" lon="-0.44063">
        <ele>64</ele>
        <time>2011-11-22T15:03:32Z</time>
      </trkpt>
      <trkpt lat="46.2979" lon="-0.44072">
        <ele>63</ele>
        <time>2011-11-22T15:03:37Z</time>
      </trkpt>
      <trkpt lat="46.29793" lon="-0.44082">
        <ele>64</ele>
        <time>2011-11-22T15:03:42Z</time>
      </trkpt>
      <trkpt lat="46.29796" lon="-0.44084">
        <ele>68</ele>
        <time>2011-11-22T15:03:47Z</time>
      </trkpt>
      <trkpt lat="46.29801" lon="-0.44089">
        <ele>67</ele>
        <time>2011-11-22T15:03:52Z</time>
      </trkpt>
      <trkpt lat="46.29806" lon="-0.44098">
        <ele>68</ele>
        <time>2011-11-22T15:03:57Z</time>
      </trkpt>
      <trkpt lat="46.29812" lon="-0.44105">
        <ele>65</ele>
        <time>2011-11-22T15:04:02Z</time>
      </trkpt>
      <trkpt lat="46.29816" lon="-0.4411">
        <ele>64</ele>
        <time>2011-11-22T15:04:07Z</time>
      </trkpt>
      <trkpt lat="46.29821" lon="-0.44113">
        <ele>65</ele>
        <time>2011-11-22T15:04:12Z</time>
      </trkpt>
      <trkpt lat="46.29824" lon="-0.44118">
        <ele>65</ele>
        <time>2011-11-22T15:04:17Z</time>
      </trkpt>
      <trkpt lat="46.2983" lon="-0.44122">
        <ele>64</ele>
        <time>2011-11-22T15:04:22Z</time>
      </trkpt>
      <trkpt lat="46.29833" lon="-0.4413">
        <ele>66</ele>
        <time>2011-11-22T15:04:27Z</time>
      </trkpt>
      <trkpt lat="46.29837" lon="-0.44134">
        <ele>66</ele>
        <time>2011-11-22T15:04:32Z</time>
      </trkpt>
      <trkpt lat="46.29841" lon="-0.4414">
        <ele>65</ele>
        <time>2011-11-22T15:04:37Z</time>
      </trkpt>
      <trkpt lat="46.29845" lon="-0.44144">
        <ele>66</ele>
        <time>2011-11-22T15:04:42Z</time>
      </trkpt>
      <trkpt lat="46.2985" lon="-0.44149">
        <ele>65</ele>
        <time>2011-11-22T15:04:47Z</time>
      </trkpt>
      <trkpt lat="46.29855" lon="-0.44152">
        <ele>64</ele>
        <time>2011-11-22T15:04:52Z</time>
      </trkpt>
      <trkpt lat="46.29858" lon="-0.44157">
        <ele>64</ele>
        <time>2011-11-22T15:04:57Z</time>
      </trkpt>
      <trkpt lat="46.29862" lon="-0.44161">
        <ele>65</ele>
        <time>2011-11-22T15:05:02Z</time>
      </trkpt>
      <trkpt lat="46.29869" lon="-0.44165">
        <ele>65</ele>
        <time>2011-11-22T15:05:07Z</time>
      </trkpt>
      <trkpt lat="46.29872" lon="-0.44171">
        <ele>64</ele>
        <time>2011-11-22T15:05:12Z</time>
      </trkpt>
      <trkpt lat="46.29877" lon="-0.44173">
        <ele>65</ele>
        <time>2011-11-22T15:05:17Z</time>
      </trkpt>
      <trkpt lat="46.29882" lon="-0.44177">
        <ele>66</ele>
        <time>2011-11-22T15:05:22Z</time>
      </trkpt>
      <trkpt lat="46.29884" lon="-0.44187">
        <ele>68</ele>
        <time>2011-11-22T15:05:27Z</time>
      </trkpt>
      <trkpt lat="46.29888" lon="-0.44194">
        <ele>67</ele>
        <time>2011-11-22T15:05:32Z</time>
      </trkpt>
      <trkpt lat="46.29891" lon="-0.44201">
        <ele>67</ele>
        <time>2011-11-22T15:05:37Z</time>
      </trkpt>
      <trkpt lat="46.29896" lon="-0.44208">
        <ele>67</ele>
        <time>2011-11-22T15:05:42Z</time>
      </trkpt>
      <trkpt lat="46.29898" lon="-0.44217">
        <ele>67</ele>
        <time>2011-11-22T15:05:47Z</time>
      </trkpt>
      <trkpt lat="46.29903" lon="-0.44223">
        <ele>67</ele>
        <time>2011-11-22T15:05:52Z</time>
      </trkpt>
      <trkpt lat="46.29907" lon="-0.44227">
        <ele>68</ele>
        <time>2011-11-22T15:05:57Z</time>
      </trkpt>
      <trkpt lat="46.29912" lon="-0.44232">
        <ele>67</ele>
        <time>2011-11-22T15:06:02Z</time>
      </trkpt>
      <trkpt lat="46.29919" lon="-0.44234">
        <ele>69</ele>
        <time>2011-11-22T15:06:07Z</time>
      </trkpt>
      <trkpt lat="46.29924" lon="-0.44237">
        <ele>68</ele>
        <time>2011-11-22T15:06:12Z</time>
      </trkpt>
      <trkpt lat="46.29927" lon="-0.44242">
        <ele>69</ele>
        <time>2011-11-22T15:06:17Z</time>
      </trkpt>
      <trkpt lat="46.29931" lon="-0.44247">
        <ele>70</ele>
        <time>2011-11-22T15:06:22Z</time>
      </trkpt>
      <trkpt lat="46.29935" lon="-0.44253">
        <ele>69</ele>
        <time>2011-11-22T15:06:27Z</time>
      </trkpt>
      <trkpt lat="46.29938" lon="-0.44263">
        <ele>69</ele>
        <time>2011-11-22T15:06:32Z</time>
      </trkpt>
      <trkpt lat="46.29942" lon="-0.4427">
        <ele>69</ele>
        <time>2011-11-22T15:06:37Z</time>
      </trkpt>
      <trkpt lat="46.29948" lon="-0.44274">
        <ele>69</ele>
        <time>2011-11-22T15:06:42Z</time>
      </trkpt>
      <trkpt lat="46.2995" lon="-0.44281">
        <ele>73</ele>
        <time>2011-11-22T15:06:47Z</time>
      </trkpt>
      <trkpt lat="46.29953" lon="-0.44284">
        <ele>73</ele>
        <time>2011-11-22T15:06:52Z</time>
      </trkpt>
      <trkpt lat="46.29959" lon="-0.44285">
        <ele>70</ele>
        <time>2011-11-22T15:06:57Z</time>
      </trkpt>
      <trkpt lat="46.29964" lon="-0.44288">
        <ele>69</ele>
        <time>2011-11-22T15:07:02Z</time>
      </trkpt>
      <trkpt lat="46.29967" lon="-0.44294">
        <ele>70</ele>
        <time>2011-11-22T15:07:07Z</time>
      </trkpt>
      <trkpt lat="46.29971" lon="-0.443">
        <ele>70</ele>
        <time>2011-11-22T15:07:12Z</time>
      </trkpt>
      <trkpt lat="46.29975" lon="-0.44306">
        <ele>70</ele>
        <time>2011-11-22T15:07:17Z</time>
      </trkpt>
      <trkpt lat="46.2998" lon="-0.44311">
        <ele>68</ele>
        <time>2011-11-22T15:07:22Z</time>
      </trkpt>
      <trkpt lat="46.29985" lon="-0.44317">
        <ele>67</ele>
        <time>2011-11-22T15:07:27Z</time>
      </trkpt>
      <trkpt lat="46.29989" lon="-0.4432">
        <ele>68</ele>
        <time>2011-11-22T15:07:32Z</time>
      </trkpt>
      <trkpt lat="46.29993" lon="-0.44323">
        <ele>67</ele>
        <time>2011-11-22T15:07:37Z</time>
      </trkpt>
      <trkpt lat="46.29998" lon="-0.4433">
        <ele>66</ele>
        <time>2011-11-22T15:07:42Z</time>
      </trkpt>
      <trkpt lat="46.30001" lon="-0.44336">
        <ele>64</ele>
        <time>2011-11-22T15:07:47Z</time>
      </trkpt>
      <trkpt lat="46.30006" lon="-0.4434">
        <ele>63</ele>
        <time>2011-11-22T15:07:52Z</time>
      </trkpt>
      <trkpt lat="46.30011" lon="-0.44345">
        <ele>63</ele>
        <time>2011-11-22T15:07:57Z</time>
      </trkpt>
      <trkpt lat="46.30015" lon="-0.44354">
        <ele>63</ele>
        <time>2011-11-22T15:08:02Z</time>
      </trkpt>
      <trkpt lat="46.30021" lon="-0.44354">
        <ele>64</ele>
        <time>2011-11-22T15:08:07Z</time>
      </trkpt>
      <trkpt lat="46.30029" lon="-0.44352">
        <ele>65</ele>
        <time>2011-11-22T15:08:12Z</time>
      </trkpt>
      <trkpt lat="46.30033" lon="-0.4435">
        <ele>63</ele>
        <time>2011-11-22T15:08:17Z</time>
      </trkpt>
      <trkpt lat="46.30039" lon="-0.44344">
        <ele>63</ele>
        <time>2011-11-22T15:08:22Z</time>
      </trkpt>
      <trkpt lat="46.30044" lon="-0.44341">
        <ele>62</ele>
        <time>2011-11-22T15:08:27Z</time>
      </trkpt>
      <trkpt lat="46.30047" lon="-0.4434">
        <ele>59</ele>
        <time>2011-11-22T15:08:32Z</time>
      </trkpt>
      <trkpt lat="46.30051" lon="-0.44338">
        <ele>59</ele>
        <time>2011-11-22T15:08:37Z</time>
      </trkpt>
      <trkpt lat="46.30052" lon="-0.44337">
        <ele>60</ele>
        <time>2011-11-22T15:08:42Z</time>
      </trkpt>
      <trkpt lat="46.30058" lon="-0.44335">
        <ele>58</ele>
        <time>2011-11-22T15:08:47Z</time>
      </trkpt>
      <trkpt lat="46.30065" lon="-0.4433">
        <ele>60</ele>
        <time>2011-11-22T15:08:52Z</time>
      </trkpt>
      <trkpt lat="46.30069" lon="-0.44327">
        <ele>60</ele>
        <time>2011-11-22T15:08:57Z</time>
      </trkpt>
      <trkpt lat="46.30072" lon="-0.44325">
        <ele>58</ele>
        <time>2011-11-22T15:09:02Z</time>
      </trkpt>
      <trkpt lat="46.30077" lon="-0.44322">
        <ele>59</ele>
        <time>2011-11-22T15:09:07Z</time>
      </trkpt>
      <trkpt lat="46.30084" lon="-0.44321">
        <ele>60</ele>
        <time>2011-11-22T15:09:12Z</time>
      </trkpt>
      <trkpt lat="46.30088" lon="-0.44319">
        <ele>58</ele>
        <time>2011-11-22T15:09:17Z</time>
      </trkpt>
      <trkpt lat="46.30095" lon="-0.44314">
        <ele>56</ele>
        <time>2011-11-22T15:09:22Z</time>
      </trkpt>
      <trkpt lat="46.30102" lon="-0.44311">
        <ele>58</ele>
        <time>2011-11-22T15:09:27Z</time>
      </trkpt>
      <trkpt lat="46.30105" lon="-0.44308">
        <ele>58</ele>
        <time>2011-11-22T15:09:32Z</time>
      </trkpt>
      <trkpt lat="46.30112" lon="-0.44304">
        <ele>61</ele>
        <time>2011-11-22T15:09:37Z</time>
      </trkpt>
      <trkpt lat="46.3012" lon="-0.443">
        <ele>64</ele>
        <time>2011-11-22T15:09:42Z</time>
      </trkpt>
      <trkpt lat="46.30125" lon="-0.44298">
        <ele>61</ele>
        <time>2011-11-22T15:09:47Z</time>
      </trkpt>
      <trkpt lat="46.30131" lon="-0.44296">
        <ele>61</ele>
        <time>2011-11-22T15:09:52Z</time>
      </trkpt>
      <trkpt lat="46.30136" lon="-0.44293">
        <ele>60</ele>
        <time>2011-11-22T15:09:57Z</time>
      </trkpt>
      <trkpt lat="46.30142" lon="-0.44291">
        <ele>62</ele>
        <time>2011-11-22T15:10:02Z</time>
      </trkpt>
      <trkpt lat="46.30146" lon="-0.44289">
        <ele>62</ele>
        <time>2011-11-22T15:10:07Z</time>
      </trkpt>
      <trkpt lat="46.3015" lon="-0.44287">
        <ele>62</ele>
        <time>2011-11-22T15:10:12Z</time>
      </trkpt>
      <trkpt lat="46.30155" lon="-0.44286">
        <ele>61</ele>
        <time>2011-11-22T15:10:17Z</time>
      </trkpt>
      <trkpt lat="46.3016" lon="-0.44283">
        <ele>61</ele>
        <time>2011-11-22T15:10:22Z</time>
      </trkpt>
      <trkpt lat="46.30165" lon="-0.4428">
        <ele>61</ele>
        <time>2011-11-22T15:10:27Z</time>
      </trkpt>
      <trkpt lat="46.30168" lon="-0.44278">
        <ele>60</ele>
        <time>2011-11-22T15:10:32Z</time>
      </trkpt>
      <trkpt lat="46.30173" lon="-0.44276">
        <ele>60</ele>
        <time>2011-11-22T15:10:37Z</time>
      </trkpt>
      <trkpt lat="46.30181" lon="-0.44273">
        <ele>57</ele>
        <time>2011-11-22T15:10:42Z</time>
      </trkpt>
      <trkpt lat="46.30186" lon="-0.44269">
        <ele>58</ele>
        <time>2011-11-22T15:10:47Z</time>
      </trkpt>
      <trkpt lat="46.3019" lon="-0.44268">
        <ele>57</ele>
        <time>2011-11-22T15:10:52Z</time>
      </trkpt>
      <trkpt lat="46.30195" lon="-0.44263">
        <ele>58</ele>
        <time>2011-11-22T15:10:57Z</time>
      </trkpt>
      <trkpt lat="46.30198" lon="-0.44261">
        <ele>58</ele>
        <time>2011-11-22T15:11:02Z</time>
      </trkpt>
      <trkpt lat="46.30202" lon="-0.44258">
        <ele>59</ele>
        <time>2011-11-22T15:11:07Z</time>
      </trkpt>
      <trkpt lat="46.30207" lon="-0.44254">
        <ele>59</ele>
        <time>2011-11-22T15:11:12Z</time>
      </trkpt>
      <trkpt lat="46.30211" lon="-0.44252">
        <ele>60</ele>
        <time>2011-11-22T15:11:17Z</time>
      </trkpt>
      <trkpt lat="46.30216" lon="-0.44246">
        <ele>59</ele>
        <time>2011-11-22T15:11:22Z</time>
      </trkpt>
      <trkpt lat="46.30222" lon="-0.44244">
        <ele>60</ele>
        <time>2011-11-22T15:11:27Z</time>
      </trkpt>
      <trkpt lat="46.30226" lon="-0.44241">
        <ele>59</ele>
        <time>2011-11-22T15:11:32Z</time>
      </trkpt>
      <trkpt lat="46.30229" lon="-0.4424">
        <ele>59</ele>
        <time>2011-11-22T15:11:37Z</time>
      </trkpt>
      <trkpt lat="46.30231" lon="-0.4424">
        <ele>59</ele>
        <time>2011-11-22T15:11:42Z</time>
      </trkpt>
      <trkpt lat="46.30239" lon="-0.44233">
        <ele>60</ele>
        <time>2011-11-22T15:11:47Z</time>
      </trkpt>
      <trkpt lat="46.30244" lon="-0.44232">
        <ele>59</ele>
        <time>2011-11-22T15:11:52Z</time>
      </trkpt>
      <trkpt lat="46.30245" lon="-0.44231">
        <ele>60</ele>
        <time>2011-11-22T15:11:57Z</time>
      </trkpt>
      <trkpt lat="46.30246" lon="-0.4423">
        <ele>60</ele>
        <time>2011-11-22T15:12:02Z</time>
      </trkpt>
      <trkpt lat="46.30248" lon="-0.44229">
        <ele>61</ele>
        <time>2011-11-22T15:12:07Z</time>
      </trkpt>
      <trkpt lat="46.30253" lon="-0.44225">
        <ele>61</ele>
        <time>2011-11-22T15:12:52Z</time>
      </trkpt>
      <trkpt lat="46.30258" lon="-0.44223">
        <ele>66</ele>
        <time>2011-11-22T15:12:57Z</time>
      </trkpt>
      <trkpt lat="46.30263" lon="-0.44221">
        <ele>65</ele>
        <time>2011-11-22T15:13:02Z</time>
      </trkpt>
      <trkpt lat="46.30265" lon="-0.4422">
        <ele>66</ele>
        <time>2011-11-22T15:13:07Z</time>
      </trkpt>
      <trkpt lat="46.30267" lon="-0.44217">
        <ele>65</ele>
        <time>2011-11-22T15:13:12Z</time>
      </trkpt>
      <trkpt lat="46.30273" lon="-0.44217">
        <ele>63</ele>
        <time>2011-11-22T15:13:17Z</time>
      </trkpt>
      <trkpt lat="46.30279" lon="-0.44214">
        <ele>63</ele>
        <time>2011-11-22T15:13:22Z</time>
      </trkpt>
      <trkpt lat="46.30281" lon="-0.44212">
        <ele>63</ele>
        <time>2011-11-22T15:13:27Z</time>
      </trkpt>
      <trkpt lat="46.30285" lon="-0.44209">
        <ele>62</ele>
        <time>2011-11-22T15:13:32Z</time>
      </trkpt>
      <trkpt lat="46.3029" lon="-0.44206">
        <ele>62</ele>
        <time>2011-11-22T15:13:37Z</time>
      </trkpt>
      <trkpt lat="46.30294" lon="-0.44204">
        <ele>61</ele>
        <time>2011-11-22T15:13:42Z</time>
      </trkpt>
      <trkpt lat="46.30297" lon="-0.44202">
        <ele>61</ele>
        <time>2011-11-22T15:13:47Z</time>
      </trkpt>
      <trkpt lat="46.30301" lon="-0.44201">
        <ele>61</ele>
        <time>2011-11-22T15:13:52Z</time>
      </trkpt>
      <trkpt lat="46.30308" lon="-0.44197">
        <ele>62</ele>
        <time>2011-11-22T15:13:57Z</time>
      </trkpt>
      <trkpt lat="46.30312" lon="-0.44196">
        <ele>62</ele>
        <time>2011-11-22T15:14:02Z</time>
      </trkpt>
      <trkpt lat="46.30318" lon="-0.44196">
        <ele>63</ele>
        <time>2011-11-22T15:14:07Z</time>
      </trkpt>
      <trkpt lat="46.30323" lon="-0.44199">
        <ele>64</ele>
        <time>2011-11-22T15:14:12Z</time>
      </trkpt>
      <trkpt lat="46.30328" lon="-0.442">
        <ele>65</ele>
        <time>2011-11-22T15:14:17Z</time>
      </trkpt>
      <trkpt lat="46.30334" lon="-0.442">
        <ele>65</ele>
        <time>2011-11-22T15:14:22Z</time>
      </trkpt>
      <trkpt lat="46.30338" lon="-0.442">
        <ele>65</ele>
        <time>2011-11-22T15:14:27Z</time>
      </trkpt>
      <trkpt lat="46.30345" lon="-0.442">
        <ele>66</ele>
        <time>2011-11-22T15:14:32Z</time>
      </trkpt>
      <trkpt lat="46.30349" lon="-0.442">
        <ele>65</ele>
        <time>2011-11-22T15:14:37Z</time>
      </trkpt>
      <trkpt lat="46.30355" lon="-0.442">
        <ele>66</ele>
        <time>2011-11-22T15:14:42Z</time>
      </trkpt>
      <trkpt lat="46.3036" lon="-0.442">
        <ele>66</ele>
        <time>2011-11-22T15:14:47Z</time>
      </trkpt>
      <trkpt lat="46.30364" lon="-0.44201">
        <ele>66</ele>
        <time>2011-11-22T15:14:52Z</time>
      </trkpt>
      <trkpt lat="46.30369" lon="-0.44201">
        <ele>65</ele>
        <time>2011-11-22T15:14:57Z</time>
      </trkpt>
      <trkpt lat="46.30372" lon="-0.44198">
        <ele>66</ele>
        <time>2011-11-22T15:15:02Z</time>
      </trkpt>
      <trkpt lat="46.30376" lon="-0.44195">
        <ele>66</ele>
        <time>2011-11-22T15:15:07Z</time>
      </trkpt>
      <trkpt lat="46.30383" lon="-0.44195">
        <ele>67</ele>
        <time>2011-11-22T15:15:12Z</time>
      </trkpt>
      <trkpt lat="46.30388" lon="-0.44197">
        <ele>66</ele>
        <time>2011-11-22T15:15:17Z</time>
      </trkpt>
      <trkpt lat="46.30395" lon="-0.44195">
        <ele>66</ele>
        <time>2011-11-22T15:15:22Z</time>
      </trkpt>
      <trkpt lat="46.30397" lon="-0.44195">
        <ele>65</ele>
        <time>2011-11-22T15:15:27Z</time>
      </trkpt>
      <trkpt lat="46.304" lon="-0.44208">
        <ele>66</ele>
        <time>2011-11-22T15:15:32Z</time>
      </trkpt>
      <trkpt lat="46.30405" lon="-0.44212">
        <ele>65</ele>
        <time>2011-11-22T15:15:37Z</time>
      </trkpt>
      <trkpt lat="46.30409" lon="-0.44217">
        <ele>67</ele>
        <time>2011-11-22T15:15:42Z</time>
      </trkpt>
      <trkpt lat="46.30412" lon="-0.44223">
        <ele>67</ele>
        <time>2011-11-22T15:15:47Z</time>
      </trkpt>
      <trkpt lat="46.30417" lon="-0.44232">
        <ele>68</ele>
        <time>2011-11-22T15:15:52Z</time>
      </trkpt>
      <trkpt lat="46.30419" lon="-0.44238">
        <ele>67</ele>
        <time>2011-11-22T15:15:57Z</time>
      </trkpt>
      <trkpt lat="46.3042" lon="-0.44249">
        <ele>70</ele>
        <time>2011-11-22T15:16:02Z</time>
      </trkpt>
      <trkpt lat="46.30423" lon="-0.44253">
        <ele>69</ele>
        <time>2011-11-22T15:16:07Z</time>
      </trkpt>
      <trkpt lat="46.30422" lon="-0.44252">
        <ele>68</ele>
        <time>2011-11-22T15:16:12Z</time>
      </trkpt>
      <trkpt lat="46.30423" lon="-0.44254">
        <ele>68</ele>
        <time>2011-11-22T15:16:17Z</time>
      </trkpt>
      <trkpt lat="46.30426" lon="-0.44258">
        <ele>68</ele>
        <time>2011-11-22T15:16:22Z</time>
      </trkpt>
      <trkpt lat="46.30428" lon="-0.44263">
        <ele>68</ele>
        <time>2011-11-22T15:16:27Z</time>
      </trkpt>
      <trkpt lat="46.3043" lon="-0.44267">
        <ele>69</ele>
        <time>2011-11-22T15:16:32Z</time>
      </trkpt>
      <trkpt lat="46.30433" lon="-0.44272">
        <ele>70</ele>
        <time>2011-11-22T15:16:37Z</time>
      </trkpt>
      <trkpt lat="46.30434" lon="-0.44274">
        <ele>70</ele>
        <time>2011-11-22T15:16:42Z</time>
      </trkpt>
      <trkpt lat="46.30436" lon="-0.4428">
        <ele>70</ele>
        <time>2011-11-22T15:16:47Z</time>
      </trkpt>
      <trkpt lat="46.30438" lon="-0.44286">
        <ele>71</ele>
        <time>2011-11-22T15:16:52Z</time>
      </trkpt>
      <trkpt lat="46.30439" lon="-0.44293">
        <ele>70</ele>
        <time>2011-11-22T15:16:57Z</time>
      </trkpt>
      <trkpt lat="46.30441" lon="-0.44299">
        <ele>69</ele>
        <time>2011-11-22T15:17:02Z</time>
      </trkpt>
      <trkpt lat="46.30443" lon="-0.44307">
        <ele>67</ele>
        <time>2011-11-22T15:17:07Z</time>
      </trkpt>
      <trkpt lat="46.30445" lon="-0.44318">
        <ele>66</ele>
        <time>2011-11-22T15:17:12Z</time>
      </trkpt>
      <trkpt lat="46.30445" lon="-0.44328">
        <ele>65</ele>
        <time>2011-11-22T15:17:17Z</time>
      </trkpt>
      <trkpt lat="46.30447" lon="-0.44338">
        <ele>65</ele>
        <time>2011-11-22T15:17:22Z</time>
      </trkpt>
      <trkpt lat="46.30448" lon="-0.44345">
        <ele>65</ele>
        <time>2011-11-22T15:17:27Z</time>
      </trkpt>
      <trkpt lat="46.3045" lon="-0.44353">
        <ele>66</ele>
        <time>2011-11-22T15:17:32Z</time>
      </trkpt>
      <trkpt lat="46.30451" lon="-0.44363">
        <ele>67</ele>
        <time>2011-11-22T15:17:37Z</time>
      </trkpt>
      <trkpt lat="46.30452" lon="-0.44371">
        <ele>66</ele>
        <time>2011-11-22T15:17:42Z</time>
      </trkpt>
      <trkpt lat="46.30452" lon="-0.44382">
        <ele>66</ele>
        <time>2011-11-22T15:17:47Z</time>
      </trkpt>
      <trkpt lat="46.30454" lon="-0.44389">
        <ele>64</ele>
        <time>2011-11-22T15:17:52Z</time>
      </trkpt>
      <trkpt lat="46.30455" lon="-0.44396">
        <ele>66</ele>
        <time>2011-11-22T15:17:57Z</time>
      </trkpt>
      <trkpt lat="46.30457" lon="-0.44404">
        <ele>66</ele>
        <time>2011-11-22T15:18:02Z</time>
      </trkpt>
      <trkpt lat="46.30457" lon="-0.44409">
        <ele>65</ele>
        <time>2011-11-22T15:18:07Z</time>
      </trkpt>
      <trkpt lat="46.30459" lon="-0.44415">
        <ele>64</ele>
        <time>2011-11-22T15:18:12Z</time>
      </trkpt>
      <trkpt lat="46.30459" lon="-0.44426">
        <ele>63</ele>
        <time>2011-11-22T15:18:17Z</time>
      </trkpt>
      <trkpt lat="46.30459" lon="-0.44435">
        <ele>64</ele>
        <time>2011-11-22T15:18:22Z</time>
      </trkpt>
      <trkpt lat="46.3046" lon="-0.44442">
        <ele>64</ele>
        <time>2011-11-22T15:18:27Z</time>
      </trkpt>
      <trkpt lat="46.30461" lon="-0.4445">
        <ele>63</ele>
        <time>2011-11-22T15:18:32Z</time>
      </trkpt>
      <trkpt lat="46.30461" lon="-0.44459">
        <ele>65</ele>
        <time>2011-11-22T15:18:37Z</time>
      </trkpt>
      <trkpt lat="46.30462" lon="-0.4447">
        <ele>65</ele>
        <time>2011-11-22T15:18:42Z</time>
      </trkpt>
      <trkpt lat="46.30462" lon="-0.44481">
        <ele>66</ele>
        <time>2011-11-22T15:18:47Z</time>
      </trkpt>
      <trkpt lat="46.30463" lon="-0.4449">
        <ele>67</ele>
        <time>2011-11-22T15:18:52Z</time>
      </trkpt>
      <trkpt lat="46.30464" lon="-0.44498">
        <ele>67</ele>
        <time>2011-11-22T15:18:57Z</time>
      </trkpt>
      <trkpt lat="46.30466" lon="-0.44504">
        <ele>65</ele>
        <time>2011-11-22T15:19:02Z</time>
      </trkpt>
      <trkpt lat="46.30467" lon="-0.44514">
        <ele>65</ele>
        <time>2011-11-22T15:19:07Z</time>
      </trkpt>
      <trkpt lat="46.30469" lon="-0.44524">
        <ele>66</ele>
        <time>2011-11-22T15:19:12Z</time>
      </trkpt>
      <trkpt lat="46.30471" lon="-0.44534">
        <ele>68</ele>
        <time>2011-11-22T15:19:17Z</time>
      </trkpt>
      <trkpt lat="46.30473" lon="-0.44545">
        <ele>68</ele>
        <time>2011-11-22T15:19:22Z</time>
      </trkpt>
      <trkpt lat="46.30476" lon="-0.4455">
        <ele>67</ele>
        <time>2011-11-22T15:19:27Z</time>
      </trkpt>
      <trkpt lat="46.30478" lon="-0.44557">
        <ele>68</ele>
        <time>2011-11-22T15:19:32Z</time>
      </trkpt>
      <trkpt lat="46.30479" lon="-0.44569">
        <ele>68</ele>
        <time>2011-11-22T15:19:37Z</time>
      </trkpt>
      <trkpt lat="46.30481" lon="-0.44574">
        <ele>64</ele>
        <time>2011-11-22T15:19:42Z</time>
      </trkpt>
      <trkpt lat="46.30483" lon="-0.44585">
        <ele>63</ele>
        <time>2011-11-22T15:19:47Z</time>
      </trkpt>
      <trkpt lat="46.30486" lon="-0.4459">
        <ele>60</ele>
        <time>2011-11-22T15:19:52Z</time>
      </trkpt>
      <trkpt lat="46.30487" lon="-0.44596">
        <ele>59</ele>
        <time>2011-11-22T15:19:57Z</time>
      </trkpt>
      <trkpt lat="46.3049" lon="-0.44607">
        <ele>62</ele>
        <time>2011-11-22T15:20:02Z</time>
      </trkpt>
      <trkpt lat="46.30492" lon="-0.44619">
        <ele>62</ele>
        <time>2011-11-22T15:20:07Z</time>
      </trkpt>
      <trkpt lat="46.30493" lon="-0.44627">
        <ele>60</ele>
        <time>2011-11-22T15:20:12Z</time>
      </trkpt>
      <trkpt lat="46.30495" lon="-0.44632">
        <ele>60</ele>
        <time>2011-11-22T15:20:17Z</time>
      </trkpt>
      <trkpt lat="46.30498" lon="-0.44643">
        <ele>61</ele>
        <time>2011-11-22T15:20:22Z</time>
      </trkpt>
      <trkpt lat="46.305" lon="-0.44654">
        <ele>62</ele>
        <time>2011-11-22T15:20:27Z</time>
      </trkpt>
      <trkpt lat="46.30503" lon="-0.44663">
        <ele>64</ele>
        <time>2011-11-22T15:20:32Z</time>
      </trkpt>
      <trkpt lat="46.30505" lon="-0.44669">
        <ele>65</ele>
        <time>2011-11-22T15:20:37Z</time>
      </trkpt>
      <trkpt lat="46.30506" lon="-0.44681">
        <ele>66</ele>
        <time>2011-11-22T15:20:42Z</time>
      </trkpt>
      <trkpt lat="46.30508" lon="-0.44687">
        <ele>66</ele>
        <time>2011-11-22T15:20:47Z</time>
      </trkpt>
      <trkpt lat="46.30512" lon="-0.44693">
        <ele>67</ele>
        <time>2011-11-22T15:20:52Z</time>
      </trkpt>
      <trkpt lat="46.30514" lon="-0.44699">
        <ele>64</ele>
        <time>2011-11-22T15:20:57Z</time>
      </trkpt>
      <trkpt lat="46.30516" lon="-0.4471">
        <ele>64</ele>
        <time>2011-11-22T15:21:02Z</time>
      </trkpt>
      <trkpt lat="46.30517" lon="-0.44718">
        <ele>66</ele>
        <time>2011-11-22T15:21:07Z</time>
      </trkpt>
      <trkpt lat="46.3052" lon="-0.44725">
        <ele>67</ele>
        <time>2011-11-22T15:21:12Z</time>
      </trkpt>
      <trkpt lat="46.30522" lon="-0.44735">
        <ele>66</ele>
        <time>2011-11-22T15:21:17Z</time>
      </trkpt>
      <trkpt lat="46.30524" lon="-0.44741">
        <ele>66</ele>
        <time>2011-11-22T15:21:22Z</time>
      </trkpt>
      <trkpt lat="46.30526" lon="-0.44748">
        <ele>65</ele>
        <time>2011-11-22T15:21:27Z</time>
      </trkpt>
      <trkpt lat="46.30529" lon="-0.44753">
        <ele>63</ele>
        <time>2011-11-22T15:21:32Z</time>
      </trkpt>
      <trkpt lat="46.30531" lon="-0.44761">
        <ele>63</ele>
        <time>2011-11-22T15:21:37Z</time>
      </trkpt>
      <trkpt lat="46.30533" lon="-0.44769">
        <ele>63</ele>
        <time>2011-11-22T15:21:42Z</time>
      </trkpt>
      <trkpt lat="46.30536" lon="-0.44777">
        <ele>62</ele>
        <time>2011-11-22T15:21:47Z</time>
      </trkpt>
      <trkpt lat="46.30538" lon="-0.44785">
        <ele>63</ele>
        <time>2011-11-22T15:21:52Z</time>
      </trkpt>
      <trkpt lat="46.3054" lon="-0.44792">
        <ele>64</ele>
        <time>2011-11-22T15:21:57Z</time>
      </trkpt>
      <trkpt lat="46.30543" lon="-0.44799">
        <ele>62</ele>
        <time>2011-11-22T15:22:02Z</time>
      </trkpt>
      <trkpt lat="46.30545" lon="-0.44805">
        <ele>60</ele>
        <time>2011-11-22T15:22:07Z</time>
      </trkpt>
      <trkpt lat="46.30546" lon="-0.44812">
        <ele>62</ele>
        <time>2011-11-22T15:22:12Z</time>
      </trkpt>
      <trkpt lat="46.30551" lon="-0.44816">
        <ele>62</ele>
        <time>2011-11-22T15:22:17Z</time>
      </trkpt>
      <trkpt lat="46.30553" lon="-0.44823">
        <ele>61</ele>
        <time>2011-11-22T15:22:22Z</time>
      </trkpt>
      <trkpt lat="46.30557" lon="-0.44828">
        <ele>61</ele>
        <time>2011-11-22T15:22:27Z</time>
      </trkpt>
      <trkpt lat="46.30559" lon="-0.44836">
        <ele>61</ele>
        <time>2011-11-22T15:22:32Z</time>
      </trkpt>
      <trkpt lat="46.30563" lon="-0.44844">
        <ele>63</ele>
        <time>2011-11-22T15:22:37Z</time>
      </trkpt>
      <trkpt lat="46.30565" lon="-0.44852">
        <ele>65</ele>
        <time>2011-11-22T15:22:42Z</time>
      </trkpt>
      <trkpt lat="46.30568" lon="-0.4486">
        <ele>65</ele>
        <time>2011-11-22T15:22:47Z</time>
      </trkpt>
      <trkpt lat="46.3057" lon="-0.44866">
        <ele>64</ele>
        <time>2011-11-22T15:22:52Z</time>
      </trkpt>
      <trkpt lat="46.30571" lon="-0.44874">
        <ele>63</ele>
        <time>2011-11-22T15:22:57Z</time>
      </trkpt>
      <trkpt lat="46.30573" lon="-0.4488">
        <ele>62</ele>
        <time>2011-11-22T15:23:02Z</time>
      </trkpt>
      <trkpt lat="46.30575" lon="-0.44888">
        <ele>64</ele>
        <time>2011-11-22T15:23:07Z</time>
      </trkpt>
      <trkpt lat="46.30578" lon="-0.44895">
        <ele>61</ele>
        <time>2011-11-22T15:23:12Z</time>
      </trkpt>
      <trkpt lat="46.3058" lon="-0.44903">
        <ele>61</ele>
        <time>2011-11-22T15:23:17Z</time>
      </trkpt>
      <trkpt lat="46.30582" lon="-0.44911">
        <ele>62</ele>
        <time>2011-11-22T15:23:22Z</time>
      </trkpt>
      <trkpt lat="46.30584" lon="-0.4492">
        <ele>63</ele>
        <time>2011-11-22T15:23:27Z</time>
      </trkpt>
      <trkpt lat="46.30586" lon="-0.44929">
        <ele>65</ele>
        <time>2011-11-22T15:23:32Z</time>
      </trkpt>
      <trkpt lat="46.30586" lon="-0.44938">
        <ele>67</ele>
        <time>2011-11-22T15:23:37Z</time>
      </trkpt>
      <trkpt lat="46.30588" lon="-0.44945">
        <ele>69</ele>
        <time>2011-11-22T15:23:42Z</time>
      </trkpt>
      <trkpt lat="46.30589" lon="-0.4495">
        <ele>70</ele>
        <time>2011-11-22T15:23:47Z</time>
      </trkpt>
      <trkpt lat="46.30589" lon="-0.44957">
        <ele>69</ele>
        <time>2011-11-22T15:23:52Z</time>
      </trkpt>
      <trkpt lat="46.30592" lon="-0.44965">
        <ele>67</ele>
        <time>2011-11-22T15:23:57Z</time>
      </trkpt>
      <trkpt lat="46.30594" lon="-0.44975">
        <ele>66</ele>
        <time>2011-11-22T15:24:02Z</time>
      </trkpt>
      <trkpt lat="46.30594" lon="-0.44985">
        <ele>67</ele>
        <time>2011-11-22T15:24:07Z</time>
      </trkpt>
      <trkpt lat="46.30594" lon="-0.44992">
        <ele>67</ele>
        <time>2011-11-22T15:24:12Z</time>
      </trkpt>
      <trkpt lat="46.30594" lon="-0.44997">
        <ele>65</ele>
        <time>2011-11-22T15:24:17Z</time>
      </trkpt>
      <trkpt lat="46.30591" lon="-0.45004">
        <ele>66</ele>
        <time>2011-11-22T15:24:22Z</time>
      </trkpt>
      <trkpt lat="46.30588" lon="-0.4501">
        <ele>64</ele>
        <time>2011-11-22T15:24:27Z</time>
      </trkpt>
      <trkpt lat="46.30586" lon="-0.45013">
        <ele>64</ele>
        <time>2011-11-22T15:24:32Z</time>
      </trkpt>
      <trkpt lat="46.30586" lon="-0.45012">
        <ele>65</ele>
        <time>2011-11-22T15:24:42Z</time>
      </trkpt>
      <trkpt lat="46.30585" lon="-0.45012">
        <ele>64</ele>
        <time>2011-11-22T15:24:47Z</time>
      </trkpt>
      <trkpt lat="46.30584" lon="-0.45013">
        <ele>64</ele>
        <time>2011-11-22T15:24:52Z</time>
      </trkpt>
      <trkpt lat="46.30581" lon="-0.45014">
        <ele>63</ele>
        <time>2011-11-22T15:24:57Z</time>
      </trkpt>
      <trkpt lat="46.30577" lon="-0.45012">
        <ele>64</ele>
        <time>2011-11-22T15:25:02Z</time>
      </trkpt>
      <trkpt lat="46.30571" lon="-0.45013">
        <ele>65</ele>
        <time>2011-11-22T15:25:07Z</time>
      </trkpt>
      <trkpt lat="46.30568" lon="-0.45016">
        <ele>64</ele>
        <time>2011-11-22T15:25:12Z</time>
      </trkpt>
      <trkpt lat="46.30561" lon="-0.45015">
        <ele>64</ele>
        <time>2011-11-22T15:25:17Z</time>
      </trkpt>
      <trkpt lat="46.30557" lon="-0.45016">
        <ele>63</ele>
        <time>2011-11-22T15:25:22Z</time>
      </trkpt>
      <trkpt lat="46.30552" lon="-0.45015">
        <ele>64</ele>
        <time>2011-11-22T15:25:27Z</time>
      </trkpt>
      <trkpt lat="46.30547" lon="-0.45013">
        <ele>64</ele>
        <time>2011-11-22T15:25:32Z</time>
      </trkpt>
      <trkpt lat="46.30545" lon="-0.45014">
        <ele>64</ele>
        <time>2011-11-22T15:25:37Z</time>
      </trkpt>
      <trkpt lat="46.3054" lon="-0.45015">
        <ele>65</ele>
        <time>2011-11-22T15:25:42Z</time>
      </trkpt>
      <trkpt lat="46.30535" lon="-0.45016">
        <ele>64</ele>
        <time>2011-11-22T15:25:47Z</time>
      </trkpt>
      <trkpt lat="46.3053" lon="-0.45015">
        <ele>64</ele>
        <time>2011-11-22T15:25:52Z</time>
      </trkpt>
      <trkpt lat="46.30525" lon="-0.45018">
        <ele>63</ele>
        <time>2011-11-22T15:25:57Z</time>
      </trkpt>
      <trkpt lat="46.30524" lon="-0.45018">
        <ele>64</ele>
        <time>2011-11-22T15:26:02Z</time>
      </trkpt>
      <trkpt lat="46.30523" lon="-0.45019">
        <ele>64</ele>
        <time>2011-11-22T15:26:07Z</time>
      </trkpt>
      <trkpt lat="46.30521" lon="-0.45019">
        <ele>64</ele>
        <time>2011-11-22T15:26:12Z</time>
      </trkpt>
      <trkpt lat="46.3052" lon="-0.4502">
        <ele>65</ele>
        <time>2011-11-22T15:26:17Z</time>
      </trkpt>
      <trkpt lat="46.3052" lon="-0.4502">
        <ele>65</ele>
        <time>2011-11-22T15:26:22Z</time>
      </trkpt>
      <trkpt lat="46.30515" lon="-0.45018">
        <ele>64</ele>
        <time>2011-11-22T15:26:27Z</time>
      </trkpt>
      <trkpt lat="46.30509" lon="-0.45019">
        <ele>63</ele>
        <time>2011-11-22T15:26:32Z</time>
      </trkpt>
      <trkpt lat="46.30506" lon="-0.45014">
        <ele>62</ele>
        <time>2011-11-22T15:26:37Z</time>
      </trkpt>
      <trkpt lat="46.30505" lon="-0.45015">
        <ele>61</ele>
        <time>2011-11-22T15:26:42Z</time>
      </trkpt>
      <trkpt lat="46.30506" lon="-0.45015">
        <ele>61</ele>
        <time>2011-11-22T15:26:47Z</time>
      </trkpt>
      <trkpt lat="46.30505" lon="-0.45014">
        <ele>62</ele>
        <time>2011-11-22T15:26:52Z</time>
      </trkpt>
      <trkpt lat="46.30499" lon="-0.45014">
        <ele>61</ele>
        <time>2011-11-22T15:26:57Z</time>
      </trkpt>
      <trkpt lat="46.30493" lon="-0.45013">
        <ele>61</ele>
        <time>2011-11-22T15:27:02Z</time>
      </trkpt>
      <trkpt lat="46.30487" lon="-0.45016">
        <ele>62</ele>
        <time>2011-11-22T15:27:07Z</time>
      </trkpt>
      <trkpt lat="46.30483" lon="-0.45019">
        <ele>62</ele>
        <time>2011-11-22T15:27:12Z</time>
      </trkpt>
      <trkpt lat="46.30481" lon="-0.4502">
        <ele>63</ele>
        <time>2011-11-22T15:27:17Z</time>
      </trkpt>
      <trkpt lat="46.3048" lon="-0.45021">
        <ele>63</ele>
        <time>2011-11-22T15:27:22Z</time>
      </trkpt>
      <trkpt lat="46.30477" lon="-0.45024">
        <ele>63</ele>
        <time>2011-11-22T15:27:27Z</time>
      </trkpt>
      <trkpt lat="46.30476" lon="-0.45024">
        <ele>63</ele>
        <time>2011-11-22T15:27:32Z</time>
      </trkpt>
      <trkpt lat="46.30474" lon="-0.45026">
        <ele>64</ele>
        <time>2011-11-22T15:27:37Z</time>
      </trkpt>
      <trkpt lat="46.30473" lon="-0.45027">
        <ele>63</ele>
        <time>2011-11-22T15:27:42Z</time>
      </trkpt>
      <trkpt lat="46.30472" lon="-0.45028">
        <ele>63</ele>
        <time>2011-11-22T15:27:47Z</time>
      </trkpt>
      <trkpt lat="46.30471" lon="-0.45027">
        <ele>62</ele>
        <time>2011-11-22T15:27:52Z</time>
      </trkpt>
      <trkpt lat="46.30465" lon="-0.45029">
        <ele>63</ele>
        <time>2011-11-22T15:27:57Z</time>
      </trkpt>
      <trkpt lat="46.30461" lon="-0.45028">
        <ele>64</ele>
        <time>2011-11-22T15:28:02Z</time>
      </trkpt>
      <trkpt lat="46.30454" lon="-0.45027">
        <ele>63</ele>
        <time>2011-11-22T15:28:07Z</time>
      </trkpt>
      <trkpt lat="46.30451" lon="-0.45025">
        <ele>63</ele>
        <time>2011-11-22T15:28:12Z</time>
      </trkpt>
      <trkpt lat="46.30448" lon="-0.45024">
        <ele>62</ele>
        <time>2011-11-22T15:28:17Z</time>
      </trkpt>
      <trkpt lat="46.30444" lon="-0.45026">
        <ele>61</ele>
        <time>2011-11-22T15:28:22Z</time>
      </trkpt>
      <trkpt lat="46.30438" lon="-0.45023">
        <ele>61</ele>
        <time>2011-11-22T15:28:27Z</time>
      </trkpt>
      <trkpt lat="46.30433" lon="-0.45022">
        <ele>61</ele>
        <time>2011-11-22T15:28:32Z</time>
      </trkpt>
      <trkpt lat="46.30429" lon="-0.45021">
        <ele>60</ele>
        <time>2011-11-22T15:28:37Z</time>
      </trkpt>
      <trkpt lat="46.30425" lon="-0.4502">
        <ele>60</ele>
        <time>2011-11-22T15:28:42Z</time>
      </trkpt>
      <trkpt lat="46.3042" lon="-0.45021">
        <ele>60</ele>
        <time>2011-11-22T15:28:47Z</time>
      </trkpt>
      <trkpt lat="46.30415" lon="-0.4502">
        <ele>62</ele>
        <time>2011-11-22T15:28:52Z</time>
      </trkpt>
      <trkpt lat="46.30412" lon="-0.45022">
        <ele>61</ele>
        <time>2011-11-22T15:28:57Z</time>
      </trkpt>
      <trkpt lat="46.3041" lon="-0.45024">
        <ele>61</ele>
        <time>2011-11-22T15:29:02Z</time>
      </trkpt>
      <trkpt lat="46.30407" lon="-0.45028">
        <ele>61</ele>
        <time>2011-11-22T15:29:07Z</time>
      </trkpt>
      <trkpt lat="46.30407" lon="-0.45034">
        <ele>60</ele>
        <time>2011-11-22T15:29:12Z</time>
      </trkpt>
      <trkpt lat="46.30405" lon="-0.45039">
        <ele>60</ele>
        <time>2011-11-22T15:29:17Z</time>
      </trkpt>
      <trkpt lat="46.30404" lon="-0.45046">
        <ele>60</ele>
        <time>2011-11-22T15:29:22Z</time>
      </trkpt>
      <trkpt lat="46.30403" lon="-0.45053">
        <ele>59</ele>
        <time>2011-11-22T15:29:27Z</time>
      </trkpt>
      <trkpt lat="46.30403" lon="-0.45057">
        <ele>59</ele>
        <time>2011-11-22T15:29:32Z</time>
      </trkpt>
      <trkpt lat="46.30405" lon="-0.45064">
        <ele>59</ele>
        <time>2011-11-22T15:29:37Z</time>
      </trkpt>
      <trkpt lat="46.30409" lon="-0.4507">
        <ele>59</ele>
        <time>2011-11-22T15:29:42Z</time>
      </trkpt>
      <trkpt lat="46.30413" lon="-0.45076">
        <ele>60</ele>
        <time>2011-11-22T15:29:47Z</time>
      </trkpt>
      <trkpt lat="46.30415" lon="-0.45081">
        <ele>61</ele>
        <time>2011-11-22T15:29:52Z</time>
      </trkpt>
      <trkpt lat="46.30419" lon="-0.45087">
        <ele>62</ele>
        <time>2011-11-22T15:29:57Z</time>
      </trkpt>
      <trkpt lat="46.30421" lon="-0.45094">
        <ele>64</ele>
        <time>2011-11-22T15:30:02Z</time>
      </trkpt>
      <trkpt lat="46.30425" lon="-0.451">
        <ele>63</ele>
        <time>2011-11-22T15:30:07Z</time>
      </trkpt>
      <trkpt lat="46.30428" lon="-0.45104">
        <ele>61</ele>
        <time>2011-11-22T15:30:12Z</time>
      </trkpt>
      <trkpt lat="46.30433" lon="-0.4511">
        <ele>61</ele>
        <time>2011-11-22T15:30:17Z</time>
      </trkpt>
      <trkpt lat="46.30436" lon="-0.45115">
        <ele>61</ele>
        <time>2011-11-22T15:30:22Z</time>
      </trkpt>
      <trkpt lat="46.30438" lon="-0.45119">
        <ele>59</ele>
        <time>2011-11-22T15:30:27Z</time>
      </trkpt>
      <trkpt lat="46.30443" lon="-0.45122">
        <ele>58</ele>
        <time>2011-11-22T15:30:32Z</time>
      </trkpt>
      <trkpt lat="46.30447" lon="-0.4513">
        <ele>59</ele>
        <time>2011-11-22T15:30:37Z</time>
      </trkpt>
      <trkpt lat="46.3045" lon="-0.45136">
        <ele>59</ele>
        <time>2011-11-22T15:30:42Z</time>
      </trkpt>
      <trkpt lat="46.30454" lon="-0.45143">
        <ele>60</ele>
        <time>2011-11-22T15:30:47Z</time>
      </trkpt>
      <trkpt lat="46.30458" lon="-0.4515">
        <ele>60</ele>
        <time>2011-11-22T15:30:52Z</time>
      </trkpt>
      <trkpt lat="46.30462" lon="-0.4515">
        <ele>55</ele>
        <time>2011-11-22T15:30:57Z</time>
      </trkpt>
      <trkpt lat="46.30465" lon="-0.45156">
        <ele>55</ele>
        <time>2011-11-22T15:31:02Z</time>
      </trkpt>
      <trkpt lat="46.30469" lon="-0.45163">
        <ele>57</ele>
        <time>2011-11-22T15:31:07Z</time>
      </trkpt>
      <trkpt lat="46.30472" lon="-0.45169">
        <ele>57</ele>
        <time>2011-11-22T15:31:12Z</time>
      </trkpt>
      <trkpt lat="46.30473" lon="-0.45181">
        <ele>59</ele>
        <time>2011-11-22T15:31:17Z</time>
      </trkpt>
      <trkpt lat="46.30477" lon="-0.45188">
        <ele>60</ele>
        <time>2011-11-22T15:31:22Z</time>
      </trkpt>
      <trkpt lat="46.30479" lon="-0.45193">
        <ele>61</ele>
        <time>2011-11-22T15:31:27Z</time>
      </trkpt>
      <trkpt lat="46.30484" lon="-0.45198">
        <ele>61</ele>
        <time>2011-11-22T15:31:32Z</time>
      </trkpt>
      <trkpt lat="46.30485" lon="-0.45206">
        <ele>63</ele>
        <time>2011-11-22T15:31:37Z</time>
      </trkpt>
      <trkpt lat="46.30487" lon="-0.45212">
        <ele>64</ele>
        <time>2011-11-22T15:31:42Z</time>
      </trkpt>
      <trkpt lat="46.30489" lon="-0.4522">
        <ele>64</ele>
        <time>2011-11-22T15:31:47Z</time>
      </trkpt>
      <trkpt lat="46.30492" lon="-0.45225">
        <ele>63</ele>
        <time>2011-11-22T15:31:52Z</time>
      </trkpt>
      <trkpt lat="46.30496" lon="-0.45231">
        <ele>64</ele>
        <time>2011-11-22T15:31:57Z</time>
      </trkpt>
      <trkpt lat="46.30501" lon="-0.45234">
        <ele>62</ele>
        <time>2011-11-22T15:32:02Z</time>
      </trkpt>
      <trkpt lat="46.30504" lon="-0.45243">
        <ele>62</ele>
        <time>2011-11-22T15:32:07Z</time>
      </trkpt>
      <trkpt lat="46.30507" lon="-0.4525">
        <ele>62</ele>
        <time>2011-11-22T15:32:12Z</time>
      </trkpt>
      <trkpt lat="46.30513" lon="-0.45258">
        <ele>63</ele>
        <time>2011-11-22T15:32:17Z</time>
      </trkpt>
      <trkpt lat="46.30515" lon="-0.45266">
        <ele>64</ele>
        <time>2011-11-22T15:32:22Z</time>
      </trkpt>
      <trkpt lat="46.30518" lon="-0.45273">
        <ele>64</ele>
        <time>2011-11-22T15:32:27Z</time>
      </trkpt>
      <trkpt lat="46.30523" lon="-0.45278">
        <ele>64</ele>
        <time>2011-11-22T15:32:32Z</time>
      </trkpt>
      <trkpt lat="46.30528" lon="-0.45286">
        <ele>67</ele>
        <time>2011-11-22T15:32:37Z</time>
      </trkpt>
      <trkpt lat="46.30531" lon="-0.45291">
        <ele>66</ele>
        <time>2011-11-22T15:32:42Z</time>
      </trkpt>
      <trkpt lat="46.30535" lon="-0.45297">
        <ele>66</ele>
        <time>2011-11-22T15:32:47Z</time>
      </trkpt>
      <trkpt lat="46.30539" lon="-0.45301">
        <ele>66</ele>
        <time>2011-11-22T15:32:52Z</time>
      </trkpt>
      <trkpt lat="46.30543" lon="-0.45305">
        <ele>66</ele>
        <time>2011-11-22T15:32:57Z</time>
      </trkpt>
      <trkpt lat="46.30547" lon="-0.45312">
        <ele>66</ele>
        <time>2011-11-22T15:33:02Z</time>
      </trkpt>
      <trkpt lat="46.30551" lon="-0.45316">
        <ele>64</ele>
        <time>2011-11-22T15:33:07Z</time>
      </trkpt>
      <trkpt lat="46.30553" lon="-0.4532">
        <ele>64</ele>
        <time>2011-11-22T15:33:12Z</time>
      </trkpt>
      <trkpt lat="46.30555" lon="-0.45327">
        <ele>63</ele>
        <time>2011-11-22T15:33:17Z</time>
      </trkpt>
      <trkpt lat="46.30556" lon="-0.45335">
        <ele>64</ele>
        <time>2011-11-22T15:33:22Z</time>
      </trkpt>
      <trkpt lat="46.30558" lon="-0.45341">
        <ele>64</ele>
        <time>2011-11-22T15:33:27Z</time>
      </trkpt>
      <trkpt lat="46.3056" lon="-0.45348">
        <ele>63</ele>
        <time>2011-11-22T15:33:32Z</time>
      </trkpt>
      <trkpt lat="46.30563" lon="-0.45353">
        <ele>63</ele>
        <time>2011-11-22T15:33:37Z</time>
      </trkpt>
      <trkpt lat="46.30566" lon="-0.45363">
        <ele>65</ele>
        <time>2011-11-22T15:33:42Z</time>
      </trkpt>
      <trkpt lat="46.3057" lon="-0.45369">
        <ele>66</ele>
        <time>2011-11-22T15:33:47Z</time>
      </trkpt>
      <trkpt lat="46.30573" lon="-0.45375">
        <ele>66</ele>
        <time>2011-11-22T15:33:52Z</time>
      </trkpt>
      <trkpt lat="46.30573" lon="-0.45381">
        <ele>65</ele>
        <time>2011-11-22T15:33:57Z</time>
      </trkpt>
      <trkpt lat="46.30573" lon="-0.45386">
        <ele>65</ele>
        <time>2011-11-22T15:34:02Z</time>
      </trkpt>
      <trkpt lat="46.30573" lon="-0.45392">
        <ele>64</ele>
        <time>2011-11-22T15:34:07Z</time>
      </trkpt>
      <trkpt lat="46.30572" lon="-0.454">
        <ele>63</ele>
        <time>2011-11-22T15:34:12Z</time>
      </trkpt>
      <trkpt lat="46.30571" lon="-0.45406">
        <ele>63</ele>
        <time>2011-11-22T15:34:17Z</time>
      </trkpt>
      <trkpt lat="46.3057" lon="-0.45414">
        <ele>64</ele>
        <time>2011-11-22T15:34:22Z</time>
      </trkpt>
      <trkpt lat="46.30572" lon="-0.45421">
        <ele>63</ele>
        <time>2011-11-22T15:34:27Z</time>
      </trkpt>
      <trkpt lat="46.30573" lon="-0.45426">
        <ele>61</ele>
        <time>2011-11-22T15:34:32Z</time>
      </trkpt>
      <trkpt lat="46.30575" lon="-0.45433">
        <ele>61</ele>
        <time>2011-11-22T15:34:37Z</time>
      </trkpt>
      <trkpt lat="46.30577" lon="-0.4544">
        <ele>61</ele>
        <time>2011-11-22T15:34:42Z</time>
      </trkpt>
      <trkpt lat="46.30579" lon="-0.45446">
        <ele>61</ele>
        <time>2011-11-22T15:34:47Z</time>
      </trkpt>
      <trkpt lat="46.30581" lon="-0.45453">
        <ele>62</ele>
        <time>2011-11-22T15:34:52Z</time>
      </trkpt>
      <trkpt lat="46.30583" lon="-0.45461">
        <ele>62</ele>
        <time>2011-11-22T15:34:57Z</time>
      </trkpt>
      <trkpt lat="46.30584" lon="-0.45471">
        <ele>63</ele>
        <time>2011-11-22T15:35:02Z</time>
      </trkpt>
      <trkpt lat="46.30588" lon="-0.45478">
        <ele>64</ele>
        <time>2011-11-22T15:35:07Z</time>
      </trkpt>
      <trkpt lat="46.30592" lon="-0.45487">
        <ele>66</ele>
        <time>2011-11-22T15:35:12Z</time>
      </trkpt>
      <trkpt lat="46.30595" lon="-0.45492">
        <ele>65</ele>
        <time>2011-11-22T15:35:17Z</time>
      </trkpt>
      <trkpt lat="46.30598" lon="-0.45497">
        <ele>65</ele>
        <time>2011-11-22T15:35:22Z</time>
      </trkpt>
      <trkpt lat="46.30602" lon="-0.45505">
        <ele>65</ele>
        <time>2011-11-22T15:35:27Z</time>
      </trkpt>
      <trkpt lat="46.30603" lon="-0.45511">
        <ele>64</ele>
        <time>2011-11-22T15:35:32Z</time>
      </trkpt>
      <trkpt lat="46.30604" lon="-0.4552">
        <ele>65</ele>
        <time>2011-11-22T15:35:37Z</time>
      </trkpt>
      <trkpt lat="46.30603" lon="-0.45527">
        <ele>64</ele>
        <time>2011-11-22T15:35:42Z</time>
      </trkpt>
      <trkpt lat="46.30601" lon="-0.45533">
        <ele>63</ele>
        <time>2011-11-22T15:35:47Z</time>
      </trkpt>
      <trkpt lat="46.306" lon="-0.4554">
        <ele>64</ele>
        <time>2011-11-22T15:35:52Z</time>
      </trkpt>
      <trkpt lat="46.30598" lon="-0.45544">
        <ele>63</ele>
        <time>2011-11-22T15:35:57Z</time>
      </trkpt>
      <trkpt lat="46.30595" lon="-0.45554">
        <ele>62</ele>
        <time>2011-11-22T15:36:02Z</time>
      </trkpt>
      <trkpt lat="46.30593" lon="-0.45559">
        <ele>61</ele>
        <time>2011-11-22T15:36:07Z</time>
      </trkpt>
      <trkpt lat="46.30592" lon="-0.45567">
        <ele>60</ele>
        <time>2011-11-22T15:36:12Z</time>
      </trkpt>
      <trkpt lat="46.3059" lon="-0.45573">
        <ele>60</ele>
        <time>2011-11-22T15:36:17Z</time>
      </trkpt>
      <trkpt lat="46.30586" lon="-0.45581">
        <ele>59</ele>
        <time>2011-11-22T15:36:22Z</time>
      </trkpt>
      <trkpt lat="46.30584" lon="-0.45588">
        <ele>58</ele>
        <time>2011-11-22T15:36:27Z</time>
      </trkpt>
      <trkpt lat="46.30582" lon="-0.45597">
        <ele>58</ele>
        <time>2011-11-22T15:36:32Z</time>
      </trkpt>
      <trkpt lat="46.3058" lon="-0.45601">
        <ele>58</ele>
        <time>2011-11-22T15:36:37Z</time>
      </trkpt>
      <trkpt lat="46.3058" lon="-0.456">
        <ele>59</ele>
        <time>2011-11-22T15:36:42Z</time>
      </trkpt>
      <trkpt lat="46.30579" lon="-0.45601">
        <ele>59</ele>
        <time>2011-11-22T15:36:47Z</time>
      </trkpt>
      <trkpt lat="46.30573" lon="-0.45605">
        <ele>58</ele>
        <time>2011-11-22T15:36:52Z</time>
      </trkpt>
      <trkpt lat="46.30568" lon="-0.456">
        <ele>60</ele>
        <time>2011-11-22T15:36:57Z</time>
      </trkpt>
      <trkpt lat="46.30565" lon="-0.45595">
        <ele>60</ele>
        <time>2011-11-22T15:37:02Z</time>
      </trkpt>
      <trkpt lat="46.30563" lon="-0.45591">
        <ele>60</ele>
        <time>2011-11-22T15:37:07Z</time>
      </trkpt>
      <trkpt lat="46.3056" lon="-0.45586">
        <ele>60</ele>
        <time>2011-11-22T15:37:12Z</time>
      </trkpt>
      <trkpt lat="46.30559" lon="-0.45583">
        <ele>60</ele>
        <time>2011-11-22T15:37:17Z</time>
      </trkpt>
      <trkpt lat="46.30552" lon="-0.45572">
        <ele>59</ele>
        <time>2011-11-22T15:37:22Z</time>
      </trkpt>
      <trkpt lat="46.3055" lon="-0.45569">
        <ele>58</ele>
        <time>2011-11-22T15:37:27Z</time>
      </trkpt>
      <trkpt lat="46.30544" lon="-0.4556">
        <ele>58</ele>
        <time>2011-11-22T15:37:32Z</time>
      </trkpt>
      <trkpt lat="46.30542" lon="-0.45557">
        <ele>59</ele>
        <time>2011-11-22T15:37:37Z</time>
      </trkpt>
      <trkpt lat="46.30541" lon="-0.45553">
        <ele>60</ele>
        <time>2011-11-22T15:37:42Z</time>
      </trkpt>
      <trkpt lat="46.30538" lon="-0.45547">
        <ele>60</ele>
        <time>2011-11-22T15:37:47Z</time>
      </trkpt>
      <trkpt lat="46.30536" lon="-0.4554">
        <ele>60</ele>
        <time>2011-11-22T15:37:52Z</time>
      </trkpt>
      <trkpt lat="46.30534" lon="-0.45535">
        <ele>61</ele>
        <time>2011-11-22T15:37:57Z</time>
      </trkpt>
      <trkpt lat="46.30535" lon="-0.45534">
        <ele>61</ele>
        <time>2011-11-22T15:38:02Z</time>
      </trkpt>
      <trkpt lat="46.30528" lon="-0.45526">
        <ele>63</ele>
        <time>2011-11-22T15:38:07Z</time>
      </trkpt>
      <trkpt lat="46.30524" lon="-0.45518">
        <ele>63</ele>
        <time>2011-11-22T15:38:12Z</time>
      </trkpt>
      <trkpt lat="46.30522" lon="-0.45514">
        <ele>62</ele>
        <time>2011-11-22T15:38:17Z</time>
      </trkpt>
      <trkpt lat="46.30519" lon="-0.45509">
        <ele>62</ele>
        <time>2011-11-22T15:38:22Z</time>
      </trkpt>
      <trkpt lat="46.30513" lon="-0.455">
        <ele>60</ele>
        <time>2011-11-22T15:38:27Z</time>
      </trkpt>
      <trkpt lat="46.30511" lon="-0.45495">
        <ele>62</ele>
        <time>2011-11-22T15:38:32Z</time>
      </trkpt>
      <trkpt lat="46.3051" lon="-0.45493">
        <ele>62</ele>
        <time>2011-11-22T15:38:37Z</time>
      </trkpt>
      <trkpt lat="46.30506" lon="-0.45488">
        <ele>62</ele>
        <time>2011-11-22T15:38:42Z</time>
      </trkpt>
      <trkpt lat="46.305" lon="-0.45478">
        <ele>63</ele>
        <time>2011-11-22T15:38:47Z</time>
      </trkpt>
      <trkpt lat="46.30497" lon="-0.45473">
        <ele>62</ele>
        <time>2011-11-22T15:38:52Z</time>
      </trkpt>
      <trkpt lat="46.30493" lon="-0.45464">
        <ele>63</ele>
        <time>2011-11-22T15:38:57Z</time>
      </trkpt>
      <trkpt lat="46.30488" lon="-0.45459">
        <ele>64</ele>
        <time>2011-11-22T15:39:02Z</time>
      </trkpt>
      <trkpt lat="46.30486" lon="-0.45455">
        <ele>64</ele>
        <time>2011-11-22T15:39:07Z</time>
      </trkpt>
      <trkpt lat="46.30485" lon="-0.45454">
        <ele>64</ele>
        <time>2011-11-22T15:39:12Z</time>
      </trkpt>
      <trkpt lat="46.30477" lon="-0.45443">
        <ele>62</ele>
        <time>2011-11-22T15:39:17Z</time>
      </trkpt>
      <trkpt lat="46.30472" lon="-0.45436">
        <ele>61</ele>
        <time>2011-11-22T15:39:22Z</time>
      </trkpt>
      <trkpt lat="46.30468" lon="-0.4543">
        <ele>62</ele>
        <time>2011-11-22T15:39:27Z</time>
      </trkpt>
      <trkpt lat="46.30465" lon="-0.45425">
        <ele>62</ele>
        <time>2011-11-22T15:39:32Z</time>
      </trkpt>
      <trkpt lat="46.30461" lon="-0.45418">
        <ele>63</ele>
        <time>2011-11-22T15:39:37Z</time>
      </trkpt>
      <trkpt lat="46.30454" lon="-0.45409">
        <ele>63</ele>
        <time>2011-11-22T15:39:42Z</time>
      </trkpt>
      <trkpt lat="46.30449" lon="-0.454">
        <ele>64</ele>
        <time>2011-11-22T15:39:47Z</time>
      </trkpt>
      <trkpt lat="46.30447" lon="-0.45395">
        <ele>64</ele>
        <time>2011-11-22T15:39:52Z</time>
      </trkpt>
      <trkpt lat="46.30444" lon="-0.45389">
        <ele>64</ele>
        <time>2011-11-22T15:39:57Z</time>
      </trkpt>
      <trkpt lat="46.30443" lon="-0.45385">
        <ele>64</ele>
        <time>2011-11-22T15:40:02Z</time>
      </trkpt>
      <trkpt lat="46.30439" lon="-0.4538">
        <ele>64</ele>
        <time>2011-11-22T15:40:07Z</time>
      </trkpt>
      <trkpt lat="46.30435" lon="-0.45377">
        <ele>64</ele>
        <time>2011-11-22T15:40:12Z</time>
      </trkpt>
      <trkpt lat="46.30431" lon="-0.45368">
        <ele>64</ele>
        <time>2011-11-22T15:40:17Z</time>
      </trkpt>
      <trkpt lat="46.30424" lon="-0.45362">
        <ele>63</ele>
        <time>2011-11-22T15:40:22Z</time>
      </trkpt>
      <trkpt lat="46.30419" lon="-0.45355">
        <ele>61</ele>
        <time>2011-11-22T15:40:27Z</time>
      </trkpt>
      <trkpt lat="46.30415" lon="-0.45349">
        <ele>60</ele>
        <time>2011-11-22T15:40:32Z</time>
      </trkpt>
      <trkpt lat="46.3041" lon="-0.45344">
        <ele>59</ele>
        <time>2011-11-22T15:40:37Z</time>
      </trkpt>
      <trkpt lat="46.30407" lon="-0.45337">
        <ele>59</ele>
        <time>2011-11-22T15:40:42Z</time>
      </trkpt>
      <trkpt lat="46.30403" lon="-0.45331">
        <ele>60</ele>
        <time>2011-11-22T15:40:47Z</time>
      </trkpt>
      <trkpt lat="46.30399" lon="-0.45325">
        <ele>62</ele>
        <time>2011-11-22T15:40:52Z</time>
      </trkpt>
      <trkpt lat="46.30396" lon="-0.45318">
        <ele>61</ele>
        <time>2011-11-22T15:40:57Z</time>
      </trkpt>
      <trkpt lat="46.30393" lon="-0.45312">
        <ele>62</ele>
        <time>2011-11-22T15:41:02Z</time>
      </trkpt>
      <trkpt lat="46.30389" lon="-0.45307">
        <ele>62</ele>
        <time>2011-11-22T15:41:07Z</time>
      </trkpt>
      <trkpt lat="46.30388" lon="-0.45304">
        <ele>62</ele>
        <time>2011-11-22T15:41:12Z</time>
      </trkpt>
      <trkpt lat="46.30386" lon="-0.45304">
        <ele>63</ele>
        <time>2011-11-22T15:41:17Z</time>
      </trkpt>
      <trkpt lat="46.30384" lon="-0.45311">
        <ele>62</ele>
        <time>2011-11-22T15:41:22Z</time>
      </trkpt>
      <trkpt lat="46.30382" lon="-0.4532">
        <ele>62</ele>
        <time>2011-11-22T15:41:27Z</time>
      </trkpt>
      <trkpt lat="46.30379" lon="-0.45327">
        <ele>62</ele>
        <time>2011-11-22T15:41:32Z</time>
      </trkpt>
      <trkpt lat="46.30375" lon="-0.45335">
        <ele>62</ele>
        <time>2011-11-22T15:41:37Z</time>
      </trkpt>
      <trkpt lat="46.30369" lon="-0.45342">
        <ele>62</ele>
        <time>2011-11-22T15:41:42Z</time>
      </trkpt>
      <trkpt lat="46.30367" lon="-0.45346">
        <ele>62</ele>
        <time>2011-11-22T15:41:47Z</time>
      </trkpt>
      <trkpt lat="46.30359" lon="-0.45355">
        <ele>63</ele>
        <time>2011-11-22T15:41:52Z</time>
      </trkpt>
      <trkpt lat="46.30356" lon="-0.45359">
        <ele>62</ele>
        <time>2011-11-22T15:41:57Z</time>
      </trkpt>
      <trkpt lat="46.30354" lon="-0.45365">
        <ele>64</ele>
        <time>2011-11-22T15:42:02Z</time>
      </trkpt>
      <trkpt lat="46.30348" lon="-0.45371">
        <ele>66</ele>
        <time>2011-11-22T15:42:07Z</time>
      </trkpt>
      <trkpt lat="46.30347" lon="-0.45375">
        <ele>66</ele>
        <time>2011-11-22T15:42:12Z</time>
      </trkpt>
      <trkpt lat="46.30343" lon="-0.45381">
        <ele>64</ele>
        <time>2011-11-22T15:42:17Z</time>
      </trkpt>
      <trkpt lat="46.30338" lon="-0.45387">
        <ele>64</ele>
        <time>2011-11-22T15:42:22Z</time>
      </trkpt>
      <trkpt lat="46.30333" lon="-0.45389">
        <ele>65</ele>
        <time>2011-11-22T15:42:27Z</time>
      </trkpt>
      <trkpt lat="46.30331" lon="-0.45391">
        <ele>65</ele>
        <time>2011-11-22T15:42:32Z</time>
      </trkpt>
      <trkpt lat="46.30327" lon="-0.45394">
        <ele>64</ele>
        <time>2011-11-22T15:42:37Z</time>
      </trkpt>
      <trkpt lat="46.30323" lon="-0.45398">
        <ele>65</ele>
        <time>2011-11-22T15:42:42Z</time>
      </trkpt>
      <trkpt lat="46.30314" lon="-0.45406">
        <ele>64</ele>
        <time>2011-11-22T15:42:47Z</time>
      </trkpt>
      <trkpt lat="46.3031" lon="-0.45409">
        <ele>64</ele>
        <time>2011-11-22T15:42:52Z</time>
      </trkpt>
      <trkpt lat="46.30305" lon="-0.45413">
        <ele>64</ele>
        <time>2011-11-22T15:42:57Z</time>
      </trkpt>
      <trkpt lat="46.30301" lon="-0.45412">
        <ele>64</ele>
        <time>2011-11-22T15:43:02Z</time>
      </trkpt>
      <trkpt lat="46.30297" lon="-0.45414">
        <ele>63</ele>
        <time>2011-11-22T15:43:07Z</time>
      </trkpt>
      <trkpt lat="46.3029" lon="-0.45421">
        <ele>63</ele>
        <time>2011-11-22T15:43:12Z</time>
      </trkpt>
      <trkpt lat="46.30288" lon="-0.45423">
        <ele>62</ele>
        <time>2011-11-22T15:43:17Z</time>
      </trkpt>
      <trkpt lat="46.30285" lon="-0.45424">
        <ele>60</ele>
        <time>2011-11-22T15:43:22Z</time>
      </trkpt>
      <trkpt lat="46.3028" lon="-0.45426">
        <ele>59</ele>
        <time>2011-11-22T15:43:27Z</time>
      </trkpt>
      <trkpt lat="46.30274" lon="-0.45428">
        <ele>60</ele>
        <time>2011-11-22T15:43:32Z</time>
      </trkpt>
      <trkpt lat="46.30268" lon="-0.45433">
        <ele>60</ele>
        <time>2011-11-22T15:43:37Z</time>
      </trkpt>
      <trkpt lat="46.30263" lon="-0.45437">
        <ele>60</ele>
        <time>2011-11-22T15:43:42Z</time>
      </trkpt>
      <trkpt lat="46.30256" lon="-0.45439">
        <ele>60</ele>
        <time>2011-11-22T15:43:47Z</time>
      </trkpt>
      <trkpt lat="46.30251" lon="-0.45443">
        <ele>60</ele>
        <time>2011-11-22T15:43:52Z</time>
      </trkpt>
      <trkpt lat="46.30246" lon="-0.45445">
        <ele>60</ele>
        <time>2011-11-22T15:43:57Z</time>
      </trkpt>
      <trkpt lat="46.30241" lon="-0.45447">
        <ele>61</ele>
        <time>2011-11-22T15:44:02Z</time>
      </trkpt>
      <trkpt lat="46.30232" lon="-0.45451">
        <ele>61</ele>
        <time>2011-11-22T15:44:07Z</time>
      </trkpt>
      <trkpt lat="46.30228" lon="-0.45452">
        <ele>61</ele>
        <time>2011-11-22T15:44:12Z</time>
      </trkpt>
      <trkpt lat="46.30224" lon="-0.45453">
        <ele>61</ele>
        <time>2011-11-22T15:44:17Z</time>
      </trkpt>
      <trkpt lat="46.3022" lon="-0.45455">
        <ele>61</ele>
        <time>2011-11-22T15:44:22Z</time>
      </trkpt>
      <trkpt lat="46.30216" lon="-0.45456">
        <ele>61</ele>
        <time>2011-11-22T15:44:27Z</time>
      </trkpt>
      <trkpt lat="46.30211" lon="-0.45455">
        <ele>62</ele>
        <time>2011-11-22T15:44:32Z</time>
      </trkpt>
      <trkpt lat="46.30207" lon="-0.45456">
        <ele>63</ele>
        <time>2011-11-22T15:44:37Z</time>
      </trkpt>
      <trkpt lat="46.30204" lon="-0.45457">
        <ele>62</ele>
        <time>2011-11-22T15:44:42Z</time>
      </trkpt>
      <trkpt lat="46.30199" lon="-0.45462">
        <ele>61</ele>
        <time>2011-11-22T15:44:47Z</time>
      </trkpt>
      <trkpt lat="46.30193" lon="-0.45464">
        <ele>62</ele>
        <time>2011-11-22T15:44:52Z</time>
      </trkpt>
      <trkpt lat="46.3019" lon="-0.45462">
        <ele>62</ele>
        <time>2011-11-22T15:44:57Z</time>
      </trkpt>
      <trkpt lat="46.30185" lon="-0.45458">
        <ele>60</ele>
        <time>2011-11-22T15:45:02Z</time>
      </trkpt>
      <trkpt lat="46.30179" lon="-0.45456">
        <ele>61</ele>
        <time>2011-11-22T15:45:07Z</time>
      </trkpt>
      <trkpt lat="46.30172" lon="-0.45455">
        <ele>60</ele>
        <time>2011-11-22T15:45:12Z</time>
      </trkpt>
      <trkpt lat="46.30168" lon="-0.45453">
        <ele>59</ele>
        <time>2011-11-22T15:45:17Z</time>
      </trkpt>
      <trkpt lat="46.30164" lon="-0.45455">
        <ele>60</ele>
        <time>2011-11-22T15:45:22Z</time>
      </trkpt>
      <trkpt lat="46.3016" lon="-0.45458">
        <ele>60</ele>
        <time>2011-11-22T15:45:27Z</time>
      </trkpt>
      <trkpt lat="46.30156" lon="-0.45459">
        <ele>60</ele>
        <time>2011-11-22T15:45:32Z</time>
      </trkpt>
      <trkpt lat="46.3015" lon="-0.45464">
        <ele>59</ele>
        <time>2011-11-22T15:45:37Z</time>
      </trkpt>
      <trkpt lat="46.30148" lon="-0.45464">
        <ele>60</ele>
        <time>2011-11-22T15:45:42Z</time>
      </trkpt>
      <trkpt lat="46.30141" lon="-0.45466">
        <ele>62</ele>
        <time>2011-11-22T15:45:47Z</time>
      </trkpt>
      <trkpt lat="46.3014" lon="-0.45466">
        <ele>62</ele>
        <time>2011-11-22T15:45:52Z</time>
      </trkpt>
      <trkpt lat="46.30133" lon="-0.4547">
        <ele>61</ele>
        <time>2011-11-22T15:45:57Z</time>
      </trkpt>
      <trkpt lat="46.30129" lon="-0.45475">
        <ele>62</ele>
        <time>2011-11-22T15:46:02Z</time>
      </trkpt>
      <trkpt lat="46.30123" lon="-0.45477">
        <ele>61</ele>
        <time>2011-11-22T15:46:07Z</time>
      </trkpt>
      <trkpt lat="46.30117" lon="-0.45482">
        <ele>60</ele>
        <time>2011-11-22T15:46:12Z</time>
      </trkpt>
      <trkpt lat="46.30112" lon="-0.45484">
        <ele>60</ele>
        <time>2011-11-22T15:46:17Z</time>
      </trkpt>
      <trkpt lat="46.30108" lon="-0.45487">
        <ele>62</ele>
        <time>2011-11-22T15:46:22Z</time>
      </trkpt>
      <trkpt lat="46.30104" lon="-0.45489">
        <ele>60</ele>
        <time>2011-11-22T15:46:27Z</time>
      </trkpt>
      <trkpt lat="46.30099" lon="-0.4549">
        <ele>62</ele>
        <time>2011-11-22T15:46:32Z</time>
      </trkpt>
      <trkpt lat="46.30095" lon="-0.45494">
        <ele>63</ele>
        <time>2011-11-22T15:46:37Z</time>
      </trkpt>
      <trkpt lat="46.3009" lon="-0.45497">
        <ele>64</ele>
        <time>2011-11-22T15:46:42Z</time>
      </trkpt>
      <trkpt lat="46.30087" lon="-0.45497">
        <ele>64</ele>
        <time>2011-11-22T15:46:47Z</time>
      </trkpt>
      <trkpt lat="46.30081" lon="-0.45503">
        <ele>62</ele>
        <time>2011-11-22T15:46:52Z</time>
      </trkpt>
      <trkpt lat="46.30077" lon="-0.45506">
        <ele>62</ele>
        <time>2011-11-22T15:46:57Z</time>
      </trkpt>
      <trkpt lat="46.30072" lon="-0.45509">
        <ele>63</ele>
        <time>2011-11-22T15:47:02Z</time>
      </trkpt>
      <trkpt lat="46.30069" lon="-0.45511">
        <ele>61</ele>
        <time>2011-11-22T15:47:07Z</time>
      </trkpt>
      <trkpt lat="46.30064" lon="-0.45513">
        <ele>61</ele>
        <time>2011-11-22T15:47:12Z</time>
      </trkpt>
      <trkpt lat="46.30059" lon="-0.45518">
        <ele>62</ele>
        <time>2011-11-22T15:47:17Z</time>
      </trkpt>
      <trkpt lat="46.30054" lon="-0.4552">
        <ele>63</ele>
        <time>2011-11-22T15:47:22Z</time>
      </trkpt>
      <trkpt lat="46.30048" lon="-0.45523">
        <ele>64</ele>
        <time>2011-11-22T15:47:27Z</time>
      </trkpt>
      <trkpt lat="46.30045" lon="-0.45526">
        <ele>63</ele>
        <time>2011-11-22T15:47:32Z</time>
      </trkpt>
      <trkpt lat="46.30038" lon="-0.45529">
        <ele>65</ele>
        <time>2011-11-22T15:47:37Z</time>
      </trkpt>
      <trkpt lat="46.30033" lon="-0.45531">
        <ele>66</ele>
        <time>2011-11-22T15:47:42Z</time>
      </trkpt>
      <trkpt lat="46.30029" lon="-0.45534">
        <ele>66</ele>
        <time>2011-11-22T15:47:47Z</time>
      </trkpt>
      <trkpt lat="46.30023" lon="-0.45537">
        <ele>66</ele>
        <time>2011-11-22T15:47:52Z</time>
      </trkpt>
      <trkpt lat="46.30017" lon="-0.45541">
        <ele>66</ele>
        <time>2011-11-22T15:47:57Z</time>
      </trkpt>
      <trkpt lat="46.30013" lon="-0.45544">
        <ele>66</ele>
        <time>2011-11-22T15:48:02Z</time>
      </trkpt>
      <trkpt lat="46.30008" lon="-0.45546">
        <ele>67</ele>
        <time>2011-11-22T15:48:07Z</time>
      </trkpt>
      <trkpt lat="46.30003" lon="-0.45549">
        <ele>67</ele>
        <time>2011-11-22T15:48:12Z</time>
      </trkpt>
      <trkpt lat="46.29998" lon="-0.45554">
        <ele>66</ele>
        <time>2011-11-22T15:48:17Z</time>
      </trkpt>
      <trkpt lat="46.29995" lon="-0.45555">
        <ele>66</ele>
        <time>2011-11-22T15:48:22Z</time>
      </trkpt>
      <trkpt lat="46.29989" lon="-0.45558">
        <ele>66</ele>
        <time>2011-11-22T15:48:27Z</time>
      </trkpt>
      <trkpt lat="46.29985" lon="-0.45559">
        <ele>66</ele>
        <time>2011-11-22T15:48:32Z</time>
      </trkpt>
      <trkpt lat="46.29981" lon="-0.45563">
        <ele>67</ele>
        <time>2011-11-22T15:48:37Z</time>
      </trkpt>
      <trkpt lat="46.29976" lon="-0.45567">
        <ele>67</ele>
        <time>2011-11-22T15:48:42Z</time>
      </trkpt>
      <trkpt lat="46.29971" lon="-0.45569">
        <ele>67</ele>
        <time>2011-11-22T15:48:47Z</time>
      </trkpt>
      <trkpt lat="46.29966" lon="-0.45571">
        <ele>67</ele>
        <time>2011-11-22T15:48:52Z</time>
      </trkpt>
      <trkpt lat="46.29962" lon="-0.45573">
        <ele>66</ele>
        <time>2011-11-22T15:48:57Z</time>
      </trkpt>
      <trkpt lat="46.29958" lon="-0.45576">
        <ele>66</ele>
        <time>2011-11-22T15:49:02Z</time>
      </trkpt>
      <trkpt lat="46.29952" lon="-0.4558">
        <ele>66</ele>
        <time>2011-11-22T15:49:07Z</time>
      </trkpt>
      <trkpt lat="46.29948" lon="-0.45584">
        <ele>66</ele>
        <time>2011-11-22T15:49:12Z</time>
      </trkpt>
      <trkpt lat="46.29942" lon="-0.45586">
        <ele>66</ele>
        <time>2011-11-22T15:49:17Z</time>
      </trkpt>
      <trkpt lat="46.29937" lon="-0.4559">
        <ele>67</ele>
        <time>2011-11-22T15:49:22Z</time>
      </trkpt>
      <trkpt lat="46.29935" lon="-0.45592">
        <ele>66</ele>
        <time>2011-11-22T15:49:27Z</time>
      </trkpt>
      <trkpt lat="46.29929" lon="-0.45593">
        <ele>66</ele>
        <time>2011-11-22T15:49:32Z</time>
      </trkpt>
      <trkpt lat="46.29924" lon="-0.45593">
        <ele>66</ele>
        <time>2011-11-22T15:49:37Z</time>
      </trkpt>
      <trkpt lat="46.29918" lon="-0.45596">
        <ele>67</ele>
        <time>2011-11-22T15:49:42Z</time>
      </trkpt>
      <trkpt lat="46.29912" lon="-0.45602">
        <ele>65</ele>
        <time>2011-11-22T15:49:47Z</time>
      </trkpt>
      <trkpt lat="46.29908" lon="-0.45608">
        <ele>64</ele>
        <time>2011-11-22T15:49:52Z</time>
      </trkpt>
      <trkpt lat="46.29903" lon="-0.4561">
        <ele>63</ele>
        <time>2011-11-22T15:49:57Z</time>
      </trkpt>
      <trkpt lat="46.29899" lon="-0.45613">
        <ele>63</ele>
        <time>2011-11-22T15:50:02Z</time>
      </trkpt>
      <trkpt lat="46.29894" lon="-0.45616">
        <ele>63</ele>
        <time>2011-11-22T15:50:07Z</time>
      </trkpt>
      <trkpt lat="46.2989" lon="-0.4562">
        <ele>62</ele>
        <time>2011-11-22T15:50:12Z</time>
      </trkpt>
      <trkpt lat="46.29888" lon="-0.45622">
        <ele>63</ele>
        <time>2011-11-22T15:50:17Z</time>
      </trkpt>
      <trkpt lat="46.29882" lon="-0.45625">
        <ele>62</ele>
        <time>2011-11-22T15:50:22Z</time>
      </trkpt>
      <trkpt lat="46.29879" lon="-0.45626">
        <ele>62</ele>
        <time>2011-11-22T15:50:27Z</time>
      </trkpt>
      <trkpt lat="46.29873" lon="-0.45629">
        <ele>62</ele>
        <time>2011-11-22T15:50:32Z</time>
      </trkpt>
      <trkpt lat="46.29868" lon="-0.4563">
        <ele>64</ele>
        <time>2011-11-22T15:50:37Z</time>
      </trkpt>
      <trkpt lat="46.29862" lon="-0.45633">
        <ele>64</ele>
        <time>2011-11-22T15:50:42Z</time>
      </trkpt>
      <trkpt lat="46.29858" lon="-0.45637">
        <ele>65</ele>
        <time>2011-11-22T15:50:47Z</time>
      </trkpt>
      <trkpt lat="46.29856" lon="-0.4564">
        <ele>66</ele>
        <time>2011-11-22T15:50:52Z</time>
      </trkpt>
      <trkpt lat="46.29852" lon="-0.45641">
        <ele>67</ele>
        <time>2011-11-22T15:50:57Z</time>
      </trkpt>
      <trkpt lat="46.29847" lon="-0.45642">
        <ele>68</ele>
        <time>2011-11-22T15:51:02Z</time>
      </trkpt>
      <trkpt lat="46.29843" lon="-0.4564">
        <ele>69</ele>
        <time>2011-11-22T15:51:07Z</time>
      </trkpt>
      <trkpt lat="46.29838" lon="-0.45649">
        <ele>68</ele>
        <time>2011-11-22T15:51:12Z</time>
      </trkpt>
      <trkpt lat="46.29833" lon="-0.45652">
        <ele>68</ele>
        <time>2011-11-22T15:51:17Z</time>
      </trkpt>
      <trkpt lat="46.29827" lon="-0.45655">
        <ele>67</ele>
        <time>2011-11-22T15:51:22Z</time>
      </trkpt>
      <trkpt lat="46.29822" lon="-0.45659">
        <ele>67</ele>
        <time>2011-11-22T15:51:27Z</time>
      </trkpt>
      <trkpt lat="46.29818" lon="-0.45664">
        <ele>65</ele>
        <time>2011-11-22T15:51:32Z</time>
      </trkpt>
      <trkpt lat="46.29815" lon="-0.45668">
        <ele>66</ele>
        <time>2011-11-22T15:51:37Z</time>
      </trkpt>
      <trkpt lat="46.29809" lon="-0.45668">
        <ele>66</ele>
        <time>2011-11-22T15:51:42Z</time>
      </trkpt>
      <trkpt lat="46.29801" lon="-0.4567">
        <ele>65</ele>
        <time>2011-11-22T15:51:47Z</time>
      </trkpt>
      <trkpt lat="46.29797" lon="-0.45672">
        <ele>64</ele>
        <time>2011-11-22T15:51:52Z</time>
      </trkpt>
      <trkpt lat="46.29795" lon="-0.45675">
        <ele>62</ele>
        <time>2011-11-22T15:51:57Z</time>
      </trkpt>
      <trkpt lat="46.2979" lon="-0.45679">
        <ele>64</ele>
        <time>2011-11-22T15:52:02Z</time>
      </trkpt>
      <trkpt lat="46.29786" lon="-0.45683">
        <ele>61</ele>
        <time>2011-11-22T15:52:07Z</time>
      </trkpt>
      <trkpt lat="46.29785" lon="-0.45687">
        <ele>60</ele>
        <time>2011-11-22T15:52:12Z</time>
      </trkpt>
      <trkpt lat="46.2978" lon="-0.45687">
        <ele>61</ele>
        <time>2011-11-22T15:52:17Z</time>
      </trkpt>
      <trkpt lat="46.29775" lon="-0.4569">
        <ele>63</ele>
        <time>2011-11-22T15:52:22Z</time>
      </trkpt>
      <trkpt lat="46.29768" lon="-0.45695">
        <ele>60</ele>
        <time>2011-11-22T15:52:27Z</time>
      </trkpt>
      <trkpt lat="46.29766" lon="-0.45698">
        <ele>60</ele>
        <time>2011-11-22T15:52:32Z</time>
      </trkpt>
      <trkpt lat="46.2976" lon="-0.45699">
        <ele>59</ele>
        <time>2011-11-22T15:52:37Z</time>
      </trkpt>
      <trkpt lat="46.29755" lon="-0.45698">
        <ele>59</ele>
        <time>2011-11-22T15:52:42Z</time>
      </trkpt>
      <trkpt lat="46.2975" lon="-0.45701">
        <ele>58</ele>
        <time>2011-11-22T15:52:47Z</time>
      </trkpt>
      <trkpt lat="46.29747" lon="-0.45706">
        <ele>60</ele>
        <time>2011-11-22T15:52:52Z</time>
      </trkpt>
      <trkpt lat="46.29742" lon="-0.45708">
        <ele>60</ele>
        <time>2011-11-22T15:52:57Z</time>
      </trkpt>
      <trkpt lat="46.29738" lon="-0.45706">
        <ele>60</ele>
        <time>2011-11-22T15:53:02Z</time>
      </trkpt>
      <trkpt lat="46.29735" lon="-0.45709">
        <ele>59</ele>
        <time>2011-11-22T15:53:07Z</time>
      </trkpt>
      <trkpt lat="46.29729" lon="-0.45711">
        <ele>61</ele>
        <time>2011-11-22T15:53:12Z</time>
      </trkpt>
      <trkpt lat="46.29723" lon="-0.45712">
        <ele>63</ele>
        <time>2011-11-22T15:53:17Z</time>
      </trkpt>
      <trkpt lat="46.29716" lon="-0.45715">
        <ele>64</ele>
        <time>2011-11-22T15:53:22Z</time>
      </trkpt>
      <trkpt lat="46.29713" lon="-0.45719">
        <ele>62</ele>
        <time>2011-11-22T15:53:27Z</time>
      </trkpt>
      <trkpt lat="46.29709" lon="-0.45721">
        <ele>63</ele>
        <time>2011-11-22T15:53:32Z</time>
      </trkpt>
      <trkpt lat="46.29705" lon="-0.45723">
        <ele>64</ele>
        <time>2011-11-22T15:53:37Z</time>
      </trkpt>
      <trkpt lat="46.297" lon="-0.45724">
        <ele>64</ele>
        <time>2011-11-22T15:53:42Z</time>
      </trkpt>
      <trkpt lat="46.29696" lon="-0.45725">
        <ele>64</ele>
        <time>2011-11-22T15:53:47Z</time>
      </trkpt>
      <trkpt lat="46.29691" lon="-0.45727">
        <ele>64</ele>
        <time>2011-11-22T15:53:52Z</time>
      </trkpt>
      <trkpt lat="46.29686" lon="-0.45728">
        <ele>64</ele>
        <time>2011-11-22T15:53:57Z</time>
      </trkpt>
      <trkpt lat="46.29681" lon="-0.4573">
        <ele>65</ele>
        <time>2011-11-22T15:54:02Z</time>
      </trkpt>
      <trkpt lat="46.29676" lon="-0.45731">
        <ele>65</ele>
        <time>2011-11-22T15:54:07Z</time>
      </trkpt>
      <trkpt lat="46.29668" lon="-0.45732">
        <ele>65</ele>
        <time>2011-11-22T15:54:12Z</time>
      </trkpt>
      <trkpt lat="46.29662" lon="-0.45735">
        <ele>64</ele>
        <time>2011-11-22T15:54:17Z</time>
      </trkpt>
      <trkpt lat="46.29657" lon="-0.45736">
        <ele>64</ele>
        <time>2011-11-22T15:54:22Z</time>
      </trkpt>
      <trkpt lat="46.29652" lon="-0.45739">
        <ele>64</ele>
        <time>2011-11-22T15:54:27Z</time>
      </trkpt>
      <trkpt lat="46.2965" lon="-0.45738">
        <ele>63</ele>
        <time>2011-11-22T15:54:32Z</time>
      </trkpt>
      <trkpt lat="46.29645" lon="-0.45738">
        <ele>63</ele>
        <time>2011-11-22T15:54:37Z</time>
      </trkpt>
      <trkpt lat="46.29639" lon="-0.45739">
        <ele>66</ele>
        <time>2011-11-22T15:54:42Z</time>
      </trkpt>
      <trkpt lat="46.29634" lon="-0.45738">
        <ele>68</ele>
        <time>2011-11-22T15:54:47Z</time>
      </trkpt>
      <trkpt lat="46.29629" lon="-0.4574">
        <ele>68</ele>
        <time>2011-11-22T15:54:52Z</time>
      </trkpt>
      <trkpt lat="46.29627" lon="-0.4574">
        <ele>68</ele>
        <time>2011-11-22T15:54:57Z</time>
      </trkpt>
      <trkpt lat="46.29624" lon="-0.45739">
        <ele>68</ele>
        <time>2011-11-22T15:55:02Z</time>
      </trkpt>
      <trkpt lat="46.2962" lon="-0.45734">
        <ele>68</ele>
        <time>2011-11-22T15:55:07Z</time>
      </trkpt>
      <trkpt lat="46.29622" lon="-0.45729">
        <ele>68</ele>
        <time>2011-11-22T15:55:12Z</time>
      </trkpt>
      <trkpt lat="46.29621" lon="-0.45722">
        <ele>68</ele>
        <time>2011-11-22T15:55:17Z</time>
      </trkpt>
      <trkpt lat="46.29619" lon="-0.45712">
        <ele>65</ele>
        <time>2011-11-22T15:55:22Z</time>
      </trkpt>
      <trkpt lat="46.29617" lon="-0.45705">
        <ele>64</ele>
        <time>2011-11-22T15:55:27Z</time>
      </trkpt>
      <trkpt lat="46.29615" lon="-0.45701">
        <ele>65</ele>
        <time>2011-11-22T15:55:32Z</time>
      </trkpt>
      <trkpt lat="46.29616" lon="-0.45694">
        <ele>64</ele>
        <time>2011-11-22T15:55:37Z</time>
      </trkpt>
      <trkpt lat="46.29617" lon="-0.45687">
        <ele>64</ele>
        <time>2011-11-22T15:55:42Z</time>
      </trkpt>
      <trkpt lat="46.29618" lon="-0.45678">
        <ele>64</ele>
        <time>2011-11-22T15:55:47Z</time>
      </trkpt>
      <trkpt lat="46.2962" lon="-0.45671">
        <ele>65</ele>
        <time>2011-11-22T15:55:52Z</time>
      </trkpt>
      <trkpt lat="46.29623" lon="-0.45662">
        <ele>65</ele>
        <time>2011-11-22T15:55:57Z</time>
      </trkpt>
      <trkpt lat="46.29623" lon="-0.45655">
        <ele>66</ele>
        <time>2011-11-22T15:56:02Z</time>
      </trkpt>
      <trkpt lat="46.29621" lon="-0.45645">
        <ele>65</ele>
        <time>2011-11-22T15:56:07Z</time>
      </trkpt>
      <trkpt lat="46.29619" lon="-0.4564">
        <ele>66</ele>
        <time>2011-11-22T15:56:12Z</time>
      </trkpt>
      <trkpt lat="46.29617" lon="-0.45632">
        <ele>65</ele>
        <time>2011-11-22T15:56:17Z</time>
      </trkpt>
      <trkpt lat="46.29617" lon="-0.45624">
        <ele>65</ele>
        <time>2011-11-22T15:56:22Z</time>
      </trkpt>
      <trkpt lat="46.29616" lon="-0.45617">
        <ele>66</ele>
        <time>2011-11-22T15:56:27Z</time>
      </trkpt>
      <trkpt lat="46.29615" lon="-0.45612">
        <ele>65</ele>
        <time>2011-11-22T15:56:32Z</time>
      </trkpt>
      <trkpt lat="46.29613" lon="-0.45603">
        <ele>64</ele>
        <time>2011-11-22T15:56:37Z</time>
      </trkpt>
      <trkpt lat="46.29611" lon="-0.45595">
        <ele>63</ele>
        <time>2011-11-22T15:56:42Z</time>
      </trkpt>
      <trkpt lat="46.2961" lon="-0.45587">
        <ele>63</ele>
        <time>2011-11-22T15:56:47Z</time>
      </trkpt>
      <trkpt lat="46.29609" lon="-0.45577">
        <ele>63</ele>
        <time>2011-11-22T15:56:52Z</time>
      </trkpt>
      <trkpt lat="46.29606" lon="-0.4557">
        <ele>62</ele>
        <time>2011-11-22T15:56:57Z</time>
      </trkpt>
      <trkpt lat="46.29606" lon="-0.45561">
        <ele>62</ele>
        <time>2011-11-22T15:57:02Z</time>
      </trkpt>
      <trkpt lat="46.29605" lon="-0.45554">
        <ele>62</ele>
        <time>2011-11-22T15:57:07Z</time>
      </trkpt>
      <trkpt lat="46.29604" lon="-0.45547">
        <ele>63</ele>
        <time>2011-11-22T15:57:12Z</time>
      </trkpt>
      <trkpt lat="46.29605" lon="-0.4554">
        <ele>61</ele>
        <time>2011-11-22T15:57:17Z</time>
      </trkpt>
      <trkpt lat="46.29605" lon="-0.45531">
        <ele>63</ele>
        <time>2011-11-22T15:57:22Z</time>
      </trkpt>
      <trkpt lat="46.29606" lon="-0.45523">
        <ele>62</ele>
        <time>2011-11-22T15:57:27Z</time>
      </trkpt>
      <trkpt lat="46.29604" lon="-0.45514">
        <ele>64</ele>
        <time>2011-11-22T15:57:32Z</time>
      </trkpt>
      <trkpt lat="46.29604" lon="-0.45506">
        <ele>64</ele>
        <time>2011-11-22T15:57:37Z</time>
      </trkpt>
      <trkpt lat="46.29606" lon="-0.45499">
        <ele>63</ele>
        <time>2011-11-22T15:57:42Z</time>
      </trkpt>
      <trkpt lat="46.29605" lon="-0.45492">
        <ele>63</ele>
        <time>2011-11-22T15:57:47Z</time>
      </trkpt>
      <trkpt lat="46.29604" lon="-0.45485">
        <ele>63</ele>
        <time>2011-11-22T15:57:52Z</time>
      </trkpt>
      <trkpt lat="46.29604" lon="-0.45475">
        <ele>65</ele>
        <time>2011-11-22T15:57:57Z</time>
      </trkpt>
      <trkpt lat="46.29604" lon="-0.45467">
        <ele>65</ele>
        <time>2011-11-22T15:58:02Z</time>
      </trkpt>
      <trkpt lat="46.29603" lon="-0.45459">
        <ele>66</ele>
        <time>2011-11-22T15:58:07Z</time>
      </trkpt>
      <trkpt lat="46.29603" lon="-0.45452">
        <ele>67</ele>
        <time>2011-11-22T15:58:12Z</time>
      </trkpt>
      <trkpt lat="46.29604" lon="-0.45447">
        <ele>65</ele>
        <time>2011-11-22T15:58:17Z</time>
      </trkpt>
      <trkpt lat="46.29603" lon="-0.4544">
        <ele>65</ele>
        <time>2011-11-22T15:58:22Z</time>
      </trkpt>
      <trkpt lat="46.29603" lon="-0.45433">
        <ele>65</ele>
        <time>2011-11-22T15:58:27Z</time>
      </trkpt>
      <trkpt lat="46.29601" lon="-0.45432">
        <ele>61</ele>
        <time>2011-11-22T15:58:32Z</time>
      </trkpt>
      <trkpt lat="46.296" lon="-0.45423">
        <ele>60</ele>
        <time>2011-11-22T15:58:37Z</time>
      </trkpt>
      <trkpt lat="46.29597" lon="-0.45416">
        <ele>59</ele>
        <time>2011-11-22T15:58:42Z</time>
      </trkpt>
      <trkpt lat="46.29596" lon="-0.45408">
        <ele>60</ele>
        <time>2011-11-22T15:58:47Z</time>
      </trkpt>
      <trkpt lat="46.29594" lon="-0.45402">
        <ele>60</ele>
        <time>2011-11-22T15:58:52Z</time>
      </trkpt>
      <trkpt lat="46.29593" lon="-0.45401">
        <ele>60</ele>
        <time>2011-11-22T15:58:57Z</time>
      </trkpt>
      <trkpt lat="46.29591" lon="-0.45396">
        <ele>62</ele>
        <time>2011-11-22T15:59:02Z</time>
      </trkpt>
      <trkpt lat="46.29587" lon="-0.45392">
        <ele>62</ele>
        <time>2011-11-22T15:59:07Z</time>
      </trkpt>
      <trkpt lat="46.29583" lon="-0.45388">
        <ele>62</ele>
        <time>2011-11-22T15:59:12Z</time>
      </trkpt>
      <trkpt lat="46.29578" lon="-0.45385">
        <ele>64</ele>
        <time>2011-11-22T15:59:17Z</time>
      </trkpt>
      <trkpt lat="46.29574" lon="-0.4538">
        <ele>65</ele>
        <time>2011-11-22T15:59:22Z</time>
      </trkpt>
      <trkpt lat="46.29571" lon="-0.45374">
        <ele>66</ele>
        <time>2011-11-22T15:59:27Z</time>
      </trkpt>
      <trkpt lat="46.29567" lon="-0.4537">
        <ele>66</ele>
        <time>2011-11-22T15:59:32Z</time>
      </trkpt>
      <trkpt lat="46.29562" lon="-0.45367">
        <ele>66</ele>
        <time>2011-11-22T15:59:37Z</time>
      </trkpt>
      <trkpt lat="46.29559" lon="-0.45364">
        <ele>66</ele>
        <time>2011-11-22T15:59:42Z</time>
      </trkpt>
      <trkpt lat="46.29556" lon="-0.45359">
        <ele>66</ele>
        <time>2011-11-22T15:59:47Z</time>
      </trkpt>
      <trkpt lat="46.29555" lon="-0.45354">
        <ele>67</ele>
        <time>2011-11-22T15:59:52Z</time>
      </trkpt>
      <trkpt lat="46.29554" lon="-0.45352">
        <ele>67</ele>
        <time>2011-11-22T15:59:57Z</time>
      </trkpt>
      <trkpt lat="46.29554" lon="-0.45351">
        <ele>67</ele>
        <time>2011-11-22T16:00:02Z</time>
      </trkpt>
      <trkpt lat="46.29554" lon="-0.45351">
        <ele>67</ele>
        <time>2011-11-22T16:00:07Z</time>
      </trkpt>
    </trkseg>
  </trk>
</gpx>